HOT - SCOPE : Cruise & Drifter Tracks
in the School of Ocean and Earth Science and Technology at the University of Hawai'i at Manoa

Kilo Moana
GMT GMT Latitude Longitude SOG Head TWind TWind Temp Rel Bar SST
date time deg N deg W dir speed deg C Humid deg C
7-2-2022 5:02 17o 8.13' ( 17.1355) 171o 6.01' (-171.1002) 0.7 90.5 90.4 20.9 27.1 74.0 1012.9 27.8
7-2-2022 4:32 17o 8.28' ( 17.1380) 171o 5.67' (-171.0944) 2.7 89.8 103.4 20.8 27.2 73.0 1012.9 27.8
7-2-2022 4:02 17o 8.41' ( 17.1401) 171o 5.42' (-171.0904) 1.1 88.6 87.8 20.3 27.3 74.8 1012.7 27.8
7-2-2022 3:32 17o 8.61' ( 17.1435) 171o 5.19' (-171.0865) 1.2 89.7 85.7 20.3 27.2 74.3 1013.0 27.8
7-2-2022 3:02 17o 8.82' ( 17.1470) 171o 4.59' (-171.0764) 1.0 90.2 91.2 20.4 27.2 74.4 1013.0 27.8
7-2-2022 2:32 17o 9.02' ( 17.1504) 171o 4.23' (-171.0705) 0.6 92.1 88.4 19.0 27.2 73.0 1013.2 27.8
7-2-2022 2:02 17o 9.08' ( 17.1513) 171o 4.22' (-171.0704) 0.4 82.8 79.6 19.0 27.0 76.0 1013.4 27.8
7-2-2022 1:32 17o 9.12' ( 17.1520) 171o 4.21' (-171.0701) 0.8 87.2 85.9 19.5 27.0 75.2 1013.5 27.8
7-2-2022 1:02 17o 9.14' ( 17.1523) 171o 4.10' (-171.0683) 0.5 86.2 90.4 18.1 27.2 75.2 1013.8 27.8
7-2-2022 0:32 17o 9.17' ( 17.1529) 171o 3.95' (-171.0659) 0.5 81.6 82.6 19.6 27.0 73.7 1014.2 27.8
7-2-2022 0:02 17o 9.25' ( 17.1541) 171o 3.84' (-171.0639) 0.6 86.7 80.8 20.8 27.2 75.9 1014.4 27.8
7-1-2022 23:32 17o 9.30' ( 17.1549) 171o 3.72' (-171.0620) 0.6 92.4 84.9 18.0 27.2 70.0 1014.8 27.8
7-1-2022 23:02 17o 9.36' ( 17.1559) 171o 3.73' (-171.0622) 0.4 87.0 89.1 17.9 27.3 70.8 1015.1 27.7
7-1-2022 22:32 17o 9.35' ( 17.1559) 171o 3.69' (-171.0614) 0.4 82.9 85.5 17.7 27.2 75.0 1015.0 27.8
7-1-2022 22:02 17o 9.34' ( 17.1557) 171o 3.68' (-171.0614) 0.5 84.0 101.7 19.1 27.2 73.8 1015.0 27.8
7-1-2022 21:32 17o 9.41' ( 17.1568) 171o 3.42' (-171.0570) 1.0 88.4 96.2 17.8 27.2 71.1 1014.9 27.8
7-1-2022 21:02 17o 9.52' ( 17.1587) 171o 3.14' (-171.0523) 0.4 88.5 97.4 15.6 26.9 77.9 1015.0 27.8
7-1-2022 20:32 17o 9.65' ( 17.1608) 171o 2.97' (-171.0495) 0.6 89.1 104.2 15.7 26.9 75.4 1015.1 27.7
7-1-2022 20:02 17o 9.76' ( 17.1626) 171o 2.85' (-171.0475) 0.7 90.8 123.2 14.7 26.4 76.7 1015.2 27.7
7-1-2022 19:32 17o 9.92' ( 17.1654) 171o 2.40' (-171.0401) 0.6 89.5 87.6 9.9 26.3 79.9 1015.3 27.7
7-1-2022 19:02 17o 10.10' ( 17.1684) 171o 2.38' (-171.0397) 0.6 85.5 97.4 10.5 26.0 80.4 1015.2 27.7
7-1-2022 18:32 17o 10.23' ( 17.1705) 171o 2.21' (-171.0369) 0.5 76.2 71.0 8.9 23.9 86.0 1015.2 27.7
7-1-2022 18:02 17o 10.36' ( 17.1727) 171o 2.13' (-171.0355) 0.5 63.3 70.6 9.6 24.2 87.0 1015.1 27.7
7-1-2022 17:32 17o 10.47' ( 17.1745) 171o 2.01' (-171.0335) 0.6 64.3 71.5 14.9 23.9 91.4 1014.9 27.7
7-1-2022 17:02 17o 10.59' ( 17.1764) 171o 1.86' (-171.0311) 0.7 62.5 41.3 12.8 25.4 81.1 1014.2 27.8
7-1-2022 16:32 17o 10.85' ( 17.1809) 171o 1.57' (-171.0262) 1.0 61.5 48.6 11.6 25.2 79.1 1014.2 27.8
7-1-2022 16:02 17o 8.82' ( 17.1471) 171o 0.71' (-171.0119) 11.7 257.2 65.5 11.7 25.2 78.3 1014.2 27.8
7-1-2022 15:32 17o 10.92' ( 17.1820) 171o 1.54' (-171.0257) 0.5 74.2 78.9 15.5 25.0 80.3 1014.1 27.8
7-1-2022 15:02 17o 10.97' ( 17.1828) 171o 1.39' (-171.0232) 0.7 60.1 75.3 14.0 25.9 79.5 1014.1 27.8
7-1-2022 14:32 17o 11.11' ( 17.1851) 171o 1.23' (-171.0205) 0.4 60.6 70.7 12.0 25.5 83.4 1013.9 27.8
7-1-2022 14:02 17o 11.10' ( 17.1851) 171o 1.23' (-171.0205) 0.4 59.5 67.9 12.9 25.4 83.2 1014.0 27.8
7-1-2022 13:32 17o 11.18' ( 17.1863) 171o 1.24' (-171.0206) 0.6 68.4 64.0 16.7 25.2 81.3 1014.2 27.8
7-1-2022 13:02 17o 11.26' ( 17.1876) 171o 1.19' (-171.0198) 0.5 75.1 65.2 15.1 26.3 79.4 1014.2 27.8
7-1-2022 12:32 17o 11.35' ( 17.1892) 171o 1.10' (-171.0183) 0.7 87.4 87.8 11.2 26.7 76.0 1014.5 27.8
7-1-2022 12:02 17o 11.47' ( 17.1912) 171o 1.02' (-171.0170) 0.5 88.7 104.5 13.4 27.0 75.5 1014.6 27.8
7-1-2022 11:32 17o 11.55' ( 17.1925) 171o 0.94' (-171.0157) 0.6 88.5 90.2 13.8 26.9 78.0 1015.0 27.8
7-1-2022 11:02 17o 11.61' ( 17.1935) 171o 0.89' (-171.0148) 0.5 87.5 91.0 14.0 26.7 74.3 1015.4 27.8
7-1-2022 10:32 17o 11.67' ( 17.1945) 171o 0.85' (-171.0142) 0.3 87.4 99.6 14.5 27.1 73.5 1015.7 27.8
7-1-2022 9:32 17o 11.72' ( 17.1954) 171o 0.74' (-171.0123) 0.5 89.9 99.9 12.1 27.2 74.9 1016.0 27.8
7-1-2022 9:02 17o 11.79' ( 17.1966) 171o 0.51' (-171.0085) 0.5 90.5 92.9 13.2 27.1 75.4 1015.8 27.8
7-1-2022 8:32 17o 11.95' ( 17.1992) 171o 0.38' (-171.0064) 0.7 101.4 96.6 13.9 27.1 72.5 1015.5 27.8
7-1-2022 8:02 17o 12.16' ( 17.2027) 171o 0.24' (-171.0040) 0.5 88.5 98.9 13.9 27.1 70.8 1015.2 27.8
7-1-2022 7:32 17o 12.24' ( 17.2041) 171o 0.16' (-171.0027) 0.5 85.7 99.0 13.1 27.1 71.2 1014.9 27.8
7-1-2022 7:02 17o 12.34' ( 17.2057) 171o 0.10' (-171.0016) 0.9 85.6 85.3 15.2 27.1 68.7 1014.8 27.8
7-1-2022 6:32 17o 12.48' ( 17.2079) 171o 0.10' (-171.0016) 0.7 88.6 92.9 15.1 27.2 65.2 1014.5 27.8
7-1-2022 6:02 17o 12.57' ( 17.2095) 170o 59.99' (-170.9999) 0.4 79.1 93.9 16.9 27.2 65.5 1014.3 27.8
7-1-2022 5:32 17o 12.65' ( 17.2108) 170o 59.75' (-170.9958) 0.7 75.5 81.3 18.6 27.2 68.2 1014.1 27.8
7-1-2022 5:02 17o 11.40' ( 17.1900) 171o 1.28' (-171.0214) 6.9 137.7 77.0 17.9 27.0 72.7 1013.8 27.8
7-1-2022 4:32 17o 12.66' ( 17.2110) 170o 59.55' (-170.9924) 3.6 87.5 74.3 16.5 26.5 73.0 1013.9 27.8
7-1-2022 4:02 17o 12.82' ( 17.2136) 170o 59.16' (-170.9861) 1.0 86.6 85.8 15.5 27.1 71.8 1013.5 27.8
7-1-2022 3:32 17o 12.94' ( 17.2156) 170o 58.81' (-170.9802) 1.0 91.7 88.5 17.1 27.1 69.4 1013.4 27.8
7-1-2022 3:02 17o 13.03' ( 17.2171) 170o 58.40' (-170.9733) 0.6 92.9 85.5 17.3 27.1 70.2 1013.4 27.8
7-1-2022 2:32 17o 13.09' ( 17.2182) 170o 58.18' (-170.9696) 1.0 93.8 83.3 15.5 27.2 70.7 1013.2 27.8
7-1-2022 2:02 17o 13.12' ( 17.2186) 170o 58.13' (-170.9688) 0.5 85.7 87.1 14.6 27.5 72.0 1013.5 27.8
7-1-2022 1:32 17o 13.04' ( 17.2173) 170o 58.12' (-170.9687) 0.4 84.5 90.4 16.7 27.0 71.9 1013.9 27.8
7-1-2022 1:02 17o 13.02' ( 17.2171) 170o 58.12' (-170.9687) 0.5 89.8 86.4 18.0 27.3 70.5 1014.2 27.8
7-1-2022 0:32 17o 13.05' ( 17.2175) 170o 58.12' (-170.9686) 0.5 98.0 92.2 18.8 27.4 69.4 1014.5 27.8
7-1-2022 0:02 17o 12.61' ( 17.2101) 171o 0.70' (-171.0116) 10.9 81.0 89.7 17.0 27.4 71.4 1014.4 27.8
6-30-2022 23:32 17o 11.68' ( 17.1946) 171o 6.28' (-171.1046) 10.7 81.8 89.7 18.5 27.4 69.6 1014.5 27.8
6-30-2022 23:02 17o 10.73' ( 17.1788) 171o 11.82' (-171.1969) 10.7 81.3 87.9 17.4 27.3 75.5 1014.6 27.8
6-30-2022 22:32 17o 9.83' ( 17.1639) 171o 17.35' (-171.2892) 10.7 80.4 88.5 18.1 27.4 72.0 1014.7 27.8
6-30-2022 22:02 17o 8.96' ( 17.1494) 171o 22.87' (-171.3811) 10.7 80.9 87.7 18.2 27.4 73.2 1014.9 27.7
6-30-2022 21:32 17o 8.08' ( 17.1347) 171o 28.43' (-171.4738) 10.7 80.8 82.1 19.7 27.3 71.4 1014.8 27.8
6-30-2022 21:02 17o 7.17' ( 17.1196) 171o 34.00' (-171.5666) 10.6 79.9 85.1 17.1 27.1 74.7 1014.8 27.7
6-30-2022 20:32 17o 6.27' ( 17.1045) 171o 39.46' (-171.6577) 10.3 79.9 75.8 22.3 26.2 76.6 1014.7 27.7
6-30-2022 20:02 17o 5.43' ( 17.0904) 171o 44.83' (-171.7472) 10.5 79.3 78.0 19.4 27.1 71.4 1014.5 27.7
6-30-2022 19:32 17o 4.56' ( 17.0761) 171o 50.23' (-171.8371) 10.3 80.3 69.6 17.1 27.0 75.0 1014.7 27.7
6-30-2022 19:02 17o 3.66' ( 17.0610) 171o 55.48' (-171.9247) 10.3 76.5 65.5 17.2 27.0 72.9 1014.4 27.7
6-30-2022 18:32 17o 2.75' ( 17.0459) 172o 0.78' (-172.0130) 10.5 78.3 67.9 16.7 27.1 72.2 1014.2 27.7
6-30-2022 18:02 17o 1.85' ( 17.0309) 172o 6.16' (-172.1026) 10.3 77.4 68.6 17.4 27.2 70.1 1013.9 27.7
6-30-2022 17:32 17o 0.94' ( 17.0157) 172o 11.46' (-172.1910) 10.4 80.3 61.8 17.2 26.8 74.9 1014.0 27.6
6-30-2022 17:02 17o 0.15' ( 17.0026) 172o 16.82' (-172.2803) 10.5 77.7 62.0 16.2 26.6 74.4 1013.8 27.6
6-30-2022 16:32 16o 59.20' ( 16.9867) 172o 22.14' (-172.3690) 10.3 77.9 70.6 14.5 26.4 78.5 1013.0 27.6
6-30-2022 16:02 16o 58.32' ( 16.9721) 172o 27.43' (-172.4571) 10.3 80.3 63.8 16.9 26.4 80.3 1013.6 27.5
6-30-2022 15:32 16o 57.50' ( 16.9583) 172o 32.77' (-172.5462) 10.4 80.5 68.6 16.8 26.9 71.2 1013.5 27.5
6-30-2022 15:02 16o 56.58' ( 16.9430) 172o 38.10' (-172.6351) 10.4 79.3 73.7 17.3 26.8 72.0 1013.5 27.5
6-30-2022 14:32 16o 55.75' ( 16.9292) 172o 43.49' (-172.7248) 10.5 81.3 70.0 16.1 27.0 72.9 1013.5 27.6
6-30-2022 14:02 16o 54.92' ( 16.9154) 172o 48.91' (-172.8151) 10.5 81.3 69.8 17.1 27.0 72.1 1013.7 27.6
6-30-2022 13:32 16o 54.02' ( 16.9004) 172o 54.36' (-172.9060) 10.7 80.3 73.7 16.5 27.1 72.3 1013.8 27.6
6-30-2022 13:02 16o 53.11' ( 16.8851) 172o 59.80' (-172.9967) 10.5 80.6 68.1 16.8 27.0 72.8 1013.9 27.6
6-30-2022 12:32 16o 52.18' ( 16.8697) 173o 5.18' (-173.0863) 10.4 80.7 72.3 17.3 27.0 72.0 1014.2 27.6
6-30-2022 12:02 16o 51.38' ( 16.8563) 173o 10.52' (-173.1754) 10.4 81.8 74.7 16.8 27.2 71.5 1014.5 27.6
6-30-2022 11:32 16o 50.44' ( 16.8407) 173o 15.87' (-173.2644) 10.5 80.3 75.9 15.7 27.2 72.2 1014.9 27.6
6-30-2022 11:02 16o 49.56' ( 16.8261) 173o 21.28' (-173.3546) 10.5 83.1 74.8 15.6 27.2 74.2 1015.0 27.6
6-30-2022 10:32 16o 48.72' ( 16.8119) 173o 26.68' (-173.4446) 10.6 82.9 76.7 14.3 26.6 78.0 1015.1 27.6
6-30-2022 10:02 16o 47.84' ( 16.7974) 173o 32.12' (-173.5353) 10.5 82.7 80.1 17.0 27.2 73.7 1015.0 27.5
6-30-2022 9:32 16o 46.94' ( 16.7823) 173o 37.57' (-173.6262) 10.7 82.4 75.1 15.0 27.2 74.6 1015.0 27.6
6-30-2022 9:02 16o 46.04' ( 16.7674) 173o 42.98' (-173.7163) 10.5 79.5 76.9 17.2 27.2 72.7 1014.7 27.6
6-30-2022 8:32 16o 44.97' ( 16.7494) 173o 48.39' (-173.8064) 10.7 80.4 74.1 16.6 27.3 73.3 1014.5 27.6
6-30-2022 8:02 16o 43.92' ( 16.7320) 173o 53.88' (-173.8980) 10.7 79.9 68.7 17.5 27.3 72.9 1014.2 27.6
6-30-2022 7:32 16o 42.94' ( 16.7157) 173o 59.39' (-173.9898) 10.9 85.8 68.6 16.0 27.2 75.7 1014.1 27.7
6-30-2022 7:02 16o 42.37' ( 16.7061) 174o 5.02' (-174.0837) 11.0 81.3 68.5 14.9 27.1 79.2 1013.8 27.7
6-30-2022 6:32 16o 41.39' ( 16.6898) 174o 10.67' (-174.1779) 11.1 82.9 70.3 14.4 27.1 78.5 1013.5 27.7
6-30-2022 6:02 16o 40.49' ( 16.6748) 174o 16.39' (-174.2731) 11.1 87.1 71.6 14.9 27.0 78.0 1013.3 27.7
6-30-2022 5:32 16o 39.89' ( 16.6649) 174o 22.04' (-174.3674) 10.7 87.3 70.3 17.5 27.0 75.2 1013.0 27.7
6-30-2022 5:02 16o 39.37' ( 16.6561) 174o 26.32' (-174.4386) 5.7 89.5 67.7 16.8 27.1 73.6 1012.6 27.7
6-30-2022 4:32 16o 39.10' ( 16.6516) 174o 29.23' (-174.4871) 7.1 97.8 54.4 11.8 27.0 77.8 1012.6 27.7
6-30-2022 4:02 16o 38.68' ( 16.6447) 174o 31.31' (-174.5219) 4.0 86.2 61.4 16.0 27.2 79.3 1012.3 27.7
6-30-2022 3:32 16o 38.25' ( 16.6374) 174o 33.37' (-174.5561) 4.1 86.7 77.9 15.5 27.3 74.3 1012.8 27.7
6-30-2022 3:02 16o 37.78' ( 16.6297) 174o 35.41' (-174.5901) 4.0 84.6 79.8 14.8 27.1 78.5 1012.7 27.7
6-30-2022 2:32 16o 37.20' ( 16.6200) 174o 37.20' (-174.6200) 5.8 81.9 72.9 13.5 27.1 78.0 1013.0 27.8
6-30-2022 2:02 16o 36.26' ( 16.6043) 174o 42.52' (-174.7086) 10.7 81.9 82.9 17.4 27.3 70.7 1013.0 27.8
6-30-2022 1:32 16o 35.37' ( 16.5895) 174o 48.01' (-174.8002) 10.7 82.9 82.3 15.2 27.2 78.7 1013.3 27.7
6-30-2022 1:02 16o 34.45' ( 16.5742) 174o 53.56' (-174.8927) 10.9 84.6 81.2 15.0 27.3 76.0 1013.7 27.6
6-30-2022 0:32 16o 33.55' ( 16.5591) 174o 59.24' (-174.9873) 11.3 84.2 87.2 13.7 27.3 72.0 1013.9 27.6
6-30-2022 0:02 16o 32.63' ( 16.5438) 175o 5.04' (-175.0840) 11.2 83.9 80.1 14.0 27.1 78.0 1014.4 27.6
6-29-2022 23:32 16o 31.68' ( 16.5281) 175o 10.82' (-175.1804) 11.2 82.1 80.7 12.3 25.6 78.9 1014.6 27.6
6-29-2022 23:02 16o 30.70' ( 16.5117) 175o 16.57' (-175.2762) 11.4 79.8 72.0 14.1 27.5 75.8 1014.9 27.6
6-29-2022 22:32 16o 29.78' ( 16.4963) 175o 22.43' (-175.3738) 11.4 81.5 86.0 14.3 27.1 74.6 1014.8 27.6
6-29-2022 22:02 16o 28.77' ( 16.4796) 175o 28.24' (-175.4707) 11.3 80.5 85.1 15.9 27.2 72.4 1015.0 27.5
6-29-2022 21:32 16o 27.79' ( 16.4632) 175o 34.00' (-175.5667) 11.5 81.7 91.3 10.1 26.7 80.2 1014.9 27.5
6-29-2022 21:02 16o 27.02' ( 16.4503) 175o 39.96' (-175.6660) 11.4 84.8 105.2 8.5 25.9 80.4 1014.9 27.6
6-29-2022 20:32 16o 26.02' ( 16.4337) 175o 45.73' (-175.7622) 11.0 80.4 102.5 15.8 25.4 79.6 1014.8 27.6
6-29-2022 20:02 16o 25.01' ( 16.4169) 175o 51.31' (-175.8552) 10.9 80.4 66.2 17.3 26.2 80.1 1014.7 27.8
6-29-2022 19:32 16o 24.02' ( 16.4003) 175o 56.85' (-175.9476) 11.1 78.9 70.9 10.7 24.9 90.9 1014.5 27.8
6-29-2022 19:02 16o 23.11' ( 16.3851) 176o 2.56' (-176.0427) 11.4 80.6 71.6 9.6 27.1 77.2 1014.2 27.8
6-29-2022 18:32 16o 22.24' ( 16.3707) 176o 8.46' (-176.1409) 11.3 83.2 69.5 8.1 26.3 77.5 1014.1 27.8
6-29-2022 18:02 16o 21.40' ( 16.3567) 176o 14.19' (-176.2365) 11.0 81.8 71.0 14.1 26.0 80.5 1013.7 28.0
6-29-2022 17:32 16o 20.38' ( 16.3397) 176o 19.78' (-176.3297) 10.9 79.5 88.3 17.0 26.3 75.7 1013.3 28.0
6-29-2022 17:02 16o 19.33' ( 16.3222) 176o 25.45' (-176.4241) 11.3 83.3 75.4 12.9 26.6 76.8 1013.1 28.1
6-29-2022 16:32 16o 18.55' ( 16.3092) 176o 31.26' (-176.5210) 11.5 82.0 91.1 8.2 25.9 80.2 1013.1 28.2
6-29-2022 16:02 16o 17.57' ( 16.2928) 176o 36.97' (-176.6161) 10.8 80.9 88.3 18.1 26.7 79.0 1013.0 28.2
6-29-2022 15:32 16o 16.60' ( 16.2766) 176o 42.57' (-176.7094) 10.2 80.6 83.8 12.5 26.7 80.5 1012.9 28.2
6-29-2022 15:02 16o 16.15' ( 16.2691) 176o 45.36' (-176.7561) 0.4 76.5 76.6 13.7 27.1 74.4 1012.6 28.2
6-29-2022 14:32 16o 16.10' ( 16.2684) 176o 45.35' (-176.7558) 0.4 76.9 86.2 12.8 27.3 75.4 1012.8 28.2
6-29-2022 14:02 16o 16.06' ( 16.2676) 176o 45.34' (-176.7557) 0.4 74.6 79.5 14.9 27.0 72.0 1012.9 28.2
6-29-2022 13:32 16o 15.86' ( 16.2643) 176o 46.77' (-176.7795) 11.1 79.1 80.1 14.2 27.1 72.9 1012.8 28.2
6-29-2022 13:02 16o 14.93' ( 16.2488) 176o 52.43' (-176.8738) 11.0 80.8 68.4 15.3 27.2 74.0 1013.2 28.2
6-29-2022 12:32 16o 13.95' ( 16.2325) 176o 58.08' (-176.9679) 11.1 77.9 68.6 13.5 27.3 75.0 1013.5 28.2
6-29-2022 12:02 16o 13.08' ( 16.2180) 177o 3.79' (-177.0632) 11.0 80.2 76.0 12.6 27.4 74.4 1013.7 28.2
6-29-2022 11:32 16o 12.20' ( 16.2033) 177o 9.43' (-177.1572) 11.0 78.6 75.4 13.2 27.4 75.8 1014.0 28.1
6-29-2022 11:02 16o 11.25' ( 16.1875) 177o 15.04' (-177.2507) 11.1 78.8 77.0 13.9 27.0 74.6 1014.1 28.1
6-29-2022 10:32 16o 10.28' ( 16.1713) 177o 20.72' (-177.3453) 11.1 79.2 79.2 13.9 27.5 74.4 1014.1 28.1
6-29-2022 10:02 16o 9.31' ( 16.1552) 177o 26.38' (-177.4396) 11.0 79.4 87.3 16.3 27.6 72.8 1014.0 28.1
6-29-2022 9:32 16o 8.43' ( 16.1406) 177o 32.01' (-177.5335) 11.0 80.0 85.2 14.9 27.6 72.0 1014.1 28.1
6-29-2022 9:02 16o 7.59' ( 16.1266) 177o 37.62' (-177.6270) 10.9 80.9 93.3 14.9 27.6 72.0 1014.0 28.1
6-29-2022 8:32 16o 6.68' ( 16.1113) 177o 43.19' (-177.7198) 10.9 81.0 85.0 14.4 27.7 75.8 1013.9 28.0
6-29-2022 8:02 16o 5.76' ( 16.0960) 177o 48.78' (-177.8131) 11.0 81.8 91.8 15.3 27.7 73.2 1013.6 28.0
6-29-2022 7:32 16o 4.82' ( 16.0804) 177o 54.42' (-177.9070) 11.0 80.4 89.6 15.9 27.7 72.1 1013.3 27.9
6-29-2022 7:02 16o 3.90' ( 16.0650) 178o 0.05' (-178.0008) 11.1 79.9 83.6 15.1 27.7 73.1 1012.8 27.9
6-29-2022 6:32 16o 2.93' ( 16.0488) 178o 5.71' (-178.0951) 11.1 78.9 81.8 14.4 27.6 74.0 1012.4 27.9
6-29-2022 6:02 16o 1.93' ( 16.0321) 178o 11.29' (-178.1881) 10.7 79.2 88.7 16.6 27.8 71.3 1012.0 27.9
6-29-2022 5:32 16o 1.01' ( 16.0168) 178o 16.77' (-178.2796) 10.8 81.1 80.9 14.3 27.8 73.1 1011.8 27.9
6-29-2022 5:02 16o 0.34' ( 16.0057) 178o 22.31' (-178.3718) 10.8 82.0 78.1 13.3 27.8 75.2 1011.4 28.0
6-29-2022 4:32 15o 59.46' ( 15.9910) 178o 27.80' (-178.4633) 10.7 79.6 82.7 15.5 27.9 69.6 1011.2 28.0
6-29-2022 4:02 15o 58.45' ( 15.9741) 178o 33.21' (-178.5534) 10.5 79.0 89.0 16.7 27.9 70.0 1011.0 28.0
6-29-2022 3:32 15o 57.53' ( 15.9589) 178o 38.56' (-178.6427) 10.5 80.1 83.9 16.6 27.9 70.0 1011.2 28.0
6-29-2022 3:02 15o 56.61' ( 15.9436) 178o 43.93' (-178.7322) 10.6 80.5 89.4 15.9 27.7 73.0 1011.2 28.0
6-29-2022 2:32 15o 55.75' ( 15.9291) 178o 49.33' (-178.8221) 10.6 79.3 78.9 16.0 27.0 75.3 1011.3 28.0
6-29-2022 2:02 15o 54.82' ( 15.9137) 178o 54.77' (-178.9129) 10.7 80.1 80.8 17.1 27.8 72.8 1011.5 28.0
6-29-2022 1:32 15o 54.04' ( 15.9007) 179o 0.21' (-179.0036) 10.5 82.4 80.1 16.7 27.8 72.3 1011.7 28.0
6-29-2022 1:02 15o 53.40' ( 15.8900) 179o 5.67' (-179.0944) 10.6 82.1 82.6 14.3 27.7 74.7 1011.8 28.0
6-29-2022 0:32 15o 52.68' ( 15.8779) 179o 11.06' (-179.1843) 10.5 82.1 84.9 15.4 27.8 74.3 1011.8 28.0
6-29-2022 0:02 15o 52.01' ( 15.8668) 179o 16.39' (-179.2731) 10.3 85.1 80.7 16.1 27.6 72.2 1012.1 27.9
6-28-2022 23:32 15o 51.61' ( 15.8601) 179o 19.80' (-179.3300) 0.3 98.2 88.8 16.1 27.9 71.7 1012.7 27.9
6-28-2022 23:02 15o 51.60' ( 15.8600) 179o 19.80' (-179.3300) 0.3 96.9 93.8 17.4 27.9 69.9 1012.8 27.9
6-28-2022 22:32 15o 51.58' ( 15.8597) 179o 19.61' (-179.3268) 0.7 93.6 93.7 18.3 28.0 67.9 1013.1 27.9
6-28-2022 22:02 15o 51.58' ( 15.8596) 179o 19.27' (-179.3211) 1.1 91.9 84.5 17.9 27.9 67.5 1012.9 27.9
6-28-2022 21:32 15o 51.59' ( 15.8598) 179o 19.02' (-179.3170) 0.7 93.4 89.6 17.2 28.0 68.0 1012.7 27.9
6-28-2022 21:02 15o 51.60' ( 15.8601) 179o 18.48' (-179.3079) 1.5 94.3 86.5 17.4 28.0 69.3 1012.9 27.9
6-28-2022 20:32 15o 51.60' ( 15.8600) 179o 17.88' (-179.2981) 1.0 95.9 84.4 18.2 27.9 69.9 1012.8 27.9
6-28-2022 20:02 15o 51.61' ( 15.8601) 179o 17.52' (-179.2920) 0.5 93.9 90.3 18.6 27.8 68.7 1012.6 27.9
6-28-2022 19:32 15o 51.59' ( 15.8598) 179o 17.23' (-179.2872) 0.6 94.2 89.1 16.8 27.8 72.3 1012.3 27.9
6-28-2022 19:02 15o 51.61' ( 15.8602) 179o 16.87' (-179.2811) 0.9 96.6 91.3 18.6 27.4 73.5 1012.3 27.9
6-28-2022 18:32 15o 51.68' ( 15.8613) 179o 16.52' (-179.2754) 1.1 101.9 90.7 17.2 27.5 73.3 1012.0 27.9
6-28-2022 18:02 15o 51.66' ( 15.8609) 179o 16.08' (-179.2681) 0.9 103.9 109.5 23.4 25.2 89.2 1011.6 27.9
6-28-2022 17:32 15o 51.52' ( 15.8586) 179o 15.62' (-179.2603) 1.5 99.3 120.9 17.7 25.7 86.5 1011.3 27.9
6-28-2022 17:02 15o 51.50' ( 15.8583) 179o 15.21' (-179.2535) 0.5 83.8 70.7 17.8 25.4 82.5 1011.1 27.9
6-28-2022 16:32 15o 51.53' ( 15.8588) 179o 14.56' (-179.2427) 1.3 93.4 79.0 14.2 25.6 85.3 1011.0 27.9
6-28-2022 16:02 15o 51.52' ( 15.8587) 179o 14.21' (-179.2368) 1.1 93.6 73.2 17.7 26.1 81.0 1010.8 27.9
6-28-2022 15:32 15o 51.56' ( 15.8594) 179o 14.03' (-179.2338) 0.3 90.7 72.8 16.1 26.0 80.0 1010.8 27.9
6-28-2022 15:02 15o 51.60' ( 15.8600) 179o 14.02' (-179.2337) 0.3 92.0 80.0 11.5 26.9 76.9 1010.8 27.9
6-28-2022 14:32 15o 51.58' ( 15.8597) 179o 13.83' (-179.2305) 0.6 92.8 83.8 12.0 26.9 76.5 1011.0 27.9
6-28-2022 14:02 15o 51.55' ( 15.8591) 179o 13.55' (-179.2258) 0.4 96.2 81.0 13.5 27.0 75.1 1011.0 27.9
6-28-2022 13:32 15o 51.54' ( 15.8590) 179o 13.27' (-179.2212) 0.8 95.3 93.6 13.3 27.0 70.7 1011.1 27.9
6-28-2022 13:02 15o 51.54' ( 15.8590) 179o 13.00' (-179.2167) 0.7 94.7 97.8 15.1 27.0 68.0 1011.4 27.9
6-28-2022 12:32 15o 53.14' ( 15.8856) 179o 15.59' (-179.2598) 10.1 121.8 94.5 14.7 27.1 69.0 1011.5 27.9
6-28-2022 12:02 15o 51.84' ( 15.8640) 179o 15.30' (-179.2550) 12.1 276.8 99.3 14.2 27.7 65.7 1012.0 27.9
6-28-2022 11:32 15o 51.34' ( 15.8557) 179o 12.51' (-179.2085) 0.6 95.7 90.9 16.6 27.1 67.2 1012.2 27.9
6-28-2022 11:02 15o 51.30' ( 15.8549) 179o 12.32' (-179.2053) 0.4 88.9 90.3 18.6 27.2 65.9 1012.4 27.9
6-28-2022 10:32 15o 51.26' ( 15.8543) 179o 12.09' (-179.2015) 0.7 88.4 96.9 18.4 27.2 71.6 1012.7 27.9
6-28-2022 10:02 15o 51.25' ( 15.8542) 179o 11.82' (-179.1970) 0.8 89.8 73.5 17.3 27.3 73.4 1012.6 27.9
6-28-2022 9:32 15o 51.24' ( 15.8540) 179o 11.55' (-179.1926) 0.6 89.2 88.8 16.8 27.4 68.8 1012.7 27.9
6-28-2022 9:02 15o 51.20' ( 15.8533) 179o 11.29' (-179.1881) 0.7 86.7 76.9 16.8 27.4 68.2 1012.4 27.9
6-28-2022 8:32 15o 51.12' ( 15.8520) 179o 10.99' (-179.1832) 0.7 85.7 82.4 16.2 27.5 66.6 1012.4 27.9
6-28-2022 8:02 15o 51.05' ( 15.8509) 179o 10.78' (-179.1797) 0.5 86.0 77.2 17.6 27.4 68.6 1012.0 28.0
6-28-2022 7:32 15o 51.08' ( 15.8513) 179o 10.11' (-179.1685) 1.8 83.8 74.7 16.7 27.6 71.6 1011.7 28.0
6-28-2022 7:02 15o 51.13' ( 15.8522) 179o 9.63' (-179.1605) 0.6 85.3 74.0 16.5 27.5 73.7 1011.3 28.0
6-28-2022 6:32 15o 51.14' ( 15.8524) 179o 9.33' (-179.1556) 0.9 84.9 75.0 16.5 27.5 73.2 1010.9 28.0
6-28-2022 6:02 15o 51.22' ( 15.8536) 179o 8.93' (-179.1488) 0.7 84.6 74.8 15.4 27.5 75.5 1010.8 28.0
6-28-2022 5:32 15o 51.28' ( 15.8546) 179o 8.65' (-179.1442) 0.7 83.9 75.3 14.8 27.6 72.5 1010.5 28.0
6-28-2022 5:02 15o 51.31' ( 15.8551) 179o 8.41' (-179.1402) 0.7 85.4 73.5 17.9 27.5 73.8 1010.3 28.0
6-28-2022 4:32 15o 51.39' ( 15.8564) 179o 8.12' (-179.1354) 0.4 87.6 75.6 14.5 27.6 74.9 1010.1 28.0
6-28-2022 4:02 15o 51.43' ( 15.8571) 179o 7.68' (-179.1281) 1.0 88.2 75.3 15.7 27.9 72.2 1010.0 28.0
6-28-2022 3:32 15o 51.45' ( 15.8575) 179o 7.47' (-179.1245) 0.3 86.1 76.0 15.9 27.8 72.5 1010.2 28.0
6-28-2022 3:02 15o 51.48' ( 15.8581) 179o 7.47' (-179.1245) 0.3 93.5 75.4 15.8 27.8 70.4 1010.2 28.1
6-28-2022 2:32 15o 51.50' ( 15.8583) 179o 7.23' (-179.1204) 0.9 91.2 84.2 14.4 27.8 69.1 1010.3 28.1
6-28-2022 2:02 15o 51.55' ( 15.8592) 179o 6.83' (-179.1139) 1.1 95.0 80.7 15.6 27.7 70.2 1010.5 28.0
6-28-2022 1:32 15o 51.66' ( 15.8610) 179o 6.55' (-179.1092) 1.3 102.3 96.0 14.3 27.3 72.4 1010.8 28.0
6-28-2022 1:02 15o 51.70' ( 15.8616) 179o 6.07' (-179.1011) 1.1 100.3 82.4 16.9 27.7 70.0 1011.0 28.0
6-28-2022 0:32 15o 51.77' ( 15.8628) 179o 5.55' (-179.0925) 1.1 93.7 86.8 15.5 27.7 67.7 1011.4 28.0
6-28-2022 0:02 15o 51.89' ( 15.8648) 179o 5.20' (-179.0867) 0.5 95.0 87.7 14.1 27.7 68.1 1011.5 27.9
6-27-2022 23:32 15o 51.96' ( 15.8659) 179o 4.99' (-179.0832) 0.6 90.7 82.8 14.6 27.5 70.7 1011.8 28.0
6-27-2022 23:02 15o 51.96' ( 15.8659) 179o 4.97' (-179.0829) 0.2 85.8 82.3 15.1 27.6 70.3 1011.9 27.9
6-27-2022 22:32 15o 52.03' ( 15.8671) 179o 4.70' (-179.0783) 0.5 94.5 87.9 15.5 27.4 67.0 1012.0 27.9
6-27-2022 22:02 15o 52.15' ( 15.8692) 179o 4.24' (-179.0707) 1.9 99.0 83.8 16.3 27.5 70.2 1012.0 27.9
6-27-2022 21:32 15o 52.27' ( 15.8711) 179o 3.62' (-179.0603) 1.7 91.5 88.4 15.6 27.7 72.2 1011.9 27.9
6-27-2022 21:02 15o 52.33' ( 15.8722) 179o 2.91' (-179.0484) 0.5 85.9 77.2 15.2 27.7 71.7 1011.7 27.9
6-27-2022 20:32 15o 51.75' ( 15.8624) 179o 3.25' (-179.0541) 4.8 38.5 77.5 16.2 28.0 71.8 1011.5 27.9
6-27-2022 20:02 15o 51.42' ( 15.8570) 179o 4.02' (-179.0670) 9.0 239.0 82.8 16.8 28.8 70.9 1011.6 27.9
6-27-2022 19:32 15o 53.57' ( 15.8928) 179o 1.62' (-179.0270) 0.5 85.4 77.9 15.3 27.4 73.2 1011.5 27.9
6-27-2022 19:02 15o 53.67' ( 15.8945) 179o 1.10' (-179.0183) 0.3 80.8 79.1 12.6 27.3 75.1 1011.2 27.9
6-27-2022 18:32 15o 53.71' ( 15.8951) 179o 0.85' (-179.0141) 0.7 78.5 81.1 16.3 27.3 68.6 1011.0 27.9
6-27-2022 18:02 15o 53.72' ( 15.8953) 179o 0.52' (-179.0087) 0.7 79.2 72.1 16.0 27.0 73.4 1010.7 27.9
6-27-2022 17:32 15o 53.76' ( 15.8961) 179o 0.16' (-179.0027) 0.3 79.0 78.1 14.4 26.9 72.2 1010.3 27.9
6-27-2022 17:02 15o 53.75' ( 15.8958) 179o 0.15' (-179.0026) 0.3 70.1 81.2 16.0 27.1 70.6 1010.1 27.9
6-27-2022 16:32 15o 50.85' ( 15.8475) 179o 1.56' (-179.0259) 10.4 29.3 73.4 17.3 26.9 71.5 1009.7 27.8
6-27-2022 16:02 15o 46.13' ( 15.7688) 179o 3.93' (-179.0654) 10.3 30.3 73.7 18.3 26.9 71.0 1009.5 27.8
6-27-2022 15:32 15o 41.38' ( 15.6897) 179o 6.15' (-179.1025) 10.5 30.1 73.9 17.8 26.8 70.0 1009.4 27.9
6-27-2022 15:02 15o 36.65' ( 15.6108) 179o 8.57' (-179.1428) 10.4 30.0 69.5 18.2 26.9 73.4 1009.4 27.9
6-27-2022 14:32 15o 31.95' ( 15.5325) 179o 10.92' (-179.1821) 10.6 30.8 72.2 15.9 27.2 74.6 1009.5 27.9
6-27-2022 14:02 15o 27.14' ( 15.4523) 179o 13.25' (-179.2209) 10.6 29.9 74.1 18.0 27.1 69.0 1009.7 27.9
6-27-2022 13:32 15o 22.34' ( 15.3724) 179o 15.66' (-179.2610) 10.6 30.8 69.3 17.4 27.1 73.8 1009.9 27.8
6-27-2022 13:02 15o 17.46' ( 15.2910) 179o 18.10' (-179.3017) 10.9 30.1 76.7 16.7 27.2 70.0 1010.1 27.8
6-27-2022 12:32 15o 12.57' ( 15.2094) 179o 20.52' (-179.3419) 10.7 30.7 68.5 19.1 27.1 71.5 1010.4 27.8
6-27-2022 12:02 15o 7.65' ( 15.1275) 179o 22.94' (-179.3823) 10.9 29.8 73.2 18.2 27.2 73.2 1010.7 27.8
6-27-2022 11:32 15o 2.68' ( 15.0446) 179o 25.42' (-179.4236) 11.0 28.0 74.6 17.6 27.3 73.2 1011.0 27.8
6-27-2022 11:02 14o 57.64' ( 14.9606) 179o 27.81' (-179.4635) 11.1 27.3 71.0 17.3 27.4 74.1 1011.2 27.9
6-27-2022 10:32 14o 52.64' ( 14.8774) 179o 30.28' (-179.5047) 11.0 27.2 73.4 17.7 27.5 72.5 1011.3 27.9
6-27-2022 10:02 14o 47.64' ( 14.7941) 179o 32.81' (-179.5468) 11.3 28.2 69.7 17.0 27.3 75.2 1011.5 27.9
6-27-2022 9:32 14o 42.53' ( 14.7089) 179o 35.27' (-179.5878) 11.1 26.8 67.9 17.7 27.4 76.9 1011.3 27.9
6-27-2022 9:02 14o 37.47' ( 14.6245) 179o 37.70' (-179.6284) 11.2 27.1 76.2 15.2 27.4 76.5 1011.4 27.9
6-27-2022 8:32 14o 32.48' ( 14.5414) 179o 40.19' (-179.6699) 11.0 30.4 72.2 17.3 27.4 74.7 1011.0 28.0
6-27-2022 8:02 14o 27.57' ( 14.4595) 179o 42.64' (-179.7107) 10.8 29.4 70.9 18.7 27.4 73.5 1010.8 28.0
6-27-2022 7:32 14o 22.65' ( 14.3775) 179o 45.08' (-179.7514) 10.9 29.9 72.5 18.0 27.4 72.4 1010.0 28.0
6-27-2022 7:02 14o 17.71' ( 14.2951) 179o 47.58' (-179.7931) 11.0 29.6 75.5 18.8 27.5 70.0 1010.3 28.0
6-27-2022 6:32 14o 12.67' ( 14.2112) 179o 49.99' (-179.8331) 11.0 29.0 78.1 18.5 27.4 71.4 1010.1 28.0
6-27-2022 6:02 14o 7.67' ( 14.1278) 179o 52.43' (-179.8738) 11.0 29.2 72.8 17.8 27.5 71.9 1009.8 28.0
6-27-2022 5:32 14o 2.73' ( 14.0455) 179o 54.95' (-179.9159) 11.2 28.1 73.9 18.5 27.6 73.9 1009.3 28.0
6-27-2022 5:02 13o 57.72' ( 13.9620) 179o 57.41' (-179.9568) 11.0 27.0 74.0 19.9 27.7 71.4 1009.1 28.0
6-27-2022 4:32 13o 52.74' ( 13.8790) 179o 59.81' (-179.9969) 11.0 25.3 71.4 17.9 27.8 69.8 1009.0 28.1
6-27-2022 4:02 13o 47.73' ( 13.7955) 179o 57.85' ( 179.9642) 10.8 25.2 77.9 18.3 26.4 85.4 1008.8 28.2
6-27-2022 3:32 13o 42.80' ( 13.7133) 179o 55.48' ( 179.9246) 11.0 26.3 74.7 14.5 27.7 76.0 1008.8 28.3
6-27-2022 3:02 13o 37.91' ( 13.6318) 179o 52.96' ( 179.8827) 10.9 28.9 66.7 15.8 27.4 71.0 1008.9 28.4
6-27-2022 2:32 13o 33.00' ( 13.5500) 179o 50.60' ( 179.8433) 10.9 26.6 72.7 17.5 28.3 71.3 1008.9 28.4
6-27-2022 2:02 13o 28.05' ( 13.4675) 179o 48.24' ( 179.8040) 10.9 27.2 74.6 17.4 27.8 77.0 1009.1 28.5
6-27-2022 1:32 13o 23.12' ( 13.3854) 179o 45.81' ( 179.7636) 10.7 28.2 65.1 19.0 27.8 76.4 1009.4 28.4
6-27-2022 1:02 13o 18.21' ( 13.3034) 179o 43.41' ( 179.7235) 10.9 28.7 76.4 15.9 28.1 74.2 1009.8 28.4
6-27-2022 0:32 13o 13.28' ( 13.2214) 179o 41.00' ( 179.6833) 10.9 28.8 74.9 17.6 27.9 75.3 1010.0 28.4
6-27-2022 0:02 13o 8.35' ( 13.1392) 179o 38.64' ( 179.6440) 10.9 28.2 79.5 17.8 27.7 74.3 1010.4 28.4
6-26-2022 23:32 13o 3.44' ( 13.0573) 179o 36.19' ( 179.6031) 11.1 29.1 76.3 17.2 27.9 75.7 1010.7 28.4
6-26-2022 23:02 12o 58.46' ( 12.9743) 179o 33.76' ( 179.5626) 11.0 29.2 81.0 17.5 28.1 74.3 1010.7 28.5
6-26-2022 22:32 12o 53.51' ( 12.8918) 179o 31.32' ( 179.5221) 11.0 28.5 78.3 17.2 28.1 77.4 1010.8 28.5
6-26-2022 22:02 12o 48.65' ( 12.8109) 179o 28.82' ( 179.4803) 10.8 30.6 81.1 17.9 28.3 76.0 1010.9 28.5
6-26-2022 21:32 12o 43.77' ( 12.7295) 179o 26.29' ( 179.4381) 11.0 29.9 82.9 17.8 28.3 76.3 1010.8 28.5
6-26-2022 21:02 12o 38.92' ( 12.6487) 179o 23.70' ( 179.3950) 11.0 30.8 79.1 16.3 28.0 79.5 1010.6 28.5
6-26-2022 20:32 12o 34.04' ( 12.5674) 179o 21.11' ( 179.3518) 11.1 30.4 97.1 16.7 27.5 82.4 1010.5 28.5
6-26-2022 20:02 12o 29.04' ( 12.4840) 179o 18.50' ( 179.3083) 10.9 30.9 95.5 14.9 25.0 85.0 1010.5 28.5
6-26-2022 19:32 12o 24.14' ( 12.4023) 179o 15.96' ( 179.2660) 11.1 30.9 84.8 11.2 26.7 78.9 1010.3 28.5
6-26-2022 19:02 12o 20.75' ( 12.3458) 179o 14.31' ( 179.2386) 10.6 30.9 91.7 13.5 27.1 82.8 1010.0 28.5
6-26-2022 18:32 12o 15.95' ( 12.2658) 179o 11.92' ( 179.1987) 10.5 30.1 73.3 15.2 27.3 80.8 1009.6 28.5
6-26-2022 18:02 12o 11.20' ( 12.1867) 179o 9.56' ( 179.1593) 10.5 29.5 95.7 14.3 27.3 80.9 1009.3 28.5
6-26-2022 17:32 12o 6.39' ( 12.1066) 179o 7.15' ( 179.1191) 11.0 29.2 105.7 9.8 26.0 87.6 1009.0 28.4
6-26-2022 17:02 12o 1.51' ( 12.0252) 179o 4.76' ( 179.0794) 10.9 29.0 106.3 10.0 27.4 80.8 1008.8 28.4
6-26-2022 16:32 11o 56.53' ( 11.9422) 179o 2.45' ( 179.0408) 10.7 28.1 94.4 9.2 27.2 81.0 1008.6 28.4
6-26-2022 16:02 11o 52.41' ( 11.8735) 179o 0.46' ( 179.0076) 1.0 77.7 90.2 9.1 27.3 83.2 1008.7 28.4
6-26-2022 15:32 11o 52.43' ( 11.8738) 179o 0.66' ( 179.0111) 0.2 67.3 86.7 10.4 27.2 82.0 1008.6 28.4
6-26-2022 15:02 11o 52.43' ( 11.8738) 179o 0.66' ( 179.0111) 0.2 65.7 78.9 9.2 27.2 83.1 1008.6 28.5
6-26-2022 14:32 11o 52.46' ( 11.8744) 179o 0.74' ( 179.0124) 0.5 66.7 74.6 9.2 27.3 83.8 1008.8 28.5
6-26-2022 14:02 11o 52.50' ( 11.8749) 179o 0.83' ( 179.0138) 0.4 67.6 72.7 11.0 27.2 82.0 1009.1 28.5
6-26-2022 13:32 11o 52.58' ( 11.8763) 179o 1.03' ( 179.0171) 0.6 67.9 70.6 9.9 27.3 83.4 1009.2 28.5
6-26-2022 13:02 11o 52.66' ( 11.8776) 179o 1.22' ( 179.0203) 0.5 65.0 68.1 9.9 27.4 82.1 1009.6 28.5
6-26-2022 12:32 11o 52.73' ( 11.8788) 179o 1.37' ( 179.0229) 0.5 59.2 63.2 10.3 27.5 82.9 1010.0 28.5
6-26-2022 12:02 11o 52.82' ( 11.8804) 179o 1.57' ( 179.0262) 0.6 72.8 63.1 11.5 27.6 83.1 1010.4 28.5
6-26-2022 11:32 11o 52.88' ( 11.8814) 179o 1.72' ( 179.0286) 0.5 67.2 55.3 11.3 27.5 81.1 1010.8 28.5
6-26-2022 11:02 11o 52.89' ( 11.8816) 179o 1.77' ( 179.0295) 0.3 65.1 62.2 12.2 27.6 80.0 1011.2 28.5
6-26-2022 10:32 11o 52.90' ( 11.8816) 179o 1.77' ( 179.0295) 0.3 66.7 59.7 10.5 27.6 81.8 1011.6 28.5
6-26-2022 10:02 11o 52.91' ( 11.8818) 179o 1.77' ( 179.0294) 0.3 67.4 52.5 12.1 27.6 79.0 1011.6 28.5
6-26-2022 9:32 11o 52.90' ( 11.8816) 179o 1.77' ( 179.0295) 0.3 67.0 54.6 12.1 27.7 78.7 1011.6 28.5
6-26-2022 9:02 11o 52.91' ( 11.8818) 179o 1.77' ( 179.0294) 0.3 68.0 56.4 13.6 27.7 78.9 1011.5 28.5
6-26-2022 8:32 11o 52.86' ( 11.8811) 179o 1.79' ( 179.0298) 0.4 65.2 56.3 11.3 27.7 79.0 1011.2 28.5
6-26-2022 8:02 11o 55.31' ( 11.9218) 179o 1.78' ( 179.0296) 11.4 178.1 65.7 13.8 27.9 78.8 1011.0 28.5
6-26-2022 7:32 12o 0.96' ( 12.0160) 179o 1.56' ( 179.0260) 11.3 176.3 66.4 13.5 27.9 79.3 1011.0 28.5
6-26-2022 7:02 12o 6.63' ( 12.1105) 179o 1.42' ( 179.0236) 11.5 176.0 65.8 13.1 28.0 78.9 1010.6 28.5
6-26-2022 6:32 12o 12.38' ( 12.2063) 179o 1.27' ( 179.0212) 11.5 176.6 64.1 14.6 27.9 76.9 1010.3 28.5
6-26-2022 6:02 12o 18.16' ( 12.3026) 179o 1.15' ( 179.0191) 11.6 176.8 67.9 14.0 28.2 77.9 1010.1 28.6
6-26-2022 5:32 12o 23.97' ( 12.3995) 179o 0.92' ( 179.0153) 11.7 177.2 67.1 12.4 28.3 77.9 1009.0 28.5
6-26-2022 5:02 12o 29.79' ( 12.4966) 179o 0.71' ( 179.0118) 11.5 176.7 61.8 13.3 28.3 77.0 1009.9 28.6
6-26-2022 4:32 12o 35.56' ( 12.5927) 179o 0.55' ( 179.0092) 11.3 179.8 63.5 13.8 28.4 77.0 1009.7 28.6
6-26-2022 4:02 12o 41.31' ( 12.6885) 179o 0.60' ( 179.0101) 11.5 179.6 54.8 14.8 28.5 75.2 1009.8 28.7
6-26-2022 3:32 12o 47.01' ( 12.7836) 179o 0.57' ( 179.0094) 11.2 178.0 53.3 14.2 28.5 74.9 1009.7 28.6
6-26-2022 3:02 12o 52.55' ( 12.8759) 179o 0.33' ( 179.0055) 11.0 178.1 59.9 13.6 28.5 74.6 1010.0 28.6
6-26-2022 2:32 12o 58.05' ( 12.9674) 179o 0.22' ( 179.0037) 10.9 175.5 61.0 14.1 28.5 73.0 1010.2 28.5
6-26-2022 2:02 13o 3.55' ( 13.0592) 179o 0.14' ( 179.0023) 11.0 178.0 65.8 12.4 28.2 76.7 1010.5 28.4
6-26-2022 1:32 13o 9.07' ( 13.1512) 178o 59.93' ( 178.9988) 11.2 175.6 63.8 13.0 28.2 76.7 1011.0 28.3
6-26-2022 1:02 13o 14.65' ( 13.2441) 178o 59.82' ( 178.9970) 11.1 176.4 69.9 14.1 28.1 75.2 1011.4 28.3
6-26-2022 0:32 13o 20.18' ( 13.3364) 178o 59.56' ( 178.9926) 11.1 174.0 73.4 14.6 28.4 74.1 1011.9 28.4
6-26-2022 0:02 13o 25.77' ( 13.4296) 178o 59.48' ( 178.9914) 11.2 177.1 67.3 16.7 28.0 72.0 1012.3 28.4
6-25-2022 23:32 13o 31.36' ( 13.5227) 178o 59.35' ( 178.9892) 11.3 175.1 69.6 14.9 28.1 76.3 1012.7 28.3
6-25-2022 23:02 13o 37.06' ( 13.6177) 178o 59.24' ( 178.9873) 11.5 175.4 44.3 17.9 25.7 75.4 1013.2 28.3
6-25-2022 22:32 13o 42.72' ( 13.7120) 178o 59.10' ( 178.9850) 11.3 176.4 61.8 15.4 28.2 77.1 1013.2 28.2
6-25-2022 22:02 13o 48.36' ( 13.8061) 178o 58.97' ( 178.9829) 11.3 177.5 70.8 14.6 28.2 74.4 1013.6 28.1
6-25-2022 21:32 13o 54.02' ( 13.9003) 178o 58.84' ( 178.9806) 11.3 177.1 61.7 13.9 28.1 75.8 1013.7 28.1
6-25-2022 21:02 13o 59.70' ( 13.9949) 178o 58.71' ( 178.9785) 11.4 178.4 69.2 15.0 28.0 75.6 1013.7 28.0
6-25-2022 20:32 14o 5.36' ( 14.0893) 178o 58.63' ( 178.9771) 11.3 178.9 70.1 16.3 27.8 74.0 1013.7 27.9
6-25-2022 20:02 14o 11.04' ( 14.1840) 178o 58.38' ( 178.9730) 11.4 176.1 77.9 12.8 27.7 77.4 1013.4 27.8
6-25-2022 19:32 14o 16.72' ( 14.2786) 178o 57.99' ( 178.9665) 11.4 174.0 71.4 14.1 27.5 79.0 1013.2 27.9
6-25-2022 19:02 14o 20.87' ( 14.3478) 178o 56.57' ( 178.9428) 0.3 86.4 72.0 13.0 27.3 80.5 1012.9 27.9
6-25-2022 18:32 14o 20.84' ( 14.3473) 178o 56.75' ( 178.9459) 1.1 80.5 76.1 12.0 27.2 76.8 1012.8 27.9
6-25-2022 18:02 14o 20.81' ( 14.3468) 178o 57.02' ( 178.9503) 0.6 81.8 78.5 12.2 27.2 77.7 1012.5 27.9
6-25-2022 17:32 14o 20.80' ( 14.3466) 178o 57.29' ( 178.9548) 1.0 79.9 74.5 13.3 27.0 77.0 1012.3 27.9
6-25-2022 17:02 14o 20.88' ( 14.3480) 178o 57.95' ( 178.9658) 0.6 80.1 75.5 12.5 27.1 81.5 1012.0 27.9
6-25-2022 16:32 14o 20.80' ( 14.3467) 178o 57.80' ( 178.9634) 0.5 78.6 68.1 13.6 26.8 76.0 1012.0 27.9
6-25-2022 16:02 14o 20.91' ( 14.3484) 178o 58.46' ( 178.9744) 0.4 85.9 60.0 13.3 26.8 77.2 1011.8 27.9
6-25-2022 15:32 14o 20.97' ( 14.3494) 178o 58.46' ( 178.9743) 0.0 83.7 70.5 11.1 26.9 82.7 1011.6 27.9
6-25-2022 15:02 14o 20.99' ( 14.3499) 178o 58.46' ( 178.9743) 0.2 84.3 77.6 11.7 27.0 78.4 1011.7 27.9
6-25-2022 14:32 14o 21.00' ( 14.3499) 178o 58.46' ( 178.9743) 0.3 81.8 72.5 13.7 27.1 78.6 1011.6 27.9
6-25-2022 14:02 14o 20.99' ( 14.3498) 178o 58.46' ( 178.9744) 0.3 75.6 70.2 13.7 27.0 79.4 1011.7 27.9
6-25-2022 13:32 14o 20.99' ( 14.3498) 178o 58.46' ( 178.9744) 0.2 85.5 97.7 12.7 26.9 83.0 1011.8 27.9
6-25-2022 13:02 14o 20.98' ( 14.3497) 178o 58.46' ( 178.9744) 0.2 75.0 68.9 12.4 27.2 81.4 1012.1 27.9
6-25-2022 12:32 14o 20.98' ( 14.3497) 178o 58.46' ( 178.9744) 0.3 79.5 71.7 13.6 27.2 79.5 1012.5 27.9
6-25-2022 12:02 14o 21.00' ( 14.3500) 178o 58.46' ( 178.9743) 0.3 84.4 77.8 13.0 27.1 79.7 1012.9 27.9
6-25-2022 11:32 14o 20.99' ( 14.3498) 178o 58.46' ( 178.9744) 0.3 78.9 81.6 11.1 27.0 82.1 1013.1 27.9
6-25-2022 11:02 14o 21.00' ( 14.3500) 178o 58.46' ( 178.9744) 0.3 83.1 82.1 13.7 26.8 70.3 1013.4 27.9
6-25-2022 10:32 14o 21.02' ( 14.3504) 178o 58.47' ( 178.9745) 0.3 106.4 113.3 19.1 25.0 83.3 1013.7 27.9
6-25-2022 10:02 14o 21.03' ( 14.3506) 178o 58.48' ( 178.9746) 0.3 111.4 120.4 12.3 26.4 84.8 1013.5 27.9
6-25-2022 9:32 14o 21.02' ( 14.3504) 178o 58.47' ( 178.9746) 0.3 87.5 76.1 11.4 27.2 81.7 1013.4 27.9
6-25-2022 9:02 14o 21.01' ( 14.3502) 178o 58.47' ( 178.9746) 0.3 87.4 72.1 13.7 26.1 79.0 1013.3 27.9
6-25-2022 8:32 14o 21.03' ( 14.3506) 178o 58.48' ( 178.9746) 0.3 92.5 80.7 14.7 27.4 77.1 1013.1 27.9
6-25-2022 8:02 14o 21.04' ( 14.3506) 178o 58.48' ( 178.9747) 0.4 109.2 81.8 8.6 26.5 78.7 1012.8 27.9
6-25-2022 7:32 14o 25.14' ( 14.4189) 178o 58.02' ( 178.9669) 10.6 177.0 124.5 20.6 24.7 81.8 1012.1 27.9
6-25-2022 7:02 14o 30.69' ( 14.5114) 178o 57.87' ( 178.9645) 11.2 177.5 80.7 14.4 27.4 80.8 1012.0 28.0
6-25-2022 6:32 14o 36.36' ( 14.6060) 178o 57.75' ( 178.9625) 11.4 178.4 80.2 14.0 27.5 80.5 1011.8 28.0
6-25-2022 6:02 14o 42.07' ( 14.7012) 178o 57.76' ( 178.9627) 11.4 179.2 84.7 14.2 27.5 78.9 1011.5 28.0
6-25-2022 5:32 14o 47.73' ( 14.7955) 178o 57.54' ( 178.9590) 11.2 176.5 85.4 15.6 27.6 78.9 1011.4 28.0
6-25-2022 5:02 14o 53.39' ( 14.8898) 178o 57.36' ( 178.9560) 11.4 177.5 81.3 15.4 27.7 79.1 1011.3 28.0
6-25-2022 4:32 14o 59.07' ( 14.9845) 178o 57.17' ( 178.9529) 13.8 177.8 63.5 14.8 27.8 79.0 1011.2 28.0
6-25-2022 4:02 15o 4.75' ( 15.0792) 178o 57.06' ( 178.9511) 11.6 177.4 87.6 11.3 27.6 80.4 1011.1 28.0
6-25-2022 3:32 15o 10.40' ( 15.1734) 178o 56.95' ( 178.9492) 11.4 178.8 104.4 12.1 27.4 78.1 1011.2 28.0
6-25-2022 3:02 15o 16.10' ( 15.2683) 178o 56.81' ( 178.9468) 11.4 178.3 85.9 16.6 28.0 74.8 1011.0 28.0
6-25-2022 2:32 15o 21.83' ( 15.3638) 178o 56.71' ( 178.9452) 11.5 178.3 85.7 16.7 28.2 72.3 1011.4 28.0
6-25-2022 2:02 15o 27.56' ( 15.4594) 178o 56.67' ( 178.9445) 11.3 177.1 94.6 16.4 28.2 71.0 1011.6 28.0
6-25-2022 1:32 15o 33.29' ( 15.5548) 178o 56.50' ( 178.9417) 11.5 176.8 84.1 17.4 28.1 72.0 1012.2 28.0
6-25-2022 1:02 15o 39.07' ( 15.6512) 178o 56.20' ( 178.9366) 11.5 175.5 85.3 15.6 28.1 75.6 1012.4 28.0
6-25-2022 0:32 15o 44.87' ( 15.7478) 178o 55.97' ( 178.9328) 11.5 177.0 87.0 15.5 28.0 73.8 1012.7 28.0
6-25-2022 0:02 15o 50.70' ( 15.8450) 178o 56.04' ( 178.9340) 11.7 179.1 79.3 17.7 28.0 72.1 1013.0 27.9
6-24-2022 23:32 15o 56.58' ( 15.9430) 178o 55.96' ( 178.9327) 11.6 177.1 85.1 17.1 27.7 76.5 1013.4 27.9
6-24-2022 23:02 16o 2.33' ( 16.0389) 178o 55.69' ( 178.9281) 11.5 175.4 86.6 15.6 27.9 74.7 1013.7 27.9
6-24-2022 22:32 16o 8.07' ( 16.1345) 178o 55.39' ( 178.9231) 11.3 176.4 96.5 14.7 27.8 74.7 1013.9 27.8
6-24-2022 22:02 16o 13.78' ( 16.2296) 178o 55.24' ( 178.9207) 11.4 178.1 91.2 16.3 27.9 70.4 1014.0 27.8
6-24-2022 21:32 16o 19.44' ( 16.3240) 178o 55.21' ( 178.9201) 11.2 177.6 84.5 15.1 27.9 74.4 1014.2 27.9
6-24-2022 21:02 16o 25.02' ( 16.4170) 178o 55.32' ( 178.9221) 11.2 182.3 89.6 16.7 27.8 72.6 1014.2 27.9
6-24-2022 20:32 16o 30.13' ( 16.5022) 178o 54.74' ( 178.9123) 10.7 137.9 89.3 13.5 27.6 76.0 1014.0 27.9
6-24-2022 20:02 16o 34.18' ( 16.5697) 178o 51.01' ( 178.8502) 11.0 137.8 77.5 13.0 27.5 78.5 1013.8 27.9
6-24-2022 19:32 16o 38.33' ( 16.6389) 178o 47.21' ( 178.7868) 11.0 138.6 80.4 14.4 27.3 76.6 1013.9 28.0
6-24-2022 19:02 16o 42.53' ( 16.7088) 178o 43.60' ( 178.7266) 10.8 141.2 91.2 12.6 27.3 77.1 1013.9 28.0
6-24-2022 18:32 16o 46.62' ( 16.7769) 178o 39.94' ( 178.6657) 10.9 140.3 90.2 12.1 27.3 78.0 1013.7 28.0
6-24-2022 18:02 16o 50.71' ( 16.8452) 178o 36.23' ( 178.6038) 10.8 143.7 96.9 11.9 26.9 80.8 1013.4 28.2
6-24-2022 17:32 16o 54.81' ( 16.9135) 178o 32.61' ( 178.5436) 10.8 146.8 83.8 7.9 27.0 81.1 1013.2 28.2
6-24-2022 17:02 16o 58.92' ( 16.9820) 178o 28.87' ( 178.4811) 11.0 144.3 75.9 13.1 27.0 79.0 1013.0 28.3
6-24-2022 16:32 17o 3.03' ( 17.0506) 178o 25.09' ( 178.4181) 10.9 139.8 93.3 12.4 26.9 76.8 1013.0 28.3
6-24-2022 16:02 17o 7.15' ( 17.1192) 178o 21.45' ( 178.3574) 9.2 144.2 89.5 13.6 27.2 70.7 1013.0 28.2
6-24-2022 15:32 17o 8.20' ( 17.1367) 178o 20.49' ( 178.3415) 0.2 116.4 91.0 12.7 27.1 75.9 1013.1 28.3
6-24-2022 15:02 17o 8.15' ( 17.1358) 178o 20.47' ( 178.3412) 0.2 106.5 96.6 13.9 27.2 75.6 1013.2 28.3
6-24-2022 14:32 17o 8.29' ( 17.1382) 178o 20.31' ( 178.3384) 9.4 139.5 102.4 15.2 27.2 74.2 1013.2 28.3
6-24-2022 14:02 17o 12.28' ( 17.2046) 178o 16.65' ( 178.2774) 10.9 138.7 95.0 13.6 27.3 76.3 1013.3 28.4
6-24-2022 13:32 17o 16.55' ( 17.2758) 178o 12.82' ( 178.2137) 11.1 138.5 105.2 16.3 27.1 72.2 1013.4 28.3
6-24-2022 13:02 17o 20.87' ( 17.3478) 178o 8.92' ( 178.1486) 11.6 134.5 91.6 14.0 27.4 75.0 1013.7 28.4
6-24-2022 12:32 17o 25.26' ( 17.4210) 178o 4.85' ( 178.0808) 11.7 134.1 99.0 14.9 27.3 77.4 1014.1 28.2
6-24-2022 12:02 17o 29.64' ( 17.4939) 178o 0.86' ( 178.0143) 11.4 133.3 100.9 15.0 27.4 72.2 1014.3 28.3
6-24-2022 11:32 17o 33.94' ( 17.5657) 177o 56.85' ( 177.9475) 11.5 133.6 95.1 11.8 27.6 76.5 1014.5 28.3
6-24-2022 11:02 17o 38.29' ( 17.6381) 177o 52.95' ( 177.8824) 11.4 133.3 94.3 14.5 27.5 75.9 1014.6 28.3
6-24-2022 10:32 17o 42.54' ( 17.7089) 177o 48.89' ( 177.8149) 11.5 136.0 90.2 13.1 27.5 78.2 1014.7 28.3
6-24-2022 10:02 17o 47.01' ( 17.7835) 177o 44.96' ( 177.7494) 11.6 139.2 92.6 13.4 27.5 77.8 1014.7 28.2
6-24-2022 9:32 17o 51.42' ( 17.8570) 177o 41.01' ( 177.6835) 11.5 139.1 93.1 14.9 27.0 77.5 1014.5 28.2
6-24-2022 9:02 17o 55.70' ( 17.9284) 177o 37.04' ( 177.6173) 11.4 139.7 84.0 11.2 27.1 79.0 1014.4 28.2
6-24-2022 8:32 17o 60.00' ( 17.9999) 177o 33.18' ( 177.5530) 11.4 140.6 85.4 11.8 27.6 77.3 1014.2 28.2
6-24-2022 8:02 18o 4.39' ( 18.0732) 177o 29.45' ( 177.4908) 11.2 143.4 86.7 11.5 27.6 75.0 1014.0 28.2
6-24-2022 7:32 18o 8.63' ( 18.1439) 177o 25.67' ( 177.4278) 11.0 143.2 82.8 12.4 27.7 76.0 1013.0 28.2
6-24-2022 7:02 18o 12.75' ( 18.2124) 177o 21.84' ( 177.3639) 11.0 141.4 91.2 12.0 27.6 74.7 1013.3 28.2
6-24-2022 6:32 18o 16.82' ( 18.2803) 177o 17.91' ( 177.2986) 11.1 143.6 91.7 11.4 27.8 76.7 1013.2 28.2
6-24-2022 6:02 18o 21.01' ( 18.3502) 177o 14.19' ( 177.2364) 10.8 142.2 92.7 11.1 27.9 74.6 1012.9 28.3
6-24-2022 5:32 18o 25.15' ( 18.4191) 177o 10.50' ( 177.1750) 10.8 143.9 93.8 12.2 28.1 71.7 1012.7 28.3
6-24-2022 5:02 18o 29.07' ( 18.4845) 177o 6.62' ( 177.1103) 11.3 143.3 86.3 11.7 28.0 73.4 1012.6 28.4
6-24-2022 4:32 18o 33.30' ( 18.5551) 177o 2.92' ( 177.0487) 11.7 142.5 70.9 11.3 28.2 74.0 1012.6 28.4
6-24-2022 4:02 18o 37.33' ( 18.6222) 176o 59.22' ( 176.9871) 10.7 142.0 98.3 10.9 28.1 74.3 1012.6 28.4
6-24-2022 3:32 18o 41.31' ( 18.6885) 176o 55.61' ( 176.9268) 10.5 139.3 93.7 11.0 28.1 72.1 1012.6 28.4
6-24-2022 3:02 18o 45.30' ( 18.7550) 176o 52.02' ( 176.8669) 10.5 140.5 97.0 11.1 28.1 73.4 1012.8 28.4
6-24-2022 2:32 18o 49.18' ( 18.8196) 176o 48.34' ( 176.8056) 10.4 139.2 104.2 11.3 27.9 73.8 1012.9 28.4
6-24-2022 2:02 18o 53.01' ( 18.8836) 176o 44.76' ( 176.7459) 10.1 139.4 98.5 11.8 27.9 74.1 1013.2 28.5
6-24-2022 1:32 18o 56.75' ( 18.9459) 176o 41.08' ( 176.6847) 10.3 134.6 97.4 12.0 28.0 76.3 1013.3 28.5
6-24-2022 1:02 19o 0.23' ( 19.0038) 176o 37.10' ( 176.6183) 10.2 130.1 95.8 12.3 27.9 73.0 1013.6 28.4
6-24-2022 0:32 19o 3.60' ( 19.0600) 176o 32.95' ( 176.5492) 10.4 127.7 98.4 12.2 27.9 75.6 1013.8 28.4
6-24-2022 0:02 19o 6.62' ( 19.1104) 176o 28.50' ( 176.4749) 10.4 126.1 101.3 11.9 27.8 74.2 1014.1 28.4
6-23-2022 23:32 19o 9.48' ( 19.1580) 176o 23.93' ( 176.3989) 10.5 124.7 73.6 7.5 26.9 80.7 1014.5 28.4
6-23-2022 23:02 19o 12.26' ( 19.2044) 176o 19.39' ( 176.3231) 10.2 124.7 81.2 10.1 27.6 79.2 1014.6 28.3
6-23-2022 22:32 19o 15.06' ( 19.2511) 176o 14.81' ( 176.2468) 10.4 124.4 98.9 9.9 27.9 76.3 1014.8 28.2
6-23-2022 22:02 19o 17.79' ( 19.2966) 176o 10.10' ( 176.1683) 10.5 122.0 102.3 10.6 27.9 77.6 1015.0 28.2
6-23-2022 21:32 19o 20.42' ( 19.3404) 176o 5.35' ( 176.0892) 10.5 120.5 117.0 6.7 26.7 83.1 1015.0 28.2
6-23-2022 21:02 19o 22.79' ( 19.3798) 176o 0.49' ( 176.0082) 10.3 114.3 97.1 10.4 27.6 77.0 1014.9 28.2
6-23-2022 20:32 19o 24.75' ( 19.4126) 175o 55.39' ( 175.9232) 10.4 110.9 86.9 10.6 27.7 76.7 1014.8 28.2
6-23-2022 20:02 19o 25.34' ( 19.4223) 175o 53.50' ( 175.8917) 0.4 96.4 102.2 12.0 28.2 75.2 1014.8 28.3
6-23-2022 19:32 19o 25.25' ( 19.4209) 175o 53.76' ( 175.8959) 1.4 95.7 101.6 12.8 28.6 74.2 1014.6 28.3
6-23-2022 19:02 19o 25.13' ( 19.4189) 175o 54.14' ( 175.9023) 0.9 97.8 99.7 12.6 28.0 77.3 1014.3 28.3
6-23-2022 18:32 19o 25.08' ( 19.4180) 175o 54.36' ( 175.9060) 0.3 103.8 98.2 11.7 27.4 80.0 1014.2 28.3
6-23-2022 18:02 19o 25.02' ( 19.4170) 175o 54.67' ( 175.9112) 1.5 104.6 95.1 12.1 27.2 82.2 1013.9 28.3
6-23-2022 17:32 19o 24.93' ( 19.4155) 175o 55.25' ( 175.9209) 0.5 108.1 109.4 12.9 26.9 79.3 1013.7 28.3
6-23-2022 17:02 19o 24.86' ( 19.4143) 175o 55.67' ( 175.9279) 0.4 107.4 96.3 13.9 27.3 78.0 1013.6 28.3
6-23-2022 16:32 19o 24.86' ( 19.4143) 175o 55.93' ( 175.9321) 1.5 109.0 92.9 12.7 27.6 75.2 1013.7 28.3
6-23-2022 16:02 19o 24.85' ( 19.4142) 175o 56.01' ( 175.9334) 0.2 106.7 96.5 13.4 27.5 77.6 1013.5 28.3
6-23-2022 15:32 19o 24.85' ( 19.4141) 175o 56.07' ( 175.9345) 0.3 106.2 87.2 14.3 27.5 77.6 1013.4 28.3
6-23-2022 15:02 19o 24.75' ( 19.4125) 175o 56.07' ( 175.9344) 0.6 80.2 84.8 13.5 27.6 79.5 1013.4 28.3
6-23-2022 14:32 19o 24.56' ( 19.4093) 175o 56.34' ( 175.9389) 0.9 82.0 81.7 12.6 27.4 81.0 1013.4 28.3
6-23-2022 14:02 19o 24.41' ( 19.4068) 175o 56.68' ( 175.9447) 0.7 79.5 77.9 11.4 26.9 80.6 1013.7 28.3
6-23-2022 13:32 19o 24.23' ( 19.4038) 175o 57.05' ( 175.9509) 0.9 79.3 104.0 13.4 27.0 84.2 1013.7 28.3
6-23-2022 13:02 19o 24.01' ( 19.4002) 175o 57.39' ( 175.9565) 0.9 65.3 72.3 13.6 27.4 80.3 1013.9 28.3
6-23-2022 12:32 19o 23.83' ( 19.3972) 175o 57.89' ( 175.9648) 0.7 63.8 67.1 15.3 27.6 80.6 1014.4 28.3
6-23-2022 12:02 19o 23.66' ( 19.3944) 175o 58.20' ( 175.9700) 0.7 73.0 72.4 13.3 27.8 81.1 1014.6 28.3
6-23-2022 11:32 19o 23.54' ( 19.3924) 175o 58.48' ( 175.9747) 0.3 89.2 66.2 15.0 27.6 80.8 1014.8 28.3
6-23-2022 11:02 19o 23.52' ( 19.3920) 175o 58.48' ( 175.9747) 0.3 89.4 80.3 15.3 27.8 77.0 1015.0 28.3
6-23-2022 10:32 19o 23.44' ( 19.3907) 175o 58.66' ( 175.9776) 0.6 83.6 72.7 17.0 27.4 81.3 1015.0 28.3
6-23-2022 10:02 19o 23.35' ( 19.3892) 175o 58.91' ( 175.9818) 0.4 87.0 71.8 15.6 27.5 78.0 1015.0 28.3
6-23-2022 9:32 19o 23.24' ( 19.3873) 175o 59.19' ( 175.9865) 0.5 89.6 74.1 15.9 27.6 82.4 1015.0 28.3
6-23-2022 9:02 19o 23.14' ( 19.3856) 175o 59.49' ( 175.9915) 0.7 92.2 73.6 12.5 27.6 82.8 1015.1 28.4
6-23-2022 8:32 19o 24.22' ( 19.4036) 175o 57.33' ( 175.9555) 4.7 118.6 87.0 12.4 27.3 82.0 1014.8 28.4
6-23-2022 8:02 19o 23.20' ( 19.3866) 175o 59.04' ( 175.9840) 8.8 313.8 76.2 13.9 28.0 79.9 1014.8 28.4
6-23-2022 7:32 19o 22.48' ( 19.3746) 176o 0.21' ( 176.0036) 0.6 81.3 73.9 13.6 27.8 79.1 1014.6 28.4
6-23-2022 7:02 19o 22.41' ( 19.3735) 176o 0.60' ( 176.0101) 0.7 94.7 77.8 14.6 27.7 79.0 1014.4 28.4
6-23-2022 6:32 19o 22.39' ( 19.3732) 176o 0.84' ( 176.0140) 0.4 92.8 66.2 13.1 27.9 79.3 1014.0 28.4
6-23-2022 6:02 19o 22.28' ( 19.3713) 176o 1.34' ( 176.0224) 1.5 95.6 63.3 15.6 28.4 76.4 1013.9 28.4
6-23-2022 5:32 19o 22.13' ( 19.3688) 176o 2.04' ( 176.0341) 0.7 102.4 55.2 14.2 28.7 77.2 1013.7 28.5
6-23-2022 5:02 19o 22.07' ( 19.3678) 176o 2.21' ( 176.0368) 0.4 106.8 57.4 13.2 28.8 77.1 1013.7 28.4
6-23-2022 4:32 19o 21.94' ( 19.3657) 176o 2.60' ( 176.0433) 1.1 109.0 51.7 14.3 28.9 74.0 1013.7 28.5
6-23-2022 4:02 19o 21.86' ( 19.3643) 176o 3.08' ( 176.0513) 0.9 110.8 67.8 15.1 28.9 73.2 1013.8 28.5
6-23-2022 3:32 19o 21.68' ( 19.3614) 176o 3.69' ( 176.0615) 0.4 109.6 59.0 15.6 28.7 72.0 1013.8 28.4
6-23-2022 3:02 19o 21.72' ( 19.3620) 176o 3.71' ( 176.0618) 0.3 111.5 64.7 15.2 28.8 71.9 1013.8 28.4
6-23-2022 2:32 19o 21.64' ( 19.3606) 176o 3.76' ( 176.0626) 1.5 82.3 63.0 15.7 28.3 74.6 1013.8 28.4
6-23-2022 2:02 19o 21.39' ( 19.3565) 176o 4.23' ( 176.0704) 0.7 79.7 67.6 13.2 28.5 74.8 1014.0 28.4
6-23-2022 1:32 19o 21.21' ( 19.3534) 176o 4.61' ( 176.0769) 0.8 79.3 71.3 14.8 28.4 71.4 1014.2 28.4
6-23-2022 1:02 19o 20.99' ( 19.3498) 176o 4.97' ( 176.0829) 0.7 79.1 73.9 14.2 28.4 72.0 1014.4 28.4
6-23-2022 0:32 19o 20.76' ( 19.3459) 176o 5.34' ( 176.0891) 1.2 82.0 62.8 13.7 28.4 75.4 1014.8 28.4
6-23-2022 0:02 19o 20.59' ( 19.3432) 176o 5.72' ( 176.0953) 0.4 90.5 71.5 15.6 28.2 73.1 1015.0 28.4
6-22-2022 23:32 19o 20.47' ( 19.3411) 176o 5.94' ( 176.0991) 0.3 99.9 68.4 17.0 28.4 72.5 1015.1 28.3
6-22-2022 23:02 19o 20.45' ( 19.3408) 176o 5.94' ( 176.0990) 0.5 94.6 65.0 15.0 28.4 75.5 1015.4 28.3
6-22-2022 22:32 19o 20.41' ( 19.3401) 176o 6.30' ( 176.1050) 0.9 92.7 70.0 17.5 28.2 71.7 1015.6 28.3
6-22-2022 22:02 19o 20.33' ( 19.3388) 176o 6.45' ( 176.1075) 0.9 84.0 70.6 15.1 28.3 73.2 1015.6 28.3
6-22-2022 21:32 19o 20.18' ( 19.3363) 176o 5.40' ( 176.0901) 2.3 88.8 68.8 14.8 28.9 74.0 1015.6 28.3
6-22-2022 21:02 19o 20.03' ( 19.3339) 176o 7.71' ( 176.1286) 0.8 87.3 73.0 15.0 28.5 72.6 1015.8 28.2
6-22-2022 20:32 19o 20.04' ( 19.3341) 176o 8.17' ( 176.1361) 0.9 86.6 62.7 16.7 28.5 71.0 1015.7 28.2
6-22-2022 20:02 19o 20.01' ( 19.3334) 176o 8.54' ( 176.1424) 0.9 85.6 72.5 17.3 28.4 70.6 1015.8 28.2
6-22-2022 19:32 19o 20.02' ( 19.3337) 176o 9.03' ( 176.1506) 0.6 85.4 73.8 17.4 28.3 67.7 1015.7 28.2
6-22-2022 19:02 19o 20.05' ( 19.3341) 176o 9.47' ( 176.1578) 0.9 87.1 73.4 17.6 28.1 72.0 1015.6 28.2
6-22-2022 18:32 19o 20.07' ( 19.3346) 176o 9.74' ( 176.1623) 0.4 89.2 69.8 16.9 28.1 76.6 1015.3 28.2
6-22-2022 18:02 19o 20.07' ( 19.3344) 176o 9.96' ( 176.1660) 0.5 90.6 74.8 18.9 27.8 74.8 1015.2 28.2
6-22-2022 17:32 19o 19.95' ( 19.3326) 176o 10.59' ( 176.1765) 1.9 106.0 64.0 17.4 27.9 74.2 1014.7 28.2
6-22-2022 17:02 19o 19.72' ( 19.3286) 176o 11.40' ( 176.1899) 0.4 109.7 59.9 18.5 27.8 73.6 1014.4 28.2
6-22-2022 16:32 19o 19.71' ( 19.3285) 176o 11.59' ( 176.1932) 0.4 99.2 59.4 18.1 27.7 73.8 1014.2 28.2
6-22-2022 16:02 19o 19.73' ( 19.3289) 176o 11.87' ( 176.1978) 0.7 99.6 62.9 18.9 27.6 75.5 1014.0 28.3
6-22-2022 15:32 19o 19.72' ( 19.3287) 176o 12.09' ( 176.2015) 0.2 98.7 63.7 18.7 27.6 76.2 1013.9 28.3
6-22-2022 15:02 19o 19.69' ( 19.3281) 176o 12.09' ( 176.2015) 0.4 87.4 71.3 16.2 27.7 77.3 1014.1 28.3
6-22-2022 14:32 19o 19.47' ( 19.3245) 176o 12.36' ( 176.2060) 1.1 70.6 65.9 16.2 27.5 78.8 1014.1 28.3
6-22-2022 14:02 19o 19.23' ( 19.3205) 176o 12.69' ( 176.2115) 0.6 68.5 60.2 16.6 27.6 76.8 1014.3 28.3
6-22-2022 13:32 19o 19.04' ( 19.3173) 176o 13.11' ( 176.2185) 0.7 69.7 64.4 15.5 27.5 77.5 1014.6 28.3
6-22-2022 13:02 19o 18.81' ( 19.3136) 176o 13.38' ( 176.2230) 0.7 69.0 64.4 15.3 27.6 77.1 1014.9 28.3
6-22-2022 12:32 19o 18.80' ( 19.3133) 176o 13.52' ( 176.2253) 7.3 124.2 63.9 16.9 27.7 75.7 1015.0 28.3
6-22-2022 12:02 19o 21.03' ( 19.3506) 176o 13.14' ( 176.2190) 11.5 323.3 54.4 15.8 27.8 76.4 1015.3 28.3
6-22-2022 11:32 19o 18.55' ( 19.3092) 176o 13.84' ( 176.2306) 0.5 85.7 67.3 15.5 27.8 75.9 1015.6 28.3
6-22-2022 11:02 19o 18.42' ( 19.3069) 176o 14.06' ( 176.2344) 0.9 90.0 56.0 16.5 27.9 75.7 1015.6 28.3
6-22-2022 10:32 19o 18.21' ( 19.3034) 176o 14.69' ( 176.2448) 1.0 109.0 57.3 16.5 28.0 76.3 1015.7 28.3
6-22-2022 10:02 19o 18.04' ( 19.3006) 176o 15.27' ( 176.2546) 0.8 115.3 54.1 16.6 28.1 74.7 1015.8 28.3
6-22-2022 9:32 19o 17.82' ( 19.2970) 176o 15.95' ( 176.2658) 1.6 113.0 59.6 17.7 28.0 73.8 1015.7 28.3
6-22-2022 9:02 19o 17.71' ( 19.2951) 176o 16.50' ( 176.2750) 0.8 107.1 50.8 14.1 27.7 77.6 1015.6 28.4
6-22-2022 8:32 19o 17.58' ( 19.2930) 176o 16.88' ( 176.2813) 0.9 114.1 65.5 13.7 27.9 77.1 1015.5 28.4
6-22-2022 8:02 19o 17.47' ( 19.2912) 176o 17.16' ( 176.2859) 0.4 114.0 43.0 12.9 26.4 72.8 1015.2 28.4
6-22-2022 7:32 19o 17.40' ( 19.2900) 176o 17.52' ( 176.2920) 0.2 113.8 62.2 14.6 27.9 77.6 1014.9 28.4
6-22-2022 7:02 19o 17.38' ( 19.2897) 176o 17.51' ( 176.2919) 0.2 106.2 68.0 12.3 27.9 71.0 1014.5 28.4
6-22-2022 6:32 19o 17.34' ( 19.2890) 176o 17.90' ( 176.2983) 2.2 98.4 56.9 16.4 28.3 74.6 1014.1 28.4
6-22-2022 6:02 19o 17.19' ( 19.2865) 176o 18.46' ( 176.3077) 0.9 99.3 53.4 15.0 28.3 76.3 1014.0 28.4
6-22-2022 5:32 19o 17.05' ( 19.2841) 176o 19.07' ( 176.3178) 0.6 97.9 53.1 16.4 28.5 75.7 1013.8 28.4
6-22-2022 5:02 19o 16.95' ( 19.2824) 176o 19.67' ( 176.3278) 0.5 99.5 46.6 13.5 28.1 75.2 1013.6 28.4
6-22-2022 4:32 19o 16.78' ( 19.2797) 176o 20.12' ( 176.3354) 2.0 99.1 66.6 13.3 28.9 73.6 1013.4 28.5
6-22-2022 4:02 19o 16.46' ( 19.2743) 176o 21.42' ( 176.3570) 2.9 99.7 65.3 15.8 28.7 72.4 1013.5 28.5
6-22-2022 3:32 19o 16.22' ( 19.2703) 176o 22.50' ( 176.3749) 0.2 108.7 61.4 14.1 28.9 73.1 1013.6 28.5
6-22-2022 3:02 19o 16.22' ( 19.2703) 176o 22.51' ( 176.3752) 0.3 117.7 56.6 12.2 28.5 72.7 1013.8 28.5
6-22-2022 2:32 19o 16.10' ( 19.2683) 176o 22.49' ( 176.3749) 0.6 77.1 38.3 15.9 26.5 71.0 1013.9 28.5
6-22-2022 2:02 19o 15.86' ( 19.2643) 176o 22.85' ( 176.3808) 0.7 78.3 56.6 13.2 26.9 75.4 1014.0 28.5
6-22-2022 1:32 19o 15.63' ( 19.2604) 176o 23.28' ( 176.3881) 1.6 78.8 69.0 7.5 27.9 78.7 1014.2 28.4
6-22-2022 1:02 19o 15.33' ( 19.2555) 176o 23.79' ( 176.3965) 1.0 83.8 99.0 14.1 27.4 79.6 1014.4 28.4
6-22-2022 0:32 19o 15.09' ( 19.2515) 176o 24.25' ( 176.4041) 0.6 85.0 60.5 12.3 28.2 74.5 1014.6 28.4
6-22-2022 0:02 19o 14.88' ( 19.2480) 176o 24.61' ( 176.4101) 1.6 98.1 54.4 12.9 28.6 74.2 1014.8 28.4
6-21-2022 23:32 19o 14.74' ( 19.2457) 176o 24.96' ( 176.4160) 0.3 114.4 53.5 13.9 28.5 74.3 1014.8 28.4
6-21-2022 23:02 19o 14.74' ( 19.2456) 176o 24.96' ( 176.4159) 0.2 112.8 56.0 15.1 28.5 73.7 1015.0 28.4
6-21-2022 22:32 19o 14.73' ( 19.2454) 176o 24.98' ( 176.4164) 0.2 113.3 58.4 14.1 28.4 74.0 1015.0 28.3
6-21-2022 22:02 19o 14.69' ( 19.2448) 176o 24.97' ( 176.4162) 0.3 104.6 63.6 14.0 28.2 73.6 1015.3 28.3
6-21-2022 21:32 19o 17.02' ( 19.2836) 176o 25.53' ( 176.4255) 11.0 186.5 57.5 14.7 28.1 74.3 1015.5 28.2
6-21-2022 21:02 19o 22.43' ( 19.3738) 176o 26.71' ( 176.4452) 10.8 185.9 56.4 17.7 28.4 72.1 1015.6 28.2
6-21-2022 20:32 19o 27.86' ( 19.4643) 176o 27.96' ( 176.4660) 11.1 188.5 51.7 15.3 28.5 70.8 1015.7 28.2
6-21-2022 20:02 19o 33.30' ( 19.5550) 176o 29.18' ( 176.4863) 11.1 189.4 53.1 16.7 27.3 80.3 1015.7 28.2
6-21-2022 19:32 19o 38.81' ( 19.6468) 176o 30.48' ( 176.5080) 11.5 190.1 44.9 14.3 25.8 85.2 1015.0 28.2
6-21-2022 19:02 19o 44.50' ( 19.7416) 176o 31.68' ( 176.5280) 11.6 189.0 66.0 16.7 28.0 75.3 1015.5 28.3
6-21-2022 18:32 19o 50.21' ( 19.8368) 176o 32.89' ( 176.5481) 11.4 190.1 71.2 16.4 28.1 74.5 1015.2 28.6
6-21-2022 18:02 19o 55.79' ( 19.9298) 176o 34.14' ( 176.5690) 11.5 190.3 70.9 17.5 27.8 76.4 1015.1 28.6
6-21-2022 17:32 20o 1.42' ( 20.0237) 176o 35.50' ( 176.5917) 11.5 192.0 70.4 16.7 27.8 74.9 1014.9 28.5
6-21-2022 17:02 20o 7.03' ( 20.1171) 176o 36.73' ( 176.6121) 11.3 190.0 75.8 15.7 27.8 79.9 1014.7 28.6
6-21-2022 16:32 20o 12.71' ( 20.2118) 176o 37.95' ( 176.6325) 11.6 192.1 73.0 16.9 28.0 74.8 1014.7 28.5
6-21-2022 16:02 20o 18.46' ( 20.3077) 176o 39.29' ( 176.6549) 11.8 191.0 65.5 17.0 27.9 78.2 1014.6 28.6
6-21-2022 15:32 20o 24.28' ( 20.4047) 176o 40.55' ( 176.6758) 11.9 192.2 60.0 17.4 27.8 74.2 1014.6 28.6
6-21-2022 15:02 20o 30.07' ( 20.5011) 176o 41.90' ( 176.6984) 11.7 191.3 62.8 16.0 28.1 75.5 1014.7 28.5
6-21-2022 14:32 20o 35.77' ( 20.5962) 176o 43.18' ( 176.7196) 11.6 194.1 69.7 16.4 28.1 76.3 1014.8 28.6
6-21-2022 14:02 20o 41.57' ( 20.6929) 176o 44.50' ( 176.7416) 11.9 192.4 65.4 14.7 27.9 79.2 1014.8 28.6
6-21-2022 13:32 20o 47.44' ( 20.7906) 176o 45.83' ( 176.7639) 11.9 194.7 69.3 14.9 27.8 76.6 1015.0 28.6
6-21-2022 13:02 20o 53.25' ( 20.8876) 176o 47.15' ( 176.7858) 11.9 192.0 56.3 18.0 28.2 76.9 1015.2 28.7
6-21-2022 12:32 20o 58.97' ( 20.9828) 176o 48.38' ( 176.8064) 11.6 192.5 59.7 18.3 28.3 75.8 1015.6 28.8
6-21-2022 12:02 21o 4.74' ( 21.0790) 176o 49.73' ( 176.8288) 12.0 192.4 70.8 17.1 28.2 74.2 1016.0 28.8
6-21-2022 11:32 21o 10.60' ( 21.1767) 176o 50.98' ( 176.8497) 12.1 194.9 59.2 18.7 28.2 75.3 1016.5 28.7
6-21-2022 11:02 21o 16.49' ( 21.2749) 176o 52.43' ( 176.8739) 12.0 193.3 69.6 15.8 28.1 74.0 1016.8 28.6
6-21-2022 10:32 21o 22.32' ( 21.3720) 176o 53.78' ( 176.8964) 11.9 195.9 53.1 16.6 28.4 77.2 1016.9 28.7
6-21-2022 10:02 21o 28.23' ( 21.4705) 176o 55.13' ( 176.9188) 12.3 194.9 52.5 16.5 28.2 77.9 1016.9 28.8
6-21-2022 9:32 21o 34.22' ( 21.5703) 176o 56.38' ( 176.9397) 12.1 193.8 54.0 17.5 28.4 75.6 1016.5 28.7
6-21-2022 9:02 21o 40.24' ( 21.6706) 176o 57.79' ( 176.9632) 12.2 195.4 54.4 17.7 28.3 73.0 1016.5 28.7
6-21-2022 8:32 21o 46.26' ( 21.7710) 176o 59.27' ( 176.9878) 12.2 194.4 60.1 17.2 28.3 75.0 1016.4 28.8
6-21-2022 8:02 21o 52.15' ( 21.8692) 177o 0.72' ( 177.0120) 11.8 194.1 58.7 15.2 28.3 73.9 1016.3 28.8
6-21-2022 7:32 21o 57.94' ( 21.9657) 177o 1.98' ( 177.0329) 11.7 191.4 53.6 15.8 28.4 74.4 1015.9 28.8
6-21-2022 7:02 22o 3.79' ( 22.0632) 177o 3.11' ( 177.0518) 11.9 192.3 52.8 15.1 28.3 77.1 1015.6 28.8
6-21-2022 6:32 22o 9.61' ( 22.1601) 177o 4.36' ( 177.0727) 12.1 194.9 51.7 14.6 28.8 74.9 1015.4 28.6
6-21-2022 6:02 22o 15.60' ( 22.2600) 177o 6.06' ( 177.1010) 12.4 197.4 56.5 14.9 28.9 70.3 1015.1 28.5
6-21-2022 5:32 22o 21.56' ( 22.3593) 177o 7.39' ( 177.1232) 11.7 194.0 55.2 15.2 29.0 73.4 1014.9 28.5
6-21-2022 5:02 22o 27.25' ( 22.4542) 177o 8.30' ( 177.1383) 11.4 190.3 49.8 12.4 29.2 69.5 1014.9 28.6
6-21-2022 4:32 22o 32.82' ( 22.5469) 177o 9.72' ( 177.1620) 11.4 193.2 51.8 12.4 29.4 72.0 1014.9 28.9
6-21-2022 4:02 22o 37.84' ( 22.6307) 177o 10.87' ( 177.1812) 5.9 192.8 46.0 12.0 29.7 67.0 1015.1 29.1
6-21-2022 3:32 22o 40.99' ( 22.6832) 177o 11.67' ( 177.1945) 11.8 194.6 53.8 12.0 29.1 71.8 1015.2 29.0
6-21-2022 3:02 22o 46.82' ( 22.7803) 177o 12.99' ( 177.2165) 11.8 192.5 54.6 11.3 29.1 73.8 1015.5 28.9
6-21-2022 2:32 22o 52.61' ( 22.8768) 177o 14.19' ( 177.2364) 12.0 189.8 47.6 10.3 29.2 70.0 1015.6 29.2
6-21-2022 2:02 22o 58.62' ( 22.9769) 177o 15.57' ( 177.2594) 12.2 190.1 47.8 9.1 28.9 70.0 1015.9 28.6
6-21-2022 1:32 23o 4.57' ( 23.0761) 177o 16.94' ( 177.2823) 12.2 190.2 51.8 7.9 28.6 72.1 1016.0 28.4
6-21-2022 1:02 23o 10.63' ( 23.1772) 177o 18.39' ( 177.3065) 12.3 193.4 52.7 9.5 28.7 73.2 1016.2 28.3
6-21-2022 0:32 23o 16.62' ( 23.2770) 177o 19.79' ( 177.3299) 12.2 193.5 53.7 7.2 28.6 74.7 1016.4 28.3
6-21-2022 0:02 23o 22.65' ( 23.3774) 177o 21.22' ( 177.3536) 12.3 193.8 45.6 9.9 28.8 74.0 1016.7 28.6
6-20-2022 23:32 23o 28.70' ( 23.4783) 177o 22.49' ( 177.3749) 12.5 188.9 40.9 8.4 28.5 74.1 1017.0 28.7
6-20-2022 23:02 23o 34.76' ( 23.5794) 177o 23.75' ( 177.3959) 12.3 190.3 46.0 8.2 28.1 74.4 1017.1 28.5
6-20-2022 22:32 23o 40.68' ( 23.6781) 177o 25.27' ( 177.4212) 12.1 191.0 46.2 6.6 27.9 74.6 1017.1 28.4
6-20-2022 22:02 23o 46.65' ( 23.7776) 177o 26.62' ( 177.4436) 12.1 188.4 52.9 7.6 27.8 74.8 1017.3 28.4
6-20-2022 21:32 23o 52.57' ( 23.8761) 177o 27.95' ( 177.4658) 12.4 188.8 54.9 6.8 27.6 72.0 1017.3 28.4
6-20-2022 21:02 23o 58.64' ( 23.9774) 177o 29.36' ( 177.4893) 12.0 191.0 53.7 6.8 27.7 73.4 1017.2 28.4
6-20-2022 20:32 24o 3.05' ( 24.0509) 177o 30.10' ( 177.5017) 2.7 118.3 61.0 5.6 29.5 67.3 1017.1 28.9
6-20-2022 20:02 24o 3.38' ( 24.0563) 177o 30.17' ( 177.5028) 0.5 150.7 47.4 6.0 29.3 63.4 1017.0 28.9
6-20-2022 19:32 24o 3.49' ( 24.0582) 177o 30.44' ( 177.5073) 0.5 90.3 40.7 4.3 28.9 66.4 1016.7 28.9
6-20-2022 19:02 24o 5.22' ( 24.0870) 177o 30.78' ( 177.5130) 11.9 189.7 57.3 5.9 27.2 70.7 1016.6 28.5
6-20-2022 18:32 24o 10.95' ( 24.1824) 177o 32.09' ( 177.5348) 11.5 190.2 62.6 5.6 27.2 69.2 1016.4 28.6
6-20-2022 18:02 24o 16.58' ( 24.2763) 177o 33.52' ( 177.5587) 11.6 191.6 65.7 5.9 27.2 68.8 1016.3 28.5
6-20-2022 17:32 24o 22.20' ( 24.3699) 177o 34.87' ( 177.5811) 11.4 189.0 71.6 6.3 27.1 70.8 1016.2 28.4
6-20-2022 17:02 24o 27.87' ( 24.4645) 177o 36.02' ( 177.6003) 11.5 192.0 87.1 5.7 27.2 71.5 1016.0 28.4
6-20-2022 16:32 24o 33.45' ( 24.5576) 177o 37.38' ( 177.6231) 11.5 191.2 85.9 4.6 27.1 71.9 1015.8 28.5
6-20-2022 16:02 24o 38.90' ( 24.6483) 177o 38.91' ( 177.6484) 11.0 195.4 97.0 4.4 27.3 73.1 1015.8 28.5
6-20-2022 15:32 24o 41.08' ( 24.6847) 177o 39.41' ( 177.6569) 0.2 205.2 91.9 5.1 27.5 73.0 1015.8 28.4
6-20-2022 15:02 24o 41.09' ( 24.6848) 177o 39.40' ( 177.6567) 0.2 203.6 80.0 4.6 27.5 72.6 1015.6 28.4
6-20-2022 14:32 24o 41.88' ( 24.6980) 177o 39.51' ( 177.6586) 11.4 190.8 82.5 5.1 27.3 70.6 1015.5 28.4
6-20-2022 14:02 24o 47.56' ( 24.7927) 177o 40.58' ( 177.6763) 11.5 190.7 96.4 4.8 27.5 72.7 1015.5 28.8
6-20-2022 13:32 24o 53.16' ( 24.8861) 177o 41.97' ( 177.6995) 11.4 192.4 114.7 5.5 27.5 72.7 1015.6 28.8
6-20-2022 13:02 24o 58.92' ( 24.9819) 177o 43.30' ( 177.7217) 11.9 192.7 30.5 2.6 27.6 68.9 1016.0 29.2
6-20-2022 12:32 25o 4.84' ( 25.0807) 177o 44.67' ( 177.7445) 12.2 190.3 68.2 5.3 27.5 75.8 1016.2 29.2
6-20-2022 12:02 25o 10.78' ( 25.1797) 177o 46.06' ( 177.7677) 12.1 190.5 73.1 8.6 27.6 75.7 1016.4 29.2
6-20-2022 11:32 25o 16.61' ( 25.2769) 177o 47.40' ( 177.7899) 11.8 191.4 66.7 6.2 27.5 75.2 1016.4 29.1
6-20-2022 11:02 25o 22.35' ( 25.3726) 177o 48.71' ( 177.8119) 11.7 195.1 123.2 5.2 27.1 78.9 1016.5 29.2
6-20-2022 10:32 25o 28.06' ( 25.4677) 177o 50.33' ( 177.8388) 11.9 199.2 47.4 4.9 27.8 68.1 1016.5 28.9
6-20-2022 10:02 25o 33.32' ( 25.5553) 177o 53.19' ( 177.8864) 11.6 215.9 26.7 4.7 27.8 69.9 1016.5 29.0
6-20-2022 9:32 25o 38.19' ( 25.6366) 177o 56.54' ( 177.9423) 11.4 216.4 15.1 2.9 27.8 69.1 1016.5 29.0
6-20-2022 9:02 25o 43.19' ( 25.7198) 177o 59.49' ( 177.9915) 11.4 212.3 20.2 3.8 27.7 68.9 1016.3 28.9
6-20-2022 8:32 25o 48.14' ( 25.8024) 178o 2.36' ( 178.0393) 10.9 211.9 354.4 3.5 27.7 69.3 1016.2 28.8
6-20-2022 8:02 25o 53.38' ( 25.8897) 178o 4.38' ( 178.0729) 11.3 195.9 350.5 4.0 27.8 67.5 1016.1 28.9
6-20-2022 7:32 25o 58.92' ( 25.9821) 178o 5.83' ( 178.0971) 11.5 195.6 0.2 3.6 27.8 70.9 1015.8 28.6
6-20-2022 7:02 26o 4.48' ( 26.0747) 178o 7.48' ( 178.1246) 11.4 195.7 342.4 4.3 27.8 69.1 1015.6 28.6
6-20-2022 6:32 26o 9.90' ( 26.1650) 178o 8.97' ( 178.1495) 11.1 185.3 344.9 4.6 28.0 68.0 1015.4 28.1
6-20-2022 6:02 26o 15.40' ( 26.2566) 178o 9.58' ( 178.1596) 10.8 186.4 304.0 3.8 28.1 69.6 1015.2 28.6
6-20-2022 5:32 26o 20.74' ( 26.3457) 178o 10.23' ( 178.1705) 10.5 187.2 302.9 3.0 28.6 67.1 1015.1 28.8
6-20-2022 5:02 26o 25.92' ( 26.4319) 178o 10.74' ( 178.1790) 9.0 183.9 293.2 5.1 28.6 67.8 1015.0 28.9
6-20-2022 4:32 26o 30.63' ( 26.5105) 178o 11.14' ( 178.1857) 10.9 184.7 288.6 4.3 28.5 64.0 1015.0 28.8
6-20-2022 4:02 26o 36.10' ( 26.6017) 178o 11.79' ( 178.1965) 11.0 185.4 286.1 4.2 28.3 69.0 1015.1 28.7
6-20-2022 3:32 26o 41.52' ( 26.6919) 178o 12.42' ( 178.2070) 10.7 185.9 268.8 6.1 28.5 67.9 1015.2 28.6
6-20-2022 3:02 26o 46.91' ( 26.7818) 178o 12.89' ( 178.2148) 10.9 185.0 260.7 5.4 28.1 69.1 1015.4 28.8
6-20-2022 2:32 26o 52.30' ( 26.8716) 178o 13.59' ( 178.2266) 10.9 187.5 294.6 4.4 28.1 72.5 1015.5 28.5
6-20-2022 2:02 26o 57.68' ( 26.9613) 178o 14.16' ( 178.2359) 10.7 186.4 280.6 5.7 27.9 71.0 1015.7 28.7
6-20-2022 1:32 27o 3.01' ( 27.0501) 178o 14.74' ( 178.2456) 10.6 189.4 269.3 7.6 27.8 69.8 1015.8 28.7
6-20-2022 1:02 27o 8.29' ( 27.1382) 178o 15.52' ( 178.2586) 10.7 188.6 258.5 8.0 27.6 70.9 1015.8 28.8
6-20-2022 0:32 27o 13.59' ( 27.2265) 178o 16.25' ( 178.2708) 10.3 188.9 256.5 8.1 27.8 69.0 1016.0 28.7
6-20-2022 0:02 27o 18.85' ( 27.3141) 178o 16.99' ( 178.2831) 10.8 185.4 257.9 8.6 27.6 70.2 1016.3 28.4
6-19-2022 23:32 27o 22.18' ( 27.3697) 178o 17.33' ( 178.2888) 0.3 209.9 258.0 9.2 28.1 67.5 1016.5 28.2
6-19-2022 23:02 27o 22.17' ( 27.3695) 178o 17.34' ( 178.2889) 0.3 215.9 260.0 8.5 27.9 67.9 1016.5 28.2
6-19-2022 22:32 27o 21.88' ( 27.3647) 178o 17.14' ( 178.2857) 1.1 221.8 251.7 9.0 27.9 66.9 1016.5 28.3
6-19-2022 22:02 27o 21.57' ( 27.3596) 178o 16.89' ( 178.2816) 0.5 220.4 256.8 9.0 27.9 67.4 1016.6 28.2
6-19-2022 21:32 27o 21.57' ( 27.3595) 178o 16.87' ( 178.2811) 0.3 220.3 246.6 8.3 27.8 68.3 1016.7 28.2
6-19-2022 21:02 27o 21.58' ( 27.3597) 178o 16.86' ( 178.2809) 0.4 218.2 249.4 8.1 28.0 70.1 1016.8 28.2
6-19-2022 20:32 27o 21.58' ( 27.3597) 178o 16.85' ( 178.2809) 0.3 224.3 259.6 7.4 28.0 68.2 1016.8 28.2
6-19-2022 20:02 27o 21.59' ( 27.3599) 178o 16.85' ( 178.2808) 0.3 218.1 235.9 8.3 28.0 66.0 1016.8 28.2
6-19-2022 19:32 27o 21.59' ( 27.3599) 178o 16.84' ( 178.2807) 0.2 218.0 236.2 7.5 27.9 69.4 1016.7 28.2
6-19-2022 19:02 27o 21.61' ( 27.3602) 178o 16.81' ( 178.2801) 0.2 211.4 230.7 9.0 27.6 67.5 1016.6 28.2
6-19-2022 18:32 27o 21.19' ( 27.3531) 178o 16.49' ( 178.2749) 1.1 205.6 239.7 8.5 27.5 67.4 1016.5 28.2
6-19-2022 18:02 27o 20.73' ( 27.3455) 178o 16.19' ( 178.2698) 1.0 205.9 248.6 9.1 27.3 68.4 1016.4 28.0
6-19-2022 17:32 27o 20.25' ( 27.3376) 178o 15.88' ( 178.2647) 1.1 204.7 246.8 8.7 27.2 71.9 1016.4 28.1
6-19-2022 17:02 27o 19.78' ( 27.3297) 178o 15.58' ( 178.2597) 1.3 207.1 253.4 8.8 27.1 72.0 1016.3 28.1
6-19-2022 16:32 27o 19.23' ( 27.3206) 178o 15.28' ( 178.2547) 1.3 204.3 227.0 7.2 27.1 69.8 1016.0 28.1
6-19-2022 16:02 27o 18.80' ( 27.3134) 178o 15.06' ( 178.2510) 0.9 205.2 247.8 7.4 27.2 69.8 1016.1 28.3
6-19-2022 15:32 27o 18.65' ( 27.3108) 178o 14.92' ( 178.2487) 0.3 204.5 230.1 7.8 27.1 69.4 1016.0 28.4
6-19-2022 15:02 27o 18.67' ( 27.3111) 178o 14.89' ( 178.2481) 0.4 203.4 225.8 8.0 27.1 68.8 1015.8 28.4
6-19-2022 14:32 27o 18.67' ( 27.3111) 178o 14.88' ( 178.2480) 0.3 203.9 211.9 6.4 27.1 69.8 1015.8 28.4
6-19-2022 14:02 27o 18.67' ( 27.3111) 178o 14.89' ( 178.2481) 0.4 203.2 213.8 5.8 27.1 70.2 1015.9 28.3
6-19-2022 13:32 27o 18.66' ( 27.3110) 178o 14.89' ( 178.2481) 0.3 210.3 209.8 4.7 27.0 73.0 1016.0 28.5
6-19-2022 13:02 27o 18.66' ( 27.3109) 178o 14.90' ( 178.2483) 0.4 207.4 207.8 4.7 27.1 72.9 1016.4 28.2
6-19-2022 12:32 27o 18.66' ( 27.3110) 178o 14.88' ( 178.2481) 0.3 194.5 186.8 4.7 27.1 72.5 1016.5 28.3
6-19-2022 12:02 27o 18.65' ( 27.3109) 178o 14.90' ( 178.2484) 0.3 208.3 210.2 2.3 27.3 73.4 1016.9 28.2
6-19-2022 11:32 27o 18.64' ( 27.3107) 178o 14.92' ( 178.2487) 0.3 207.9 226.8 2.4 27.3 74.2 1017.1 28.3
6-19-2022 11:02 27o 18.64' ( 27.3106) 178o 14.93' ( 178.2488) 0.3 209.9 232.3 1.3 27.2 74.2 1017.2 27.9
6-19-2022 10:32 27o 18.63' ( 27.3105) 178o 14.93' ( 178.2489) 0.4 217.2 236.9 1.5 27.2 75.2 1017.3 27.9
6-19-2022 10:02 27o 18.65' ( 27.3109) 178o 14.90' ( 178.2483) 0.4 206.2 187.1 1.2 27.4 74.5 1017.3 27.8
6-19-2022 9:32 27o 18.65' ( 27.3109) 178o 14.90' ( 178.2483) 0.4 202.0 136.6 1.4 27.4 74.3 1017.2 27.9
6-19-2022 9:02 27o 18.64' ( 27.3107) 178o 14.92' ( 178.2487) 0.3 205.6 155.5 1.6 27.3 74.7 1017.3 27.9
6-19-2022 8:32 27o 18.64' ( 27.3106) 178o 14.93' ( 178.2488) 0.4 206.1 33.8 0.4 27.4 75.9 1017.3 28.1
6-19-2022 8:02 27o 18.64' ( 27.3107) 178o 14.92' ( 178.2487) 0.4 208.5 282.7 0.9 27.4 75.8 1017.1 28.0
6-19-2022 7:32 27o 18.64' ( 27.3106) 178o 14.93' ( 178.2488) 0.4 205.8 313.9 6.4 27.9 75.7 1016.8 28.0
6-19-2022 7:02 27o 18.62' ( 27.3103) 178o 14.96' ( 178.2493) 0.3 210.5 182.7 2.2 27.9 70.8 1016.7 27.9
6-19-2022 6:32 27o 18.36' ( 27.3061) 178o 14.79' ( 178.2464) 1.3 212.8 204.5 1.3 28.4 68.4 1016.6 27.7
6-19-2022 6:02 27o 18.01' ( 27.3001) 178o 14.45' ( 178.2408) 0.5 218.4 240.8 0.3 28.5 70.0 1016.4 28.2
6-19-2022 5:32 27o 19.16' ( 27.3193) 178o 11.91' ( 178.1984) 12.3 21.7 183.4 1.7 28.1 69.8 1016.2 27.8
6-19-2022 5:02 27o 17.63' ( 27.2938) 178o 13.84' ( 178.2306) 1.2 233.8 151.0 2.0 31.4 60.0 1016.1 28.0
6-19-2022 4:32 27o 17.36' ( 27.2893) 178o 13.57' ( 178.2262) 2.0 200.0 235.0 0.6 32.1 59.1 1016.3 28.2
6-19-2022 4:02 27o 16.74' ( 27.2790) 178o 13.32' ( 178.2219) 1.1 198.5 258.3 0.7 32.0 58.8 1016.3 28.0
6-19-2022 3:32 27o 16.48' ( 27.2746) 178o 13.19' ( 178.2199) 0.3 200.4 38.5 1.2 31.6 60.4 1016.4 28.0
6-19-2022 3:02 27o 16.49' ( 27.2748) 178o 13.16' ( 178.2193) 0.4 199.5 185.0 0.2 31.0 61.1 1016.4 27.9
6-19-2022 2:32 27o 16.50' ( 27.2750) 178o 13.12' ( 178.2186) 0.6 188.6 122.5 2.0 30.4 62.9 1016.6 27.9
6-19-2022 2:02 27o 16.51' ( 27.2751) 178o 13.06' ( 178.2176) 0.4 201.1 154.0 2.4 30.4 62.6 1016.8 27.9
6-19-2022 1:32 27o 16.50' ( 27.2751) 178o 13.08' ( 178.2179) 0.9 197.2 73.1 1.9 29.3 64.8 1017.0 28.1
6-19-2022 1:02 27o 16.27' ( 27.2711) 178o 13.07' ( 178.2178) 0.7 18.3 147.2 4.6 29.0 67.5 1017.3 28.1
6-19-2022 0:32 27o 16.08' ( 27.2680) 178o 13.09' ( 178.2182) 0.4 196.7 117.9 5.5 29.9 66.5 1017.7 28.0
6-19-2022 0:02 27o 15.70' ( 27.2616) 178o 13.06' ( 178.2176) 0.8 222.9 134.7 1.2 32.0 53.1 1018.0 28.5
6-18-2022 23:02 27o 15.19' ( 27.2531) 178o 12.89' ( 178.2149) 0.5 209.3 321.4 3.3 29.3 61.9 1018.5 27.7
6-18-2022 22:32 27o 15.19' ( 27.2532) 178o 12.88' ( 178.2147) 0.4 204.8 339.3 5.3 28.5 65.0 1018.6 27.7
6-18-2022 22:02 27o 15.18' ( 27.2530) 178o 12.91' ( 178.2151) 0.5 207.7 317.8 3.6 29.2 62.6 1018.8 27.7
6-18-2022 21:32 27o 15.16' ( 27.2527) 178o 12.94' ( 178.2157) 0.4 206.5 336.7 2.7 29.4 60.0 1018.8 27.8
6-18-2022 21:02 27o 15.15' ( 27.2524) 178o 12.97' ( 178.2162) 0.4 210.4 17.9 1.5 29.2 61.8 1018.7 27.7
6-18-2022 20:32 27o 15.57' ( 27.2595) 178o 13.30' ( 178.2217) 7.2 214.6 355.8 2.2 27.8 69.0 1018.8 27.7
6-18-2022 20:02 27o 15.73' ( 27.2621) 178o 13.61' ( 178.2268) 8.6 37.8 327.4 1.4 27.6 67.0 1018.6 27.8
6-18-2022 19:32 27o 15.14' ( 27.2524) 178o 12.93' ( 178.2155) 0.5 208.0 101.0 0.2 29.6 61.0 1018.5 27.7
6-18-2022 19:02 27o 15.12' ( 27.2520) 178o 12.97' ( 178.2161) 0.4 218.3 344.7 1.3 29.6 65.0 1018.3 27.7
6-18-2022 18:32 27o 15.02' ( 27.2503) 178o 12.98' ( 178.2163) 0.6 239.6 7.8 1.9 28.3 70.9 1018.1 27.6
6-18-2022 18:02 27o 14.91' ( 27.2486) 178o 12.95' ( 178.2158) 0.6 240.2 340.5 2.0 28.0 72.4 1018.0 27.5
6-18-2022 17:32 27o 14.68' ( 27.2447) 178o 12.81' ( 178.2134) 0.7 214.8 330.0 1.1 27.1 74.5 1017.9 27.5
6-18-2022 17:02 27o 14.55' ( 27.2425) 178o 12.71' ( 178.2119) 0.7 215.8 243.2 1.0 26.8 74.3 1017.7 27.7
6-18-2022 16:32 27o 14.36' ( 27.2393) 178o 12.61' ( 178.2102) 0.7 212.3 299.3 0.9 26.9 73.7 1017.6 27.5
6-18-2022 16:02 27o 14.13' ( 27.2355) 178o 12.54' ( 178.2090) 0.7 214.0 328.2 1.2 27.0 73.1 1017.6 27.5
6-18-2022 15:32 27o 14.01' ( 27.2335) 178o 12.46' ( 178.2077) 0.5 215.8 289.5 2.5 27.1 73.3 1017.6 27.7
6-18-2022 15:02 27o 14.02' ( 27.2337) 178o 12.42' ( 178.2070) 0.5 201.3 7.3 1.8 27.2 73.3 1017.6 27.7
6-18-2022 14:32 27o 14.02' ( 27.2337) 178o 12.41' ( 178.2069) 0.4 203.0 315.9 2.7 27.3 73.4 1017.6 27.7
6-18-2022 14:02 27o 14.03' ( 27.2339) 178o 12.39' ( 178.2065) 0.5 191.0 348.0 0.8 27.1 73.7 1017.9 27.8
6-18-2022 13:32 27o 14.01' ( 27.2336) 178o 12.42' ( 178.2069) 0.6 217.1 314.9 1.2 26.9 73.9 1018.0 27.9
6-18-2022 13:02 27o 14.01' ( 27.2335) 178o 12.42' ( 178.2070) 0.5 223.3 102.2 1.0 27.0 73.3 1018.2 27.7
6-18-2022 12:32 27o 13.98' ( 27.2330) 178o 12.45' ( 178.2075) 0.5 225.9 310.0 1.2 27.2 72.8 1018.4 27.7
6-18-2022 12:02 27o 14.00' ( 27.2333) 178o 12.42' ( 178.2071) 0.5 208.6 309.2 0.3 27.1 72.0 1018.5 27.8
6-18-2022 11:32 27o 14.02' ( 27.2337) 178o 12.38' ( 178.2064) 0.6 203.9 85.4 1.0 27.3 71.0 1018.8 27.8
6-18-2022 11:02 27o 14.03' ( 27.2338) 178o 12.36' ( 178.2060) 0.6 208.8 134.5 2.4 27.5 70.4 1019.0 27.8
6-18-2022 10:32 27o 14.05' ( 27.2341) 178o 12.31' ( 178.2052) 0.5 201.5 111.3 1.7 27.5 70.0 1019.3 27.8
6-18-2022 10:02 27o 14.06' ( 27.2343) 178o 12.28' ( 178.2047) 0.7 197.4 115.5 2.3 27.6 69.9 1019.3 27.8
6-18-2022 9:32 27o 14.06' ( 27.2344) 178o 12.27' ( 178.2044) 0.7 200.3 73.7 2.3 27.6 67.8 1019.3 27.8
6-18-2022 9:02 27o 14.21' ( 27.2369) 178o 11.30' ( 178.1883) 8.1 102.3 62.7 2.5 27.5 68.0 1019.2 27.7
6-18-2022 8:32 27o 14.03' ( 27.2339) 178o 10.30' ( 178.1716) 7.6 269.0 95.1 2.6 27.4 66.0 1019.3 27.7
6-18-2022 8:02 27o 14.07' ( 27.2346) 178o 12.24' ( 178.2040) 0.6 201.6 65.6 2.0 28.1 66.7 1019.2 27.9
6-18-2022 7:32 27o 14.06' ( 27.2344) 178o 12.27' ( 178.2045) 0.6 201.8 67.0 2.1 28.1 64.0 1019.0 27.7
6-18-2022 7:02 27o 14.06' ( 27.2343) 178o 12.27' ( 178.2046) 1.1 235.9 78.9 1.3 29.0 62.2 1018.8 27.7
6-18-2022 6:32 27o 13.86' ( 27.2310) 178o 11.70' ( 178.1951) 1.2 251.0 65.3 2.1 30.6 54.5 1018.6 27.7
6-18-2022 6:02 27o 13.75' ( 27.2291) 178o 11.38' ( 178.1896) 0.7 249.4 263.7 0.4 31.7 54.9 1018.4 27.7
6-18-2022 5:32 27o 13.59' ( 27.2264) 178o 11.08' ( 178.1847) 0.7 232.2 95.1 2.5 31.8 53.5 1018.2 27.8
6-18-2022 5:02 27o 13.50' ( 27.2250) 178o 11.04' ( 178.1839) 0.5 245.4 293.7 1.0 32.0 52.1 1018.0 27.8
6-18-2022 4:32 27o 13.47' ( 27.2245) 178o 11.09' ( 178.1848) 0.4 213.5 122.0 1.3 31.9 53.2 1018.0 27.8
6-18-2022 4:02 27o 13.57' ( 27.2262) 178o 11.25' ( 178.1876) 0.4 231.8 99.3 3.0 32.2 52.0 1018.0 27.8
6-18-2022 3:32 27o 13.40' ( 27.2234) 178o 11.17' ( 178.1862) 0.9 232.1 107.6 0.7 31.8 54.8 1018.2 27.7
6-18-2022 3:02 27o 13.32' ( 27.2220) 178o 11.31' ( 178.1885) 0.6 227.0 346.6 3.5 31.4 58.0 1018.2 27.7
6-18-2022 2:32 27o 13.31' ( 27.2218) 178o 11.22' ( 178.1870) 0.6 203.3 176.1 1.8 31.0 60.4 1018.2 27.7
6-18-2022 2:02 27o 13.32' ( 27.2219) 178o 11.19' ( 178.1865) 0.4 205.1 154.7 1.8 30.8 59.7 1018.3 27.7
6-18-2022 1:32 27o 13.15' ( 27.2191) 178o 10.95' ( 178.1825) 1.3 161.0 121.7 2.4 30.3 61.3 1018.5 28.0
6-18-2022 1:02 27o 12.81' ( 27.2135) 178o 10.75' ( 178.1791) 0.8 158.3 104.7 0.5 30.7 60.5 1018.6 27.9
6-18-2022 0:32 27o 12.53' ( 27.2088) 178o 10.61' ( 178.1769) 0.4 214.6 118.3 2.8 30.6 61.9 1018.7 27.6
6-18-2022 0:02 27o 12.52' ( 27.2087) 178o 10.61' ( 178.1768) 0.4 207.5 141.1 3.4 29.9 64.0 1018.8 27.6
6-17-2022 23:32 27o 12.53' ( 27.2088) 178o 10.60' ( 178.1767) 0.4 221.0 120.7 3.5 29.0 67.8 1019.0 27.6
6-17-2022 23:02 27o 11.08' ( 27.1847) 178o 9.42' ( 178.1569) 12.9 31.8 159.3 1.5 27.3 72.0 1019.0 27.6
6-17-2022 22:32 27o 5.65' ( 27.0941) 178o 5.60' ( 178.0934) 12.7 32.3 125.3 2.7 27.2 72.0 1019.0 27.6
6-17-2022 22:02 27o 2.98' ( 27.0497) 178o 5.02' ( 178.0837) 11.2 231.1 108.7 2.8 27.1 73.9 1019.1 27.5
6-17-2022 21:32 27o 5.42' ( 27.0903) 178o 8.50' ( 178.1417) 0.4 184.0 96.1 2.4 29.3 67.1 1019.2 27.4
6-17-2022 21:02 27o 5.42' ( 27.0903) 178o 8.48' ( 178.1413) 0.3 180.3 139.9 3.7 28.7 68.4 1019.2 27.5
6-17-2022 20:32 27o 5.43' ( 27.0905) 178o 8.43' ( 178.1404) 2.5 172.8 137.1 3.4 28.1 73.1 1019.2 27.6
6-17-2022 20:02 27o 3.85' ( 27.0642) 178o 13.81' ( 178.2301) 11.8 282.1 149.8 4.5 27.3 73.2 1019.0 27.9
6-17-2022 19:32 27o 2.08' ( 27.0346) 178o 20.19' ( 178.3365) 12.0 278.8 147.5 3.7 27.1 75.3 1019.0 28.0
6-17-2022 19:02 27o 0.27' ( 27.0044) 178o 26.58' ( 178.4430) 11.9 281.5 153.2 5.5 27.2 74.0 1018.6 28.1
6-17-2022 18:32 26o 58.37' ( 26.9729) 178o 32.95' ( 178.5492) 11.9 286.4 143.1 5.0 27.0 77.7 1018.3 28.2
6-17-2022 18:02 26o 56.43' ( 26.9406) 178o 39.18' ( 178.6530) 11.8 286.8 139.5 5.2 26.8 76.7 1018.3 28.1
6-17-2022 17:32 26o 54.26' ( 26.9043) 178o 45.45' ( 178.7576) 12.0 290.1 135.4 4.8 26.5 77.8 1018.1 27.9
6-17-2022 17:02 26o 52.25' ( 26.8709) 178o 51.14' ( 178.8524) 3.9 243.2 143.2 5.4 26.5 78.5 1018.0 27.8
6-17-2022 16:32 26o 52.32' ( 26.8720) 178o 51.19' ( 178.8532) 0.4 115.4 123.2 6.9 26.5 79.2 1017.8 27.8
6-17-2022 16:02 26o 52.27' ( 26.8712) 178o 51.17' ( 178.8528) 0.3 116.2 129.8 6.9 26.6 78.6 1017.7 27.8
6-17-2022 15:32 26o 52.24' ( 26.8706) 178o 51.15' ( 178.8525) 0.3 114.3 129.1 4.0 26.7 79.2 1017.8 27.8
6-17-2022 15:02 26o 52.22' ( 26.8704) 178o 51.14' ( 178.8524) 0.3 114.9 130.0 4.3 26.6 78.5 1018.0 27.8
6-17-2022 14:32 26o 52.21' ( 26.8702) 178o 51.14' ( 178.8523) 0.3 115.1 135.4 4.4 26.7 76.8 1018.0 27.8
6-17-2022 14:02 26o 52.21' ( 26.8702) 178o 51.14' ( 178.8523) 0.3 112.3 135.9 6.2 26.6 76.0 1018.0 27.8
6-17-2022 13:32 26o 53.15' ( 26.8859) 178o 48.12' ( 178.8020) 11.4 108.8 129.9 5.5 26.7 77.8 1018.2 27.9
6-17-2022 13:02 26o 54.97' ( 26.9162) 178o 42.11' ( 178.7018) 11.2 110.5 137.0 4.8 26.8 75.2 1018.4 28.2
6-17-2022 12:32 26o 55.49' ( 26.9248) 178o 40.43' ( 178.6738) 0.4 158.9 135.8 6.4 26.8 76.2 1018.7 28.2
6-17-2022 12:02 26o 56.23' ( 26.9372) 178o 38.13' ( 178.6356) 11.4 112.2 133.0 5.1 26.9 77.0 1018.9 28.2
6-17-2022 11:32 26o 58.25' ( 26.9709) 178o 32.01' ( 178.5336) 11.8 115.3 141.6 4.9 27.1 72.1 1019.1 28.2
6-17-2022 11:02 26o 58.77' ( 26.9795) 178o 29.77' ( 178.4961) 0.3 194.8 144.8 8.5 27.3 73.0 1019.3 28.2
6-17-2022 10:32 26o 59.28' ( 26.9880) 178o 28.09' ( 178.4681) 11.7 117.6 129.8 6.8 27.2 78.2 1019.3 28.2
6-17-2022 10:02 27o 1.29' ( 27.0215) 178o 21.95' ( 178.3659) 11.6 118.4 134.5 7.6 27.2 76.6 1019.2 28.1
6-17-2022 9:32 27o 2.09' ( 27.0349) 178o 19.27' ( 178.3211) 0.4 201.0 152.1 7.6 27.5 78.1 1019.1 28.1
6-17-2022 9:02 27o 2.07' ( 27.0345) 178o 19.19' ( 178.3199) 1.3 220.3 153.9 8.0 27.3 75.0 1019.1 28.0
6-17-2022 8:32 27o 3.57' ( 27.0594) 178o 14.27' ( 178.2378) 11.4 115.0 143.2 8.2 27.3 75.4 1018.7 27.7
6-17-2022 8:02 27o 5.41' ( 27.0901) 178o 8.67' ( 178.1445) 0.8 178.3 151.2 10.2 27.3 76.1 1018.8 27.7
6-17-2022 7:32 27o 5.38' ( 27.0897) 178o 8.54' ( 178.1423) 0.4 162.0 149.2 7.6 27.3 75.7 1018.7 27.7
6-17-2022 7:02 27o 5.38' ( 27.0897) 178o 8.17' ( 178.1361) 8.8 111.3 148.4 5.3 27.4 77.3 1018.5 27.8
6-17-2022 6:32 27o 7.26' ( 27.1210) 178o 2.08' ( 178.0347) 11.6 112.6 153.6 3.2 27.2 78.8 1018.3 27.6
6-17-2022 6:02 27o 8.65' ( 27.1441) 177o 58.00' ( 177.9666) 0.5 167.2 171.2 5.9 27.6 76.7 1017.9 27.6
6-17-2022 5:32 27o 8.60' ( 27.1433) 177o 57.82' ( 177.9636) 3.4 110.2 175.0 6.6 27.6 77.0 1017.8 27.6
6-17-2022 5:02 27o 10.30' ( 27.1717) 177o 52.27' ( 177.8712) 12.1 109.6 161.7 5.2 27.3 78.5 1017.6 27.2
6-17-2022 4:32 27o 11.90' ( 27.1983) 177o 47.40' ( 177.7900) 0.3 170.9 171.4 6.4 27.8 79.0 1017.7 27.2
6-17-2022 4:02 27o 11.90' ( 27.1983) 177o 47.40' ( 177.7900) 0.2 160.9 170.0 7.7 27.6 80.0 1017.5 27.2
6-17-2022 3:32 27o 13.75' ( 27.2292) 177o 47.33' ( 177.7888) 11.4 180.0 167.7 7.2 27.3 80.2 1017.5 27.1
6-17-2022 3:02 27o 19.42' ( 27.3237) 177o 47.15' ( 177.7858) 11.3 178.6 168.7 8.1 27.3 78.0 1017.6 27.1
6-17-2022 2:32 27o 25.08' ( 27.4180) 177o 47.21' ( 177.7868) 11.5 183.3 168.5 7.7 27.2 79.0 1017.7 27.0
6-17-2022 2:02 27o 30.75' ( 27.5125) 177o 47.31' ( 177.7885) 11.1 181.9 162.5 8.9 27.1 80.9 1017.7 26.8
6-17-2022 1:32 27o 36.26' ( 27.6044) 177o 47.08' ( 177.7846) 11.1 177.5 161.5 7.7 27.0 83.0 1017.8 26.8
6-17-2022 1:02 27o 41.90' ( 27.6983) 177o 47.13' ( 177.7854) 11.2 180.4 181.1 7.9 27.1 83.5 1018.0 26.9
6-17-2022 0:32 27o 47.44' ( 27.7906) 177o 47.24' ( 177.7873) 11.0 182.7 169.4 7.8 26.9 85.1 1018.0 27.0
6-17-2022 0:02 27o 52.93' ( 27.8821) 177o 47.33' ( 177.7888) 11.0 182.6 176.6 9.0 26.7 83.5 1018.2 26.9
6-16-2022 23:32 27o 58.44' ( 27.9739) 177o 47.30' ( 177.7884) 11.0 178.8 188.0 9.1 26.5 82.6 1018.1 26.8
6-16-2022 23:02 28o 4.08' ( 28.0680) 177o 47.22' ( 177.7870) 11.3 180.1 184.4 11.5 26.5 80.9 1018.1 26.3
6-16-2022 22:32 28o 9.87' ( 28.1644) 177o 47.22' ( 177.7870) 11.7 178.2 174.3 11.4 26.4 81.8 1018.0 26.0
6-16-2022 22:02 28o 15.77' ( 28.2629) 177o 46.80' ( 177.7801) 11.8 175.0 173.7 9.6 26.6 85.3 1018.0 26.4
6-16-2022 21:32 28o 21.67' ( 28.3611) 177o 46.38' ( 177.7731) 11.8 174.1 173.5 8.8 26.4 85.5 1018.0 26.3
6-16-2022 21:02 28o 24.71' ( 28.4118) 177o 46.01' ( 177.7668) 0.9 43.9 185.3 9.6 27.5 79.4 1018.2 26.4
6-16-2022 20:32 28o 24.60' ( 28.4101) 177o 45.91' ( 177.7652) 0.4 67.5 181.5 10.3 27.2 79.5 1018.0 26.3
6-16-2022 20:02 28o 24.63' ( 28.4106) 177o 45.90' ( 177.7649) 0.5 71.9 180.7 9.9 26.9 83.0 1017.9 26.3
6-16-2022 19:32 28o 24.70' ( 28.4116) 177o 45.89' ( 177.7648) 0.5 106.7 166.1 9.1 26.9 83.8 1017.8 26.3
6-16-2022 19:02 28o 24.77' ( 28.4128) 177o 45.92' ( 177.7653) 0.4 44.8 170.5 10.2 26.8 84.7 1017.4 26.3
6-16-2022 18:32 28o 24.80' ( 28.4133) 177o 46.02' ( 177.7670) 0.5 74.0 174.4 11.0 26.4 87.1 1016.9 26.3
6-16-2022 18:02 28o 24.88' ( 28.4147) 177o 46.06' ( 177.7676) 0.4 125.3 160.3 10.8 26.4 88.0 1016.9 26.3
6-16-2022 17:32 28o 24.88' ( 28.4147) 177o 46.05' ( 177.7676) 0.4 125.6 167.6 12.4 26.5 87.0 1016.6 26.3
6-16-2022 17:02 28o 24.90' ( 28.4150) 177o 46.07' ( 177.7679) 0.5 27.3 160.2 8.9 26.7 87.8 1016.6 26.3
6-16-2022 16:32 28o 24.89' ( 28.4148) 177o 46.10' ( 177.7683) 0.4 27.5 158.5 10.1 26.7 85.9 1016.6 26.3
6-16-2022 16:02 28o 24.88' ( 28.4146) 177o 46.12' ( 177.7687) 0.4 26.7 162.4 9.7 26.5 88.9 1016.6 26.4
6-16-2022 15:32 28o 24.86' ( 28.4144) 177o 46.15' ( 177.7692) 0.5 28.1 158.5 6.3 26.8 89.0 1016.4 26.4
6-16-2022 15:02 28o 24.85' ( 28.4141) 177o 46.23' ( 177.7704) 0.4 19.2 154.9 9.7 26.8 87.9 1016.3 26.4
6-16-2022 14:32 28o 24.83' ( 28.4139) 177o 46.27' ( 177.7712) 0.3 24.3 157.2 6.7 26.8 87.0 1016.7 26.4
6-16-2022 14:02 28o 24.85' ( 28.4142) 177o 46.24' ( 177.7706) 0.5 30.1 171.8 5.9 27.1 86.9 1016.8 26.4
6-16-2022 13:32 28o 24.87' ( 28.4145) 177o 46.30' ( 177.7717) 0.4 14.6 156.3 6.8 27.2 86.7 1017.0 26.4
6-16-2022 13:02 28o 24.85' ( 28.4142) 177o 46.37' ( 177.7728) 0.4 20.1 156.0 9.3 27.1 87.4 1017.2 26.4
6-16-2022 12:32 28o 24.83' ( 28.4139) 177o 46.44' ( 177.7741) 0.4 6.0 154.0 8.7 28.5 81.0 1017.3 26.4
6-16-2022 12:02 28o 24.83' ( 28.4138) 177o 46.53' ( 177.7755) 0.5 6.1 152.3 7.2 28.3 82.7 1017.7 26.5
6-16-2022 11:32 28o 24.82' ( 28.4137) 177o 46.62' ( 177.7769) 0.5 8.0 153.5 6.7 28.5 81.8 1017.9 26.5
6-16-2022 11:02 28o 24.82' ( 28.4137) 177o 46.66' ( 177.7777) 0.3 1.5 152.6 7.2 28.0 82.5 1018.1 26.5
6-16-2022 10:32 28o 24.85' ( 28.4141) 177o 46.75' ( 177.7792) 0.5 357.7 145.0 8.3 27.7 84.3 1018.2 26.5
6-16-2022 10:02 28o 24.85' ( 28.4142) 177o 46.84' ( 177.7806) 0.6 329.0 145.1 6.9 27.1 88.2 1018.3 26.4
6-16-2022 9:32 28o 28.37' ( 28.4728) 177o 46.99' ( 177.7832) 12.1 177.6 130.2 7.6 26.3 87.0 1017.9 26.4
6-16-2022 9:02 28o 34.39' ( 28.5732) 177o 46.79' ( 177.7798) 12.1 178.5 124.8 7.2 26.2 89.0 1017.9 26.3
6-16-2022 8:32 28o 40.50' ( 28.6750) 177o 46.63' ( 177.7772) 12.1 179.8 127.9 6.0 26.3 85.4 1017.9 26.4
6-16-2022 8:02 28o 46.57' ( 28.7761) 177o 46.76' ( 177.7793) 12.1 182.7 123.1 8.2 26.1 89.9 1017.5 26.4
6-16-2022 7:32 28o 52.65' ( 28.8775) 177o 46.75' ( 177.7791) 12.3 182.3 181.3 5.6 26.1 86.5 1017.3 26.4
6-16-2022 7:02 28o 58.71' ( 28.9785) 177o 46.85' ( 177.7808) 12.0 182.6 172.4 3.8 26.0 86.4 1017.3 26.5
6-16-2022 6:32 29o 4.74' ( 29.0790) 177o 46.81' ( 177.7802) 12.2 181.1 222.8 3.1 25.8 87.0 1017.2 26.5
6-16-2022 6:02 29o 10.85' ( 29.1809) 177o 46.68' ( 177.7780) 12.2 180.7 14.5 7.8 24.8 88.6 1017.1 26.0
6-16-2022 5:32 29o 16.65' ( 29.2775) 177o 46.73' ( 177.7789) 7.8 182.0 47.6 10.7 24.7 89.0 1017.2 25.8
6-16-2022 5:02 29o 22.01' ( 29.3668) 177o 46.59' ( 177.7765) 12.1 180.9 40.2 12.5 24.0 92.5 1017.0 25.5
6-16-2022 4:32 29o 28.05' ( 29.4676) 177o 46.43' ( 177.7738) 11.8 181.2 42.7 13.3 23.9 92.5 1017.0 24.6
6-16-2022 4:02 29o 34.20' ( 29.5699) 177o 46.43' ( 177.7738) 12.4 179.2 48.5 16.5 24.1 90.8 1017.1 24.5
6-16-2022 3:32 29o 40.43' ( 29.6738) 177o 46.45' ( 177.7741) 12.5 181.0 51.4 21.1 23.5 91.3 1016.9 24.7
6-16-2022 3:02 29o 46.70' ( 29.7784) 177o 46.36' ( 177.7726) 12.5 179.3 49.7 18.8 23.5 90.3 1017.4 24.5
6-16-2022 2:32 29o 52.93' ( 29.8821) 177o 46.23' ( 177.7704) 12.4 174.9 48.4 17.0 23.7 88.1 1017.4 24.3
6-16-2022 2:02 29o 59.07' ( 29.9845) 177o 46.09' ( 177.7681) 12.3 176.8 48.6 12.7 23.5 87.7 1017.4 24.4
6-16-2022 1:32 30o 5.25' ( 30.0876) 177o 46.12' ( 177.7687) 12.2 177.9 40.0 12.0 23.6 86.1 1017.4 24.6
6-16-2022 1:02 30o 11.33' ( 30.1889) 177o 46.11' ( 177.7684) 12.1 176.4 13.9 9.2 23.1 86.3 1017.7 24.5
6-16-2022 0:32 30o 17.42' ( 30.2904) 177o 46.10' ( 177.7684) 12.2 176.8 358.7 7.9 22.8 86.6 1018.0 24.4
6-16-2022 0:02 30o 23.40' ( 30.3900) 177o 45.97' ( 177.7662) 11.7 177.1 333.1 4.2 22.3 88.2 1018.0 24.4
6-15-2022 23:32 30o 29.26' ( 30.4877) 177o 46.05' ( 177.7675) 11.7 178.7 300.6 3.8 21.6 92.0 1017.9 23.9
6-15-2022 23:02 30o 35.11' ( 30.5851) 177o 45.91' ( 177.7651) 11.8 177.6 336.9 2.5 21.4 93.1 1017.7 23.9
6-15-2022 22:32 30o 40.93' ( 30.6821) 177o 45.28' ( 177.7546) 11.8 167.6 326.0 3.2 21.6 95.0 1017.7 23.8
6-15-2022 22:02 30o 46.64' ( 30.7773) 177o 44.13' ( 177.7355) 11.4 168.4 218.8 8.8 21.5 95.4 1017.7 23.6
6-15-2022 21:32 30o 50.23' ( 30.8372) 177o 43.78' ( 177.7296) 6.3 178.5 156.8 7.8 21.4 95.0 1017.4 23.5
6-15-2022 21:02 30o 52.50' ( 30.8751) 177o 45.01' ( 177.7502) 6.2 268.3 107.5 10.4 21.5 95.5 1016.8 23.4
6-15-2022 20:32 30o 50.47' ( 30.8412) 177o 45.85' ( 177.7641) 6.4 205.0 96.4 14.7 21.0 95.0 1016.7 23.6
6-15-2022 20:02 30o 53.81' ( 30.8968) 177o 49.92' ( 177.8320) 12.2 229.4 75.9 12.5 20.8 95.0 1016.6 23.5
6-15-2022 19:32 30o 57.58' ( 30.9597) 177o 55.38' ( 177.9230) 11.8 229.9 46.8 9.9 20.2 94.9 1017.0 23.5
6-15-2022 19:02 31o 1.35' ( 31.0226) 178o 0.78' ( 178.0130) 12.1 231.0 10.2 11.7 20.1 94.7 1016.5 23.4
6-15-2022 18:32 31o 5.08' ( 31.0846) 178o 6.23' ( 178.1038) 11.9 231.3 6.1 15.7 20.0 94.0 1015.8 23.1
6-15-2022 18:02 31o 8.88' ( 31.1480) 178o 11.57' ( 178.1929) 11.9 230.5 0.1 17.2 20.0 90.6 1015.6 22.9
6-15-2022 17:32 31o 12.55' ( 31.2092) 178o 17.05' ( 178.2842) 11.9 234.0 8.8 15.5 19.9 90.3 1015.1 22.9
6-15-2022 17:02 31o 16.34' ( 31.2723) 178o 22.47' ( 178.3744) 12.0 231.3 359.9 17.2 19.5 90.5 1014.8 23.0
6-15-2022 16:32 31o 20.05' ( 31.3342) 178o 27.92' ( 178.4653) 11.9 232.0 358.4 18.9 19.2 92.1 1014.8 22.8
6-15-2022 16:02 31o 23.79' ( 31.3964) 178o 33.33' ( 178.5556) 11.8 233.0 345.0 19.7 19.4 95.4 1014.6 22.9
6-15-2022 15:32 31o 27.51' ( 31.4585) 178o 38.68' ( 178.6447) 11.8 232.0 348.8 20.9 19.5 95.4 1014.2 22.9
6-15-2022 15:02 31o 31.08' ( 31.5179) 178o 44.08' ( 178.7347) 9.4 234.6 231.7 12.5 23.3 95.5 1013.9 22.9
6-15-2022 14:32 31o 31.83' ( 31.5305) 178o 44.96' ( 178.7493) 0.3 199.0 196.8 15.3 23.3 95.6 1013.8 22.8
6-15-2022 14:02 31o 31.78' ( 31.5297) 178o 44.99' ( 178.7499) 0.3 259.7 197.7 16.4 23.5 95.6 1014.0 22.8
6-15-2022 13:32 31o 33.23' ( 31.5538) 178o 47.05' ( 178.7841) 11.3 234.8 202.9 16.3 23.4 95.0 1013.9 22.8
6-15-2022 13:02 31o 36.77' ( 31.6129) 178o 52.18' ( 178.8697) 11.1 234.7 200.4 17.6 23.4 95.0 1014.1 22.6
6-15-2022 12:32 31o 40.30' ( 31.6716) 178o 57.30' ( 178.9550) 11.2 234.4 192.4 16.7 23.1 95.7 1014.1 22.1
6-15-2022 12:02 31o 43.90' ( 31.7317) 179o 2.52' ( 179.0420) 11.7 235.6 195.1 16.0 23.0 95.0 1014.3 22.0
6-15-2022 11:32 31o 47.51' ( 31.7919) 179o 7.85' ( 179.1308) 11.4 235.1 192.6 16.1 22.0 95.6 1014.5 22.1
6-15-2022 11:02 31o 51.02' ( 31.8503) 179o 13.13' ( 179.2189) 11.5 236.5 191.7 15.3 22.7 95.0 1014.7 21.8
6-15-2022 10:32 31o 54.62' ( 31.9103) 179o 18.54' ( 179.3089) 11.9 236.2 195.9 14.7 22.5 95.0 1015.1 21.5
6-15-2022 9:32 32o 2.20' ( 32.0367) 179o 29.43' ( 179.4906) 11.8 231.6 195.6 15.5 22.4 95.0 1015.2 21.5
6-15-2022 9:02 32o 5.95' ( 32.0991) 179o 34.72' ( 179.5786) 11.6 229.5 189.9 13.9 22.1 95.6 1015.3 21.4
6-15-2022 8:32 32o 9.39' ( 32.1566) 179o 39.57' ( 179.6595) 9.4 229.8 191.8 15.2 22.1 95.6 1015.2 21.6
6-15-2022 8:02 32o 12.43' ( 32.2071) 179o 44.14' ( 179.7356) 10.8 232.6 194.7 15.1 22.0 95.6 1015.2 21.6
6-15-2022 7:32 32o 15.85' ( 32.2642) 179o 49.47' ( 179.8246) 11.4 233.2 194.2 15.5 22.0 95.6 1015.0 21.5
6-15-2022 7:02 32o 19.44' ( 32.3239) 179o 54.59' ( 179.9099) 11.2 233.0 194.0 16.2 22.0 95.0 1014.9 21.3
6-15-2022 6:32 32o 23.02' ( 32.3837) 179o 59.71' ( 179.9952) 11.3 233.3 195.8 15.3 21.7 95.0 1014.7 20.1
6-15-2022 6:02 32o 26.57' ( 32.4429) 179o 54.96' (-179.9160) 11.6 232.6 191.8 13.4 21.4 95.0 1014.5 20.0
6-15-2022 5:32 32o 30.20' ( 32.5034) 179o 49.72' (-179.8286) 11.3 231.8 197.3 14.2 21.2 95.0 1014.4 19.8
6-15-2022 5:02 32o 33.66' ( 32.5610) 179o 44.48' (-179.7414) 11.1 235.4 198.8 14.7 21.2 95.6 1014.3 19.9
6-15-2022 4:32 32o 37.15' ( 32.6192) 179o 39.35' (-179.6559) 11.2 233.9 196.7 13.5 21.1 95.0 1014.3 19.9
6-15-2022 4:02 32o 40.77' ( 32.6794) 179o 34.18' (-179.5697) 11.5 233.7 201.2 16.2 21.4 95.0 1014.4 19.9
6-15-2022 3:32 32o 44.35' ( 32.7391) 179o 28.91' (-179.4818) 11.4 233.2 205.3 12.9 21.4 95.5 1014.8 19.9
6-15-2022 3:02 32o 47.89' ( 32.7982) 179o 23.55' (-179.3925) 11.4 234.6 203.3 13.5 21.4 95.5 1015.0 19.9
6-15-2022 2:32 32o 51.54' ( 32.8590) 179o 18.31' (-179.3051) 11.6 231.9 199.7 14.3 21.4 95.5 1015.1 19.9
6-15-2022 2:02 32o 55.19' ( 32.9198) 179o 12.97' (-179.2162) 11.5 231.6 191.6 14.7 21.4 95.4 1015.1 19.9
6-15-2022 1:32 32o 58.77' ( 32.9795) 179o 7.65' (-179.1274) 11.5 231.8 191.9 14.5 21.2 95.0 1015.3 19.8
6-15-2022 1:02 33o 2.30' ( 33.0383) 179o 2.34' (-179.0389) 11.4 231.7 179.3 16.6 21.2 95.0 1015.4 19.8
6-15-2022 0:32 33o 5.98' ( 33.0996) 178o 57.07' (-178.9512) 11.7 228.6 176.6 16.2 21.2 95.0 1015.8 19.7
6-15-2022 0:02 33o 9.66' ( 33.1611) 178o 51.73' (-178.8621) 11.5 229.3 173.2 18.1 21.3 95.0 1015.9 19.7
6-14-2022 23:32 33o 13.31' ( 33.2219) 178o 46.44' (-178.7740) 11.5 228.1 166.0 17.7 21.1 95.4 1016.2 19.6
6-14-2022 23:02 33o 16.83' ( 33.2805) 178o 41.00' (-178.6833) 11.5 232.5 172.0 14.9 21.0 95.0 1016.7 19.6
6-14-2022 22:32 33o 20.41' ( 33.3402) 178o 35.58' (-178.5930) 11.7 229.8 174.3 16.9 21.1 95.4 1017.0 19.5
6-14-2022 22:02 33o 24.08' ( 33.4013) 178o 30.15' (-178.5025) 11.7 230.0 169.6 17.9 20.9 95.0 1017.2 19.5
6-14-2022 21:32 33o 27.76' ( 33.4626) 178o 24.73' (-178.4122) 11.7 229.3 161.8 18.3 20.6 95.5 1017.1 19.5
6-14-2022 21:02 33o 31.48' ( 33.5246) 178o 19.24' (-178.3207) 12.0 229.3 160.0 17.9 20.5 95.0 1017.6 19.5
6-14-2022 20:32 33o 35.31' ( 33.5885) 178o 13.59' (-178.2266) 12.2 228.1 162.3 15.6 20.3 95.5 1018.0 19.4
6-14-2022 20:02 33o 39.11' ( 33.6518) 178o 8.05' (-178.1342) 11.7 228.9 165.5 17.6 20.3 95.5 1018.1 19.4
6-14-2022 19:32 33o 42.78' ( 33.7130) 178o 2.56' (-178.0427) 11.8 231.7 163.3 19.0 20.3 95.0 1018.0 19.4
6-14-2022 19:02 33o 46.46' ( 33.7743) 177o 56.96' (-177.9493) 12.0 231.4 164.6 17.0 20.3 95.4 1018.2 19.4
6-14-2022 18:32 33o 50.15' ( 33.8359) 177o 51.40' (-177.8567) 11.7 230.2 162.7 18.4 20.2 95.0 1018.0 19.2
6-14-2022 18:02 33o 53.89' ( 33.8982) 177o 45.84' (-177.7640) 11.9 231.1 158.5 18.6 20.1 95.4 1018.0 19.1
6-14-2022 17:32 33o 57.72' ( 33.9620) 177o 40.25' (-177.6708) 12.3 229.6 156.2 17.0 19.9 95.4 1018.2 18.5
6-14-2022 17:02 33o 59.96' ( 33.9993) 177o 33.64' (-177.5607) 12.6 271.3 152.0 20.9 20.0 95.4 1018.3 18.6
6-14-2022 16:32 33o 59.97' ( 33.9995) 177o 30.31' (-177.5051) 0.2 100.8 154.7 18.9 20.0 95.0 1018.7 18.6
6-14-2022 16:02 33o 59.94' ( 33.9990) 177o 30.29' (-177.5049) 0.2 90.2 158.2 18.8 20.0 95.0 1018.9 18.5
6-14-2022 15:32 33o 59.94' ( 33.9990) 177o 30.29' (-177.5049) 0.2 86.3 157.6 18.2 19.9 95.1 1019.0 18.5
6-14-2022 15:02 33o 59.94' ( 33.9990) 177o 30.30' (-177.5049) 0.1 74.4 158.6 16.9 19.9 95.1 1019.2 18.4
6-14-2022 14:32 33o 59.94' ( 33.9990) 177o 30.30' (-177.5049) 0.2 69.2 154.4 16.6 19.8 94.9 1019.3 18.4
6-14-2022 14:02 33o 59.99' ( 33.9999) 177o 30.32' (-177.5053) 0.2 70.6 153.0 16.4 19.8 94.5 1019.6 18.3
6-14-2022 13:32 34o 0.03' ( 34.0005) 177o 30.33' (-177.5056) 0.2 69.3 151.0 17.0 19.8 93.0 1020.0 18.3
6-14-2022 13:02 34o 0.05' ( 34.0008) 177o 30.33' (-177.5055) 0.1 94.9 145.9 18.7 19.8 93.2 1020.4 18.3
6-14-2022 12:32 34o 0.05' ( 34.0008) 177o 30.33' (-177.5055) 0.1 94.6 139.4 18.9 19.8 92.5 1020.8 18.3
6-14-2022 12:02 34o 0.06' ( 34.0010) 177o 30.33' (-177.5055) 0.1 95.3 136.0 18.3 19.7 92.5 1021.1 18.4
6-14-2022 11:32 34o 0.06' ( 34.0010) 177o 30.33' (-177.5055) 0.1 94.1 138.1 17.5 19.7 92.6 1021.5 18.4
6-14-2022 11:02 34o 0.06' ( 34.0010) 177o 30.33' (-177.5055) 0.2 94.4 135.1 17.3 19.8 91.8 1022.0 18.4
6-14-2022 10:32 34o 0.09' ( 34.0015) 177o 30.32' (-177.5053) 0.3 114.1 135.9 15.7 19.6 91.7 1022.4 18.4
6-14-2022 10:02 34o 0.12' ( 34.0021) 177o 30.29' (-177.5048) 0.2 129.9 134.4 13.8 19.6 91.0 1022.9 18.4
6-14-2022 9:32 33o 59.98' ( 33.9996) 177o 25.97' (-177.4328) 12.0 270.8 127.5 15.1 19.8 91.0 1023.2 18.4
6-14-2022 9:02 34o 0.02' ( 34.0003) 177o 18.74' (-177.3124) 12.1 268.3 127.8 17.3 19.6 90.2 1023.1 19.4
6-14-2022 8:32 34o 0.02' ( 34.0003) 177o 11.40' (-177.1899) 12.2 268.6 133.0 14.8 19.3 89.5 1023.3 19.4
6-14-2022 8:02 33o 59.93' ( 33.9988) 177o 4.05' (-177.0675) 12.2 269.5 125.4 14.2 19.5 87.8 1023.3 19.5
6-14-2022 7:32 33o 59.95' ( 33.9992) 176o 56.71' (-176.9451) 12.0 268.6 125.0 14.8 19.8 85.0 1023.1 19.5
6-14-2022 7:02 34o 0.05' ( 34.0009) 176o 49.49' (-176.8248) 9.6 268.0 119.8 13.6 19.8 84.7 1023.3 19.5
6-14-2022 6:32 34o 0.06' ( 34.0010) 176o 43.34' (-176.7224) 11.8 268.8 129.8 14.9 19.7 83.7 1023.3 19.4
6-14-2022 6:02 34o 0.02' ( 34.0003) 176o 36.27' (-176.6044) 11.8 269.1 127.7 14.5 19.7 81.5 1023.3 19.4
6-14-2022 5:32 33o 59.97' ( 33.9994) 176o 29.17' (-176.4861) 11.9 271.7 124.0 13.8 19.8 78.8 1023.4 19.3
6-14-2022 5:02 33o 59.83' ( 33.9972) 176o 22.03' (-176.3672) 11.9 271.5 122.6 14.4 19.8 76.2 1023.6 19.3
6-14-2022 4:32 33o 59.95' ( 33.9992) 176o 14.87' (-176.2478) 11.9 268.9 132.1 14.3 20.0 73.6 1023.8 19.6
6-14-2022 4:02 34o 0.01' ( 34.0002) 176o 7.84' (-176.1307) 11.6 268.9 125.2 14.0 20.4 73.0 1023.8 19.5
6-14-2022 3:32 34o 0.03' ( 34.0005) 176o 0.84' (-176.0140) 11.7 268.8 122.8 14.6 20.6 71.0 1023.9 19.6
6-14-2022 3:02 33o 59.98' ( 33.9997) 175o 53.75' (-175.8958) 11.8 270.6 123.8 13.1 20.2 71.5 1024.3 19.8
6-14-2022 2:32 34o 0.00' ( 34.0000) 175o 46.53' (-175.7754) 12.2 268.0 126.0 12.2 20.6 68.9 1024.4 19.7
6-14-2022 2:02 34o 0.05' ( 34.0008) 175o 39.36' (-175.6560) 11.6 268.8 120.6 11.6 20.9 67.3 1024.8 19.7
6-14-2022 1:32 34o 0.02' ( 34.0003) 175o 32.34' (-175.5390) 11.8 268.5 114.2 9.1 20.9 68.0 1025.3 19.7
6-14-2022 1:02 33o 59.94' ( 33.9990) 175o 25.23' (-175.4205) 12.2 268.8 120.8 11.2 20.8 67.9 1025.4 19.6
6-14-2022 0:32 33o 59.97' ( 33.9995) 175o 17.80' (-175.2967) 12.2 268.2 120.2 12.1 20.7 68.9 1025.2 19.8
6-14-2022 0:02 34o 0.07' ( 34.0012) 175o 10.42' (-175.1736) 12.6 267.3 118.1 12.1 20.5 69.3 1025.4 19.9
6-13-2022 23:32 34o 0.11' ( 34.0019) 175o 2.88' (-175.0480) 12.4 268.6 112.4 12.3 20.5 67.9 1025.8 19.9
6-13-2022 23:02 33o 60.00' ( 34.0000) 174o 55.41' (-174.9235) 12.6 271.1 114.6 11.5 20.5 67.0 1025.9 19.5
6-13-2022 22:32 33o 59.97' ( 33.9994) 174o 47.87' (-174.7978) 12.5 270.4 104.8 12.6 21.1 64.7 1026.0 19.1
6-13-2022 22:02 34o 0.00' ( 34.0000) 174o 40.48' (-174.6747) 12.3 271.0 102.8 11.3 21.5 67.7 1026.0 19.4
6-13-2022 21:32 33o 59.94' ( 33.9991) 174o 33.02' (-174.5503) 12.4 269.8 99.6 12.1 20.8 69.7 1026.0 19.9
6-13-2022 21:02 33o 59.98' ( 33.9997) 174o 25.60' (-174.4267) 12.4 270.8 99.7 10.2 20.0 70.0 1026.0 19.9
6-13-2022 20:32 34o 0.00' ( 34.0000) 174o 18.08' (-174.3014) 12.4 271.7 109.1 11.0 20.2 71.6 1026.1 20.0
6-13-2022 20:02 33o 59.92' ( 33.9987) 174o 10.66' (-174.1777) 12.1 272.1 102.3 11.4 20.1 72.4 1026.2 20.0
6-13-2022 19:32 33o 59.90' ( 33.9983) 174o 3.35' (-174.0559) 12.1 270.0 97.7 11.9 21.2 69.4 1026.2 20.1
6-13-2022 19:02 33o 59.97' ( 33.9995) 173o 56.09' (-173.9349) 12.0 268.2 92.9 12.1 21.1 70.6 1026.1 20.1
6-13-2022 18:32 33o 60.00' ( 34.0000) 173o 48.88' (-173.8146) 11.9 270.6 89.5 11.5 19.5 73.0 1025.9 20.1
6-13-2022 18:02 34o 0.03' ( 34.0005) 173o 41.78' (-173.6963) 11.8 268.6 85.4 10.5 19.1 73.9 1025.5 20.2
6-13-2022 17:32 34o 0.02' ( 34.0003) 173o 34.76' (-173.5794) 11.6 268.6 75.9 7.8 18.4 74.6 1025.7 20.0
6-13-2022 17:02 34o 0.02' ( 34.0003) 173o 27.85' (-173.4641) 11.4 270.7 78.5 8.5 18.5 73.7 1025.4 20.1
6-13-2022 16:32 33o 59.90' ( 33.9984) 173o 21.00' (-173.3500) 11.4 270.2 93.0 10.6 18.0 73.9 1025.0 20.2
6-13-2022 16:02 34o 0.02' ( 34.0003) 173o 14.10' (-173.2351) 11.5 270.6 83.5 10.0 18.2 76.1 1025.1 19.9
6-13-2022 15:32 33o 59.98' ( 33.9997) 173o 7.10' (-173.1183) 11.7 271.8 76.5 9.7 18.0 73.0 1025.0 19.7
6-13-2022 15:02 34o 0.32' ( 34.0053) 173o 1.54' (-173.0257) 1.0 303.4 75.5 10.9 18.2 72.8 1025.4 19.6
6-13-2022 14:32 34o 0.29' ( 34.0049) 173o 1.49' (-173.0248) 0.2 18.3 81.6 10.5 18.3 73.3 1025.2 19.6
6-13-2022 14:02 34o 0.30' ( 34.0049) 173o 1.48' (-173.0247) 0.4 24.6 68.7 9.0 18.4 73.0 1025.3 19.6
6-13-2022 13:32 34o 1.35' ( 34.0226) 172o 58.95' (-172.9826) 11.8 243.1 81.3 8.8 18.2 72.0 1025.7 19.5
6-13-2022 13:02 34o 4.33' ( 34.0721) 172o 52.87' (-172.8812) 11.7 236.8 62.0 9.6 18.0 73.0 1025.9 19.6
6-13-2022 12:32 34o 7.38' ( 34.1230) 172o 46.80' (-172.7800) 11.8 236.6 55.9 8.9 17.9 73.1 1025.9 19.6
6-13-2022 12:02 34o 10.33' ( 34.1722) 172o 40.62' (-172.6770) 12.1 237.6 67.5 8.5 17.9 72.2 1026.0 19.4
6-13-2022 11:32 34o 13.31' ( 34.2218) 172o 34.40' (-172.5733) 11.9 239.1 58.1 7.7 17.9 71.6 1026.0 19.6
6-13-2022 11:02 34o 16.38' ( 34.2730) 172o 28.20' (-172.4700) 12.1 240.3 59.3 6.6 17.8 69.0 1026.1 19.5
6-13-2022 10:32 34o 19.40' ( 34.3233) 172o 21.83' (-172.3638) 12.2 240.1 60.4 7.4 17.8 69.0 1026.0 19.5
6-13-2022 10:02 34o 22.48' ( 34.3747) 172o 15.50' (-172.2583) 12.3 241.4 59.5 6.9 17.8 68.4 1026.1 19.4
6-13-2022 9:32 34o 25.40' ( 34.4233) 172o 9.11' (-172.1519) 11.9 242.3 51.9 6.9 17.8 68.0 1026.0 19.4
6-13-2022 9:02 34o 28.33' ( 34.4721) 172o 2.93' (-172.0488) 11.7 241.2 45.3 6.6 17.8 69.2 1026.0 19.3
6-13-2022 8:32 34o 31.31' ( 34.5218) 171o 56.87' (-171.9478) 11.8 238.6 40.8 6.1 17.7 69.5 1025.6 19.3
6-13-2022 8:02 34o 34.34' ( 34.5724) 171o 50.57' (-171.8429) 12.2 239.5 42.6 6.6 17.7 69.5 1025.6 19.3
6-13-2022 7:32 34o 37.47' ( 34.6245) 171o 44.29' (-171.7381) 12.0 237.1 26.3 5.1 17.7 69.0 1025.5 19.2
6-13-2022 7:02 34o 40.51' ( 34.6752) 171o 38.13' (-171.6355) 11.8 238.1 22.7 4.8 17.7 69.4 1025.3 19.2
6-13-2022 6:32 34o 43.41' ( 34.7236) 171o 31.68' (-171.5281) 12.3 240.8 32.6 5.4 17.6 70.8 1025.0 19.0
6-13-2022 6:02 34o 46.63' ( 34.7771) 171o 25.36' (-171.4227) 12.2 238.8 31.0 5.6 17.7 70.8 1024.9 18.9
6-13-2022 5:32 34o 49.64' ( 34.8273) 171o 18.89' (-171.3148) 12.2 241.4 39.8 4.2 17.6 68.7 1024.6 18.9
6-13-2022 5:02 34o 52.68' ( 34.8780) 171o 12.54' (-171.2090) 12.1 238.5 15.4 4.1 17.7 70.4 1024.7 18.7
6-13-2022 4:32 34o 55.75' ( 34.9291) 171o 6.28' (-171.1046) 12.0 242.1 42.9 4.7 17.7 69.7 1024.4 18.8
6-13-2022 4:02 34o 58.48' ( 34.9747) 170o 59.74' (-170.9956) 11.9 244.0 51.9 3.8 17.7 69.6 1024.7 18.8
6-13-2022 3:32 35o 1.47' ( 35.0246) 170o 53.42' (-170.8904) 11.9 240.1 41.1 4.6 18.2 67.0 1024.5 18.9
6-13-2022 3:02 35o 4.70' ( 35.0783) 170o 47.32' (-170.7887) 12.0 237.3 25.1 5.4 18.7 66.8 1024.4 18.9
6-13-2022 2:32 35o 7.70' ( 35.1284) 170o 41.14' (-170.6857) 11.7 239.1 30.2 4.1 18.5 67.1 1024.5 18.8
6-13-2022 2:02 35o 10.65' ( 35.1775) 170o 34.93' (-170.5822) 12.0 240.5 13.5 4.1 18.1 67.0 1024.6 18.8
6-13-2022 1:32 35o 13.51' ( 35.2252) 170o 28.55' (-170.4758) 12.0 239.6 7.3 3.5 18.2 68.3 1024.6 18.7
6-13-2022 1:02 35o 16.73' ( 35.2788) 170o 22.48' (-170.3746) 11.7 237.2 5.5 4.1 18.0 70.3 1024.6 18.7
6-13-2022 0:32 35o 19.67' ( 35.3279) 170o 16.35' (-170.2724) 11.8 241.3 3.2 4.9 18.0 71.0 1024.8 18.8
6-13-2022 0:02 35o 22.47' ( 35.3745) 170o 9.94' (-170.1656) 11.9 240.5 344.9 6.5 17.6 75.8 1024.8 18.7
6-12-2022 23:32 35o 25.41' ( 35.4235) 170o 3.80' (-170.0633) 11.4 239.5 322.1 2.7 18.1 70.2 1024.8 18.7
6-12-2022 23:02 35o 28.35' ( 35.4725) 169o 57.78' (-169.9630) 11.6 239.2 197.9 0.9 17.7 69.4 1024.8 18.8
6-12-2022 22:32 35o 31.26' ( 35.5211) 169o 51.63' (-169.8605) 11.5 239.9 80.8 0.3 17.8 67.9 1024.8 18.8
6-12-2022 22:02 35o 34.09' ( 35.5682) 169o 45.47' (-169.7578) 11.6 240.8 30.2 1.5 17.7 67.0 1024.7 18.7
6-12-2022 21:32 35o 37.07' ( 35.6178) 169o 39.23' (-169.6539) 11.9 239.8 34.2 1.7 17.6 66.0 1024.5 18.7
6-12-2022 21:02 35o 40.04' ( 35.6673) 169o 33.02' (-169.5503) 11.8 241.0 3.3 0.9 17.4 68.4 1024.6 18.7
6-12-2022 20:32 35o 42.99' ( 35.7165) 169o 26.83' (-169.4472) 11.7 239.7 350.1 1.9 17.3 69.4 1024.5 18.5
6-12-2022 20:02 35o 45.86' ( 35.7643) 169o 20.60' (-169.3433) 11.9 242.1 337.7 2.7 17.1 68.8 1024.7 18.0
6-12-2022 19:32 35o 48.79' ( 35.8132) 169o 14.18' (-169.2363) 12.0 239.3 312.9 3.6 17.2 69.3 1024.4 17.9
6-12-2022 19:02 35o 49.34' ( 35.8223) 169o 12.50' (-169.2083) 0.6 336.7 324.3 6.2 17.4 68.2 1024.4 18.0
6-12-2022 18:32 35o 49.43' ( 35.8238) 169o 12.40' (-169.2067) 0.6 311.5 321.4 5.4 17.3 69.4 1024.2 18.0
6-12-2022 18:02 35o 49.53' ( 35.8255) 169o 12.30' (-169.2049) 0.5 309.7 327.6 6.3 17.2 70.3 1023.9 17.9
6-12-2022 17:32 35o 49.61' ( 35.8268) 169o 12.22' (-169.2036) 0.5 313.6 329.3 6.5 17.3 69.0 1023.7 18.0
6-12-2022 17:02 35o 49.75' ( 35.8292) 169o 12.15' (-169.2025) 0.5 290.2 335.4 8.6 17.3 73.3 1023.1 18.0
6-12-2022 16:32 35o 49.80' ( 35.8299) 169o 12.12' (-169.2021) 0.4 295.4 339.9 7.0 17.2 73.2 1023.2 18.0
6-12-2022 16:02 35o 49.80' ( 35.8299) 169o 12.13' (-169.2021) 0.5 286.5 345.3 10.3 17.3 72.6 1023.0 18.0
6-12-2022 15:32 35o 49.83' ( 35.8306) 169o 12.11' (-169.2019) 0.3 285.4 332.0 9.1 17.4 72.3 1022.6 17.9
6-12-2022 15:02 35o 49.83' ( 35.8305) 169o 12.12' (-169.2020) 0.3 294.9 356.1 6.2 17.5 75.4 1022.4 18.0
6-12-2022 14:32 35o 49.82' ( 35.8303) 169o 12.12' (-169.2021) 0.3 299.3 332.8 5.1 17.1 76.4 1022.5 18.0
6-12-2022 14:02 35o 49.80' ( 35.8300) 169o 12.14' (-169.2023) 0.4 304.3 324.9 8.8 17.1 76.2 1022.3 17.8
6-12-2022 13:32 35o 49.80' ( 35.8300) 169o 12.14' (-169.2024) 0.3 304.7 339.5 10.2 17.0 75.0 1022.1 17.8
6-12-2022 13:02 35o 49.81' ( 35.8302) 169o 12.13' (-169.2022) 0.4 314.4 325.8 10.2 16.9 75.4 1022.1 18.1
6-12-2022 12:32 35o 49.79' ( 35.8299) 169o 12.16' (-169.2027) 0.3 320.9 330.4 8.0 16.9 81.3 1022.3 18.1
6-12-2022 12:02 35o 49.79' ( 35.8298) 169o 12.16' (-169.2027) 0.3 321.4 328.5 8.1 16.0 82.3 1022.3 18.1
6-12-2022 11:32 35o 49.78' ( 35.8297) 169o 12.18' (-169.2030) 0.2 334.6 339.4 6.4 17.0 84.5 1022.2 18.1
6-12-2022 11:02 35o 49.78' ( 35.8297) 169o 12.20' (-169.2034) 0.3 344.5 347.9 6.9 16.9 84.0 1022.3 18.1
6-12-2022 10:32 35o 49.78' ( 35.8297) 169o 12.21' (-169.2035) 0.3 348.6 342.2 8.6 16.8 85.4 1022.3 18.1
6-12-2022 10:02 35o 49.78' ( 35.8296) 169o 12.23' (-169.2039) 0.2 348.2 341.3 12.3 16.9 87.7 1022.1 18.1
6-12-2022 9:32 35o 49.78' ( 35.8296) 169o 12.23' (-169.2038) 0.2 345.7 343.3 11.8 17.1 86.8 1022.2 18.1
6-12-2022 9:02 35o 49.78' ( 35.8297) 169o 12.21' (-169.2035) 0.3 329.3 330.2 12.0 17.4 84.0 1022.3 18.1
6-12-2022 8:32 35o 49.81' ( 35.8302) 169o 12.18' (-169.2029) 0.2 288.4 291.7 9.5 17.9 83.0 1021.7 18.1
6-12-2022 8:02 35o 49.82' ( 35.8303) 169o 12.17' (-169.2029) 0.3 284.5 285.4 8.4 18.0 84.3 1021.5 18.1
6-12-2022 7:32 35o 45.44' ( 35.7574) 169o 11.72' (-169.1953) 11.7 2.2 288.8 8.7 18.2 83.1 1021.0 18.2
6-12-2022 7:02 35o 39.72' ( 35.6620) 169o 12.02' (-169.2003) 11.3 2.1 284.5 12.0 18.5 80.6 1020.8 18.6
6-12-2022 6:32 35o 34.00' ( 35.5667) 169o 12.13' (-169.2021) 11.5 1.5 275.4 11.3 18.6 83.1 1020.8 18.7
6-12-2022 6:02 35o 28.19' ( 35.4698) 169o 11.97' (-169.1995) 11.7 358.5 265.3 7.7 18.6 84.2 1020.5 18.9
6-12-2022 5:32 35o 22.42' ( 35.3736) 169o 11.75' (-169.1958) 11.4 358.8 291.8 7.9 18.7 79.7 1020.1 19.3
6-12-2022 5:02 35o 16.66' ( 35.2777) 169o 11.77' (-169.1961) 11.4 358.8 291.1 9.6 18.8 80.5 1019.5 19.3
6-12-2022 4:32 35o 10.89' ( 35.1814) 169o 11.82' (-169.1969) 11.7 358.1 290.6 11.6 18.9 82.5 1019.3 19.6
6-12-2022 4:02 35o 4.98' ( 35.0829) 169o 11.98' (-169.1997) 11.8 1.6 278.1 10.2 19.3 82.2 1019.3 19.7
6-12-2022 3:32 34o 59.08' ( 34.9847) 169o 12.00' (-169.2000) 11.8 0.7 263.1 8.7 20.0 78.2 1019.4 19.7
6-12-2022 3:02 34o 53.31' ( 34.8884) 169o 11.96' (-169.1994) 11.4 359.9 247.1 8.7 20.2 76.2 1019.4 19.7
6-12-2022 2:32 34o 47.55' ( 34.7925) 169o 11.97' (-169.1995) 11.6 0.9 237.7 10.1 20.5 83.0 1019.5 20.0
6-12-2022 2:02 34o 41.72' ( 34.6953) 169o 12.20' (-169.2034) 11.8 0.1 237.3 10.7 20.6 83.3 1019.6 20.1
6-12-2022 1:32 34o 35.85' ( 34.5975) 169o 12.04' (-169.2006) 11.7 356.7 243.3 11.2 20.5 82.2 1019.7 20.0
6-12-2022 1:02 34o 29.97' ( 34.4994) 169o 12.05' (-169.2008) 11.9 359.8 235.4 9.4 20.6 79.9 1019.7 20.0
6-12-2022 0:32 34o 24.05' ( 34.4008) 169o 12.07' (-169.2012) 11.8 354.6 253.2 9.7 20.5 76.2 1019.7 19.8
6-12-2022 0:02 34o 18.19' ( 34.3031) 169o 11.89' (-169.1981) 11.8 354.4 222.4 6.6 20.0 79.2 1019.9 20.0
6-11-2022 23:32 34o 12.32' ( 34.2053) 169o 11.91' (-169.1986) 11.7 356.5 264.9 8.5 19.2 86.1 1020.0 20.1
6-11-2022 23:02 34o 6.44' ( 34.1074) 169o 11.92' (-169.1986) 11.9 357.4 222.7 7.8 21.5 87.7 1020.1 20.0
6-11-2022 22:32 34o 0.51' ( 34.0084) 169o 12.02' (-169.2004) 11.9 359.0 215.4 9.4 21.9 83.9 1020.1 19.8
6-11-2022 22:02 33o 54.56' ( 33.9093) 169o 12.03' (-169.2005) 12.0 359.7 203.3 10.3 22.2 79.8 1020.1 20.0
6-11-2022 21:32 33o 48.52' ( 33.8087) 169o 11.98' (-169.1996) 12.1 358.2 182.1 8.3 21.2 84.3 1019.9 20.3
6-11-2022 21:02 33o 42.54' ( 33.7090) 169o 11.96' (-169.1993) 11.9 358.4 177.5 7.4 20.9 86.4 1019.8 20.3
6-11-2022 20:32 33o 36.60' ( 33.6100) 169o 12.01' (-169.2001) 12.0 359.2 190.2 10.0 22.0 83.9 1019.7 20.4
6-11-2022 20:02 33o 30.64' ( 33.5106) 169o 12.09' (-169.2015) 11.9 358.8 191.1 9.9 21.6 83.5 1019.6 20.5
6-11-2022 19:32 33o 24.72' ( 33.4120) 169o 11.95' (-169.1992) 11.9 355.8 195.2 8.5 20.9 85.1 1019.7 20.5
6-11-2022 19:02 33o 18.74' ( 33.3123) 169o 11.81' (-169.1969) 12.2 356.4 199.2 7.6 20.6 85.7 1019.4 20.2
6-11-2022 18:32 33o 12.59' ( 33.2099) 169o 11.91' (-169.1985) 12.4 356.8 195.3 8.0 20.4 85.6 1019.1 20.4
6-11-2022 18:02 33o 6.34' ( 33.1057) 169o 11.93' (-169.1989) 12.5 359.3 181.0 8.4 20.4 85.1 1018.8 20.4
6-11-2022 17:32 33o 0.04' ( 33.0006) 169o 11.99' (-169.1998) 12.5 358.8 184.9 6.2 20.4 85.2 1018.6 20.5
6-11-2022 17:02 32o 53.79' ( 32.8965) 169o 11.99' (-169.1998) 12.4 359.3 190.4 5.0 20.3 85.6 1018.4 20.7
6-11-2022 16:32 32o 48.88' ( 32.8147) 169o 11.89' (-169.1981) 0.9 11.1 210.1 4.8 21.1 86.6 1018.1 20.7
6-11-2022 16:02 32o 48.75' ( 32.8125) 169o 11.94' (-169.1989) 0.4 111.2 196.3 3.1 21.0 86.8 1017.8 20.5
6-11-2022 15:32 32o 48.70' ( 32.8116) 169o 11.96' (-169.1994) 0.2 109.2 168.2 4.0 20.7 87.4 1017.7 20.5
6-11-2022 15:02 32o 48.67' ( 32.8111) 169o 11.97' (-169.1996) 0.2 109.9 157.8 4.1 20.6 87.0 1017.5 20.6
6-11-2022 14:32 32o 48.65' ( 32.8108) 169o 11.98' (-169.1997) 0.3 104.0 174.9 6.1 20.5 88.3 1017.6 20.5
6-11-2022 14:02 32o 48.64' ( 32.8107) 169o 11.98' (-169.1997) 0.2 104.2 146.8 4.0 20.2 86.9 1017.5 20.6
6-11-2022 13:32 32o 48.65' ( 32.8108) 169o 11.98' (-169.1997) 0.2 95.5 127.3 2.3 20.2 84.3 1017.5 20.6
6-11-2022 13:02 32o 48.65' ( 32.8108) 169o 11.98' (-169.1997) 0.2 95.0 120.0 6.8 20.4 82.5 1017.4 20.6
6-11-2022 12:32 32o 48.64' ( 32.8107) 169o 11.98' (-169.1997) 0.2 94.4 123.9 6.1 20.5 83.8 1017.9 20.8
6-11-2022 12:02 32o 48.65' ( 32.8108) 169o 11.98' (-169.1997) 0.2 89.8 141.6 7.1 20.7 83.6 1017.9 20.8
6-11-2022 11:32 32o 48.64' ( 32.8107) 169o 11.98' (-169.1997) 0.2 81.2 138.6 6.6 20.7 84.4 1017.9 20.7
6-11-2022 11:02 32o 48.62' ( 32.8103) 169o 11.97' (-169.1995) 0.2 75.6 127.5 7.9 20.6 84.9 1018.0 20.8
6-11-2022 10:32 32o 48.61' ( 32.8102) 169o 11.97' (-169.1995) 0.3 62.3 117.8 8.0 20.5 86.2 1018.3 20.8
6-11-2022 10:02 32o 48.59' ( 32.8098) 169o 11.96' (-169.1993) 0.2 55.2 123.6 7.7 20.4 87.2 1018.3 20.8
6-11-2022 9:32 32o 48.57' ( 32.8095) 169o 11.94' (-169.1990) 0.3 48.9 114.0 6.6 20.4 87.9 1018.5 20.8
6-11-2022 9:02 32o 48.59' ( 32.8098) 169o 11.96' (-169.1993) 0.3 52.1 107.1 5.7 20.0 87.5 1018.5 20.8
6-11-2022 8:32 32o 44.72' ( 32.7454) 169o 12.13' (-169.2021) 11.2 2.7 122.8 3.3 20.2 87.4 1018.1 20.7
6-11-2022 8:02 32o 39.10' ( 32.6517) 169o 12.12' (-169.2021) 11.2 0.0 256.3 1.1 20.9 73.8 1017.7 20.6
6-11-2022 7:32 32o 33.49' ( 32.5582) 169o 11.99' (-169.1999) 11.1 0.6 161.7 1.3 20.6 76.7 1017.4 20.6
6-11-2022 7:02 32o 27.94' ( 32.4656) 169o 12.03' (-169.2006) 11.0 359.8 190.4 2.0 20.5 77.4 1017.0 20.6
6-11-2022 6:32 32o 24.31' ( 32.4052) 169o 9.24' (-169.1540) 11.6 280.3 145.8 1.9 20.4 76.0 1016.7 20.7
6-11-2022 6:02 32o 23.55' ( 32.3924) 169o 2.48' (-169.0413) 11.6 280.6 146.6 0.4 20.5 76.4 1016.6 20.8
6-11-2022 5:32 32o 22.65' ( 32.3775) 168o 55.76' (-168.9294) 11.3 280.1 220.0 1.3 21.0 74.8 1016.5 20.9
6-11-2022 5:02 32o 21.75' ( 32.3625) 168o 49.18' (-168.8197) 11.4 280.3 75.6 1.3 21.1 78.2 1016.3 20.7
6-11-2022 4:32 32o 20.80' ( 32.3466) 168o 42.53' (-168.7088) 11.3 279.7 49.8 2.7 21.3 79.8 1015.9 20.5
6-11-2022 4:02 32o 19.93' ( 32.3322) 168o 35.82' (-168.5971) 11.6 278.1 24.3 2.7 20.9 74.4 1015.7 20.5
6-11-2022 3:32 32o 19.10' ( 32.3184) 168o 29.09' (-168.4849) 11.4 279.2 26.4 3.5 20.9 77.8 1015.7 20.6
6-11-2022 3:02 32o 18.22' ( 32.3036) 168o 22.56' (-168.3760) 11.1 279.1 315.1 2.4 21.0 72.8 1015.7 20.7
6-11-2022 2:32 32o 17.27' ( 32.2878) 168o 16.01' (-168.2669) 11.6 277.3 36.5 1.2 20.9 76.0 1015.7 20.7
6-11-2022 2:02 32o 16.43' ( 32.2738) 168o 9.17' (-168.1528) 11.9 277.3 129.4 1.1 21.0 74.3 1015.8 20.8
6-11-2022 1:32 32o 15.43' ( 32.2571) 168o 2.27' (-168.0379) 11.8 275.3 313.4 0.9 20.7 73.0 1015.8 21.1
6-11-2022 1:02 32o 14.58' ( 32.2430) 167o 55.43' (-167.9238) 11.6 275.1 304.8 2.6 20.4 73.0 1015.8 21.2
6-11-2022 0:32 32o 13.78' ( 32.2296) 167o 48.72' (-167.8120) 11.5 276.4 330.6 2.3 20.4 75.0 1015.9 21.2
6-11-2022 0:02 32o 12.87' ( 32.2146) 167o 41.91' (-167.6986) 11.7 277.9 348.1 3.0 20.2 75.4 1015.8 21.2
6-10-2022 23:32 32o 11.81' ( 32.1969) 167o 35.05' (-167.5842) 12.0 278.5 325.7 3.3 20.0 75.4 1016.0 21.2
6-10-2022 23:02 32o 10.90' ( 32.1817) 167o 28.07' (-167.4678) 12.0 275.9 311.1 5.1 19.9 75.9 1016.3 21.2
6-10-2022 22:32 32o 9.99' ( 32.1665) 167o 21.13' (-167.3521) 11.8 275.1 301.2 5.2 19.8 75.0 1016.1 21.2
6-10-2022 22:02 32o 9.08' ( 32.1514) 167o 14.17' (-167.2362) 12.2 277.4 307.6 4.5 19.8 75.7 1016.0 21.3
6-10-2022 21:32 32o 8.16' ( 32.1360) 167o 7.06' (-167.1177) 12.2 276.4 306.9 5.2 19.9 75.9 1015.8 21.4
6-10-2022 21:02 32o 7.18' ( 32.1197) 167o 0.05' (-167.0009) 11.9 280.4 311.5 7.0 19.9 75.2 1015.6 21.5
6-10-2022 20:32 32o 6.24' ( 32.1040) 166o 53.05' (-166.8842) 12.1 278.0 307.1 7.4 20.0 73.9 1015.5 22.3
6-10-2022 20:02 32o 5.30' ( 32.0883) 166o 45.99' (-166.7665) 12.0 280.1 302.5 9.7 20.1 76.2 1015.6 22.0
6-10-2022 19:32 32o 4.34' ( 32.0723) 166o 39.08' (-166.6514) 11.9 280.6 309.1 10.0 20.3 78.0 1015.4 21.8
6-10-2022 19:02 32o 3.38' ( 32.0564) 166o 32.29' (-166.5381) 11.5 281.2 300.0 9.6 20.1 78.7 1015.0 21.2
6-10-2022 18:32 32o 2.44' ( 32.0406) 166o 25.73' (-166.4289) 11.2 281.5 295.5 10.9 20.1 80.7 1014.7 21.2
6-10-2022 18:02 32o 1.60' ( 32.0267) 166o 19.24' (-166.3206) 11.2 278.3 307.4 13.9 20.2 81.5 1014.3 21.2
6-10-2022 17:32 32o 0.85' ( 32.0142) 166o 12.73' (-166.2121) 11.1 280.9 297.6 11.7 20.2 82.0 1013.9 21.3
6-10-2022 17:02 31o 59.86' ( 31.9976) 166o 6.28' (-166.1046) 11.2 282.6 297.2 13.6 20.1 83.9 1013.3 21.4
6-10-2022 16:32 31o 58.96' ( 31.9827) 165o 59.95' (-165.9991) 10.8 280.7 301.5 16.4 20.0 84.3 1012.9 21.5
6-10-2022 16:02 31o 58.23' ( 31.9705) 165o 53.64' (-165.8940) 10.7 279.6 291.8 19.8 20.3 79.0 1012.7 22.5
6-10-2022 15:32 31o 57.34' ( 31.9556) 165o 47.51' (-165.7918) 10.4 282.2 285.3 19.6 20.7 78.7 1012.0 22.6
6-10-2022 15:02 31o 56.76' ( 31.9460) 165o 44.31' (-165.7385) 0.4 284.4 291.3 20.3 20.7 80.5 1012.0 22.5
6-10-2022 14:32 31o 56.85' ( 31.9475) 165o 44.28' (-165.7381) 0.4 281.3 288.0 21.3 20.7 81.9 1012.0 22.5
6-10-2022 14:02 31o 56.86' ( 31.9477) 165o 44.28' (-165.7380) 0.3 279.4 268.7 20.9 20.9 81.5 1011.6 22.5
6-10-2022 13:32 31o 56.76' ( 31.9460) 165o 42.65' (-165.7109) 10.8 280.6 269.9 19.6 21.1 80.0 1011.4 22.4
6-10-2022 13:02 31o 55.88' ( 31.9313) 165o 36.39' (-165.6064) 11.0 279.1 264.9 17.5 21.3 80.0 1011.3 22.1
6-10-2022 12:32 31o 55.05' ( 31.9175) 165o 30.07' (-165.5011) 10.8 278.9 262.3 19.0 21.1 78.8 1011.5 22.3
6-10-2022 12:02 31o 54.14' ( 31.9023) 165o 23.73' (-165.3955) 10.9 278.8 260.4 18.9 21.2 78.0 1011.4 22.6
6-10-2022 11:32 31o 53.35' ( 31.8891) 165o 17.43' (-165.2906) 10.8 278.5 266.7 17.6 21.4 74.7 1011.6 22.9
6-10-2022 11:02 31o 52.51' ( 31.8752) 165o 11.16' (-165.1860) 10.8 277.9 272.9 19.1 21.5 76.3 1011.8 22.7
6-10-2022 10:32 31o 51.67' ( 31.8612) 165o 4.87' (-165.0812) 11.0 279.9 278.0 18.6 21.7 75.7 1012.0 22.7
6-10-2022 10:02 31o 50.82' ( 31.8469) 164o 58.49' (-164.9748) 10.9 277.7 271.1 19.6 21.5 79.2 1011.9 22.6
6-10-2022 9:32 31o 50.04' ( 31.8340) 164o 52.05' (-164.8675) 11.3 277.6 273.6 17.3 22.0 77.0 1012.1 22.5
6-10-2022 9:02 31o 49.19' ( 31.8198) 164o 45.51' (-164.7585) 11.4 278.5 281.0 18.3 22.2 78.2 1012.4 22.4
6-10-2022 8:32 31o 48.31' ( 31.8052) 164o 38.85' (-164.6474) 11.5 278.4 280.0 17.9 22.5 83.9 1012.3 22.3
6-10-2022 8:02 31o 47.32' ( 31.7887) 164o 32.17' (-164.5361) 11.6 282.5 268.0 14.9 22.6 84.8 1011.9 22.2
6-10-2022 7:32 31o 46.29' ( 31.7715) 164o 25.57' (-164.4261) 11.3 283.7 269.0 16.4 22.7 82.7 1011.7 22.0
6-10-2022 7:02 31o 45.41' ( 31.7569) 164o 19.16' (-164.3194) 11.2 280.1 264.5 15.7 22.5 89.5 1011.6 21.5
6-10-2022 6:32 31o 44.64' ( 31.7439) 164o 12.74' (-164.2123) 11.2 279.4 263.9 14.7 22.3 90.7 1011.2 21.6
6-10-2022 6:02 31o 43.72' ( 31.7287) 164o 6.25' (-164.1042) 11.2 279.7 258.8 13.9 22.5 93.2 1011.0 21.7
6-10-2022 5:32 31o 42.90' ( 31.7150) 163o 59.79' (-163.9965) 11.3 279.2 241.4 17.2 22.6 93.4 1010.7 21.7
6-10-2022 5:02 31o 42.07' ( 31.7011) 163o 53.16' (-163.8860) 11.5 281.6 241.3 15.6 22.7 91.7 1010.6 21.9
6-10-2022 4:32 31o 41.06' ( 31.6843) 163o 46.40' (-163.7733) 11.8 282.2 240.3 15.2 22.8 91.0 1010.3 22.6
6-10-2022 4:02 31o 40.20' ( 31.6700) 163o 39.71' (-163.6618) 11.6 278.9 243.3 15.3 23.0 89.9 1010.2 22.7
6-10-2022 3:32 31o 39.28' ( 31.6547) 163o 32.95' (-163.5492) 11.9 279.3 245.4 13.3 22.9 91.7 1010.4 22.7
6-10-2022 3:02 31o 38.35' ( 31.6392) 163o 26.08' (-163.4347) 11.9 278.6 242.6 13.2 23.1 90.7 1010.4 22.8
6-10-2022 2:32 31o 37.45' ( 31.6241) 163o 19.23' (-163.3204) 11.9 276.5 240.5 12.5 23.0 90.8 1010.3 22.7
6-10-2022 2:02 31o 36.65' ( 31.6108) 163o 12.38' (-163.2063) 11.8 275.7 248.7 12.9 23.0 90.6 1010.5 22.8
6-10-2022 1:32 31o 35.75' ( 31.5958) 163o 5.62' (-163.0937) 11.5 277.6 253.1 16.6 22.8 92.1 1010.7 23.2
6-10-2022 1:02 31o 34.77' ( 31.5796) 162o 58.98' (-162.9830) 11.5 280.0 251.8 17.7 23.0 93.9 1010.8 23.3
6-10-2022 0:32 31o 31.84' ( 31.5307) 162o 54.12' (-162.9019) 11.8 339.2 246.2 18.6 23.7 92.5 1011.1 23.2
6-10-2022 0:02 31o 26.40' ( 31.4400) 162o 51.56' (-162.8594) 11.6 335.9 245.4 20.7 23.6 91.7 1011.3 22.8
6-9-2022 23:32 31o 21.15' ( 31.3525) 162o 48.82' (-162.8136) 11.2 334.6 247.2 19.0 23.6 93.0 1011.6 22.8
6-9-2022 23:02 31o 15.90' ( 31.2651) 162o 46.22' (-162.7703) 11.7 336.8 245.6 19.9 23.6 93.5 1011.8 22.8
6-9-2022 22:32 31o 10.53' ( 31.1756) 162o 43.68' (-162.7279) 11.5 336.3 242.9 19.1 23.9 92.2 1012.1 22.9
6-9-2022 22:02 31o 5.22' ( 31.0870) 162o 41.10' (-162.6850) 11.3 334.8 248.3 16.3 23.8 92.1 1012.3 22.9
6-9-2022 21:32 30o 59.95' ( 30.9991) 162o 38.62' (-162.6437) 11.4 337.1 246.7 19.8 24.0 91.1 1012.4 22.9
6-9-2022 21:02 30o 54.65' ( 30.9109) 162o 36.15' (-162.6025) 11.5 334.6 252.3 18.6 24.2 91.4 1012.5 23.2
6-9-2022 20:32 30o 49.38' ( 30.8230) 162o 33.54' (-162.5590) 11.5 335.9 250.5 21.8 24.5 89.3 1012.5 23.4
6-9-2022 20:02 30o 44.14' ( 30.7357) 162o 30.95' (-162.5159) 11.4 335.9 246.2 18.0 24.7 91.0 1012.7 23.7
6-9-2022 19:32 30o 38.95' ( 30.6491) 162o 28.41' (-162.4735) 11.1 336.2 250.6 18.2 24.7 91.2 1012.8 24.0
6-9-2022 19:02 30o 33.80' ( 30.5634) 162o 25.98' (-162.4330) 11.1 335.4 249.3 19.1 24.7 91.6 1012.8 23.8
6-9-2022 18:32 30o 28.68' ( 30.4781) 162o 23.49' (-162.3915) 11.0 335.8 246.6 16.9 24.9 91.3 1012.9 23.9
6-9-2022 18:02 30o 23.52' ( 30.3920) 162o 20.97' (-162.3495) 11.2 336.2 246.6 16.8 24.8 91.5 1012.8 24.1
6-9-2022 17:32 30o 18.30' ( 30.3049) 162o 18.50' (-162.3083) 11.3 336.1 234.9 18.8 24.7 92.0 1012.5 24.3
6-9-2022 17:02 30o 13.13' ( 30.2188) 162o 16.05' (-162.2674) 10.9 337.3 239.6 19.0 24.6 92.8 1012.6 24.4
6-9-2022 16:32 30o 10.75' ( 30.1792) 162o 15.01' (-162.2502) 0.3 289.6 242.4 18.2 24.6 93.2 1012.7 24.3
6-9-2022 16:02 30o 10.74' ( 30.1790) 162o 15.02' (-162.2503) 0.2 291.2 242.1 15.7 24.4 94.6 1012.6 24.3
6-9-2022 15:32 30o 10.73' ( 30.1789) 162o 15.02' (-162.2503) 0.2 289.6 241.2 17.1 24.2 94.1 1012.2 24.3
6-9-2022 15:02 30o 10.72' ( 30.1787) 162o 15.03' (-162.2504) 0.2 288.5 246.3 17.9 23.9 93.2 1011.8 24.3
6-9-2022 14:32 30o 10.82' ( 30.1804) 162o 15.03' (-162.2505) 0.4 267.5 254.3 17.3 23.0 94.0 1011.8 24.3
6-9-2022 14:02 30o 10.93' ( 30.1822) 162o 15.03' (-162.2505) 0.2 268.5 245.7 23.0 23.7 94.8 1011.7 24.3
6-9-2022 13:32 30o 10.94' ( 30.1824) 162o 15.03' (-162.2505) 0.2 268.5 246.3 20.3 23.7 94.7 1011.9 24.4
6-9-2022 13:02 30o 10.94' ( 30.1824) 162o 15.03' (-162.2506) 0.3 267.8 254.7 18.6 23.8 95.5 1012.0 24.4
6-9-2022 12:32 30o 10.95' ( 30.1824) 162o 15.03' (-162.2505) 0.3 270.7 265.1 18.3 23.9 95.4 1012.2 24.4
6-9-2022 12:02 30o 10.96' ( 30.1827) 162o 15.04' (-162.2506) 0.2 256.0 239.3 18.1 24.6 93.4 1012.4 24.5
6-9-2022 11:32 30o 10.99' ( 30.1831) 162o 15.05' (-162.2508) 0.3 247.4 232.6 19.0 24.7 92.7 1012.6 24.5
6-9-2022 11:02 30o 10.99' ( 30.1831) 162o 15.05' (-162.2508) 0.2 253.0 230.6 17.6 24.7 92.8 1012.9 24.5
6-9-2022 10:32 30o 10.99' ( 30.1832) 162o 15.05' (-162.2508) 0.3 252.3 230.3 19.5 24.8 92.3 1013.2 24.5
6-9-2022 9:32 30o 11.00' ( 30.1833) 162o 15.05' (-162.2509) 0.2 256.3 227.0 16.8 24.8 92.0 1014.0 24.5
6-9-2022 9:02 30o 11.00' ( 30.1834) 162o 15.06' (-162.2509) 0.2 256.1 229.4 16.2 24.9 91.0 1014.4 24.6
6-9-2022 8:32 30o 8.21' ( 30.1368) 162o 13.67' (-162.2278) 11.5 336.8 233.0 16.6 25.1 91.0 1014.6 24.5
6-9-2022 8:02 30o 2.89' ( 30.0482) 162o 11.19' (-162.1865) 11.5 336.3 236.0 16.2 25.2 90.3 1014.7 24.6
6-9-2022 7:32 29o 57.53' ( 29.9588) 162o 8.69' (-162.1449) 11.7 335.9 236.2 17.5 25.2 90.0 1014.8 24.5
6-9-2022 7:02 29o 52.17' ( 29.8695) 162o 6.12' (-162.1020) 11.2 335.0 235.4 16.7 25.3 89.5 1014.9 24.9
6-9-2022 6:32 29o 46.95' ( 29.7825) 162o 3.58' (-162.0596) 11.3 333.5 237.6 16.3 25.4 89.1 1014.8 24.4
6-9-2022 6:02 29o 41.79' ( 29.6965) 162o 1.01' (-162.0168) 10.9 331.5 237.8 16.4 25.5 87.2 1014.6 24.6
6-9-2022 5:32 29o 36.78' ( 29.6130) 161o 58.63' (-161.9772) 10.9 334.1 239.7 16.0 25.7 86.3 1014.7 24.8
6-9-2022 5:02 29o 32.55' ( 29.5426) 161o 56.72' (-161.9453) 4.3 333.0 235.7 14.9 26.1 84.2 1014.6 25.0
6-9-2022 4:32 29o 28.00' ( 29.4666) 161o 54.36' (-161.9061) 11.0 332.1 238.1 16.1 26.0 83.0 1014.8 25.2
6-9-2022 4:02 29o 22.78' ( 29.3797) 161o 52.05' (-161.8675) 11.1 332.5 237.8 15.1 26.2 84.2 1014.6 25.2
6-9-2022 3:32 29o 17.72' ( 29.2953) 161o 49.30' (-161.8217) 11.2 332.9 244.4 15.1 26.2 81.8 1014.5 25.2
6-9-2022 3:02 29o 12.43' ( 29.2071) 161o 46.94' (-161.7823) 11.5 334.9 232.6 16.7 26.3 82.6 1014.6 25.6
6-9-2022 2:32 29o 7.10' ( 29.1183) 161o 44.43' (-161.7406) 11.5 333.5 245.8 14.2 26.1 83.0 1014.8 25.7
6-9-2022 2:02 29o 1.77' ( 29.0295) 161o 42.06' (-161.7010) 11.5 335.5 238.0 15.4 26.3 81.8 1015.0 25.7
6-9-2022 1:32 28o 56.44' ( 28.9406) 161o 39.53' (-161.6588) 11.6 334.2 242.4 13.8 26.1 81.8 1015.2 25.9
6-9-2022 1:02 28o 51.15' ( 28.8525) 161o 36.90' (-161.6149) 11.4 332.8 243.0 13.8 26.1 81.4 1015.4 25.5
6-9-2022 0:32 28o 45.87' ( 28.7644) 161o 34.47' (-161.5746) 11.3 336.9 249.3 13.2 26.2 80.0 1015.8 25.6
6-9-2022 0:02 28o 41.08' ( 28.6847) 161o 32.27' (-161.5378) 11.4 336.6 247.3 12.4 26.1 78.7 1016.0 25.6
6-8-2022 23:32 28o 35.74' ( 28.5956) 161o 29.83' (-161.4971) 11.7 341.1 240.8 12.9 26.2 78.9 1016.1 25.7
6-8-2022 23:02 28o 30.35' ( 28.5058) 161o 27.24' (-161.4539) 11.6 338.9 249.8 11.2 25.9 79.1 1016.0 25.9
6-8-2022 22:32 28o 24.87' ( 28.4146) 161o 24.69' (-161.4115) 12.0 338.7 246.2 10.7 25.9 77.6 1016.3 25.6
6-8-2022 22:02 28o 19.37' ( 28.3229) 161o 21.99' (-161.3664) 11.7 336.2 250.1 9.9 25.9 76.0 1016.5 25.7
6-8-2022 21:32 28o 15.42' ( 28.2569) 161o 19.86' (-161.3310) 0.4 319.8 258.4 9.5 26.9 77.0 1016.7 25.9
6-8-2022 21:02 28o 14.84' ( 28.2474) 161o 19.70' (-161.3283) 1.3 337.2 236.1 11.1 27.0 73.1 1016.7 25.8
6-8-2022 19:02 28o 3.84' ( 28.0641) 161o 14.52' (-161.2420) 12.1 337.5 226.2 16.5 25.6 86.6 1017.0 26.1
6-8-2022 18:32 27o 58.28' ( 27.9714) 161o 12.09' (-161.2015) 11.9 338.2 217.2 13.3 26.0 82.0 1017.2 26.1
6-8-2022 18:02 27o 52.75' ( 27.8792) 161o 9.58' (-161.1596) 12.0 337.2 202.7 14.2 25.8 85.7 1017.3 26.6
6-8-2022 17:32 27o 47.32' ( 27.7886) 161o 7.00' (-161.1166) 11.8 339.5 209.2 14.4 26.1 84.3 1017.1 26.7
6-8-2022 17:02 27o 41.77' ( 27.6961) 161o 4.69' (-161.0782) 11.6 340.4 209.1 11.1 25.7 81.6 1016.8 26.9
6-8-2022 16:32 27o 36.31' ( 27.6051) 161o 2.31' (-161.0384) 11.8 340.8 221.6 10.0 25.0 82.3 1016.8 26.7
6-8-2022 16:02 27o 30.80' ( 27.5134) 160o 59.92' (-160.9987) 11.8 340.3 263.6 10.5 24.0 87.0 1016.6 26.8
6-8-2022 15:32 27o 25.32' ( 27.4219) 160o 57.59' (-160.9598) 11.6 340.7 265.7 10.3 24.8 88.1 1016.6 26.9
6-8-2022 15:02 27o 19.83' ( 27.3305) 160o 55.48' (-160.9247) 10.1 340.2 230.5 11.3 25.9 79.3 1016.5 26.9
6-8-2022 14:32 27o 18.48' ( 27.3081) 160o 54.82' (-160.9137) 0.2 207.0 218.5 11.4 25.6 78.3 1016.6 26.6
6-8-2022 14:02 27o 18.48' ( 27.3081) 160o 54.82' (-160.9137) 0.2 187.1 223.1 10.2 26.0 81.5 1016.6 26.9
6-8-2022 13:32 27o 17.17' ( 27.2862) 160o 54.62' (-160.9103) 11.9 339.8 216.8 10.5 25.8 80.3 1016.8 27.0
6-8-2022 13:02 27o 11.67' ( 27.1944) 160o 52.18' (-160.8696) 11.6 339.9 217.4 10.4 25.6 82.0 1017.0 26.8
6-8-2022 12:32 27o 6.24' ( 27.1039) 160o 49.70' (-160.8284) 11.7 336.6 208.5 16.4 25.8 83.7 1017.2 26.7
6-8-2022 12:02 27o 0.86' ( 27.0143) 160o 47.09' (-160.7848) 11.7 336.6 167.0 8.8 25.2 84.1 1017.5 26.8
6-8-2022 11:32 26o 55.71' ( 26.9284) 160o 44.14' (-160.7356) 11.4 331.8 168.3 5.6 24.7 84.0 1018.0 26.6
6-8-2022 11:02 26o 50.82' ( 26.8470) 160o 40.98' (-160.6829) 10.9 328.2 189.8 7.2 25.9 74.4 1018.4 26.9
6-8-2022 10:32 26o 46.05' ( 26.7676) 160o 37.65' (-160.6275) 11.5 328.0 194.3 6.5 25.8 73.6 1018.8 27.0
6-8-2022 10:02 26o 40.99' ( 26.6832) 160o 34.31' (-160.5718) 11.7 327.8 202.3 7.2 25.8 72.5 1018.9 27.1
6-8-2022 9:32 26o 36.01' ( 26.6001) 160o 31.06' (-160.5177) 11.5 330.1 221.6 5.3 25.8 73.6 1019.2 27.0
6-8-2022 9:02 26o 31.01' ( 26.5168) 160o 27.95' (-160.4658) 11.3 329.7 195.5 6.0 25.9 71.0 1019.3 26.9
6-8-2022 8:32 26o 25.78' ( 26.4297) 160o 25.36' (-160.4227) 11.3 335.5 178.6 6.7 25.7 70.0 1019.3 27.2
6-8-2022 8:02 26o 20.65' ( 26.3441) 160o 23.07' (-160.3844) 10.9 335.4 195.3 6.0 25.8 71.6 1019.2 27.4
6-8-2022 7:32 26o 15.78' ( 26.2630) 160o 20.67' (-160.3445) 10.5 331.7 176.8 5.0 25.8 72.7 1019.1 27.6
6-8-2022 7:02 26o 10.83' ( 26.1805) 160o 18.36' (-160.3060) 10.8 333.3 179.3 5.2 25.7 72.6 1018.9 27.3
6-8-2022 6:32 26o 5.69' ( 26.0948) 160o 16.08' (-160.2680) 11.1 335.0 180.8 5.3 25.9 72.3 1018.7 27.4
6-8-2022 6:02 26o 0.84' ( 26.0139) 160o 13.79' (-160.2298) 9.2 333.9 168.6 6.7 25.8 71.5 1018.5 26.9
6-8-2022 5:32 25o 56.58' ( 25.9430) 160o 11.73' (-160.1955) 10.8 334.3 182.4 4.2 25.9 70.8 1018.3 27.3
6-8-2022 5:02 25o 51.49' ( 25.8582) 160o 9.56' (-160.1594) 10.9 335.9 147.8 3.6 26.4 68.8 1018.2 27.2
6-8-2022 4:32 25o 46.29' ( 25.7715) 160o 7.31' (-160.1219) 11.1 335.8 153.0 3.9 26.7 66.9 1018.0 27.5
6-8-2022 4:02 25o 41.14' ( 25.6856) 160o 5.01' (-160.0836) 11.1 337.0 163.8 5.1 26.6 65.2 1017.9 27.2
6-8-2022 3:32 25o 35.86' ( 25.5977) 160o 2.79' (-160.0465) 11.3 338.9 171.3 4.7 26.6 65.0 1017.8 27.1
6-8-2022 3:02 25o 30.49' ( 25.5082) 160o 0.55' (-160.0092) 11.4 339.1 165.2 5.7 26.8 66.5 1017.6 26.9
6-8-2022 2:32 25o 25.19' ( 25.4199) 159o 58.28' (-159.9713) 11.2 336.4 148.1 6.7 27.1 68.0 1017.5 26.7
6-8-2022 2:02 25o 19.85' ( 25.3308) 159o 55.91' (-159.9319) 11.4 336.2 148.8 6.2 27.4 64.6 1017.5 26.9
6-8-2022 1:32 25o 14.41' ( 25.2402) 159o 53.56' (-159.8927) 11.6 335.9 155.2 7.3 27.2 64.5 1017.6 27.0
6-8-2022 1:02 25o 8.87' ( 25.1478) 159o 51.28' (-159.8546) 12.1 339.8 169.6 8.7 27.2 67.5 1017.6 27.0
6-8-2022 0:32 25o 3.26' ( 25.0544) 159o 48.81' (-159.8135) 12.0 331.9 167.0 11.0 27.9 64.8 1017.8 27.1
6-8-2022 0:02 24o 57.76' ( 24.9627) 159o 46.32' (-159.7719) 11.8 336.3 156.5 10.4 26.9 70.2 1017.9 27.0
6-7-2022 23:32 24o 52.23' ( 24.8706) 159o 43.99' (-159.7332) 12.0 337.9 156.5 13.0 27.6 65.1 1018.1 26.9
6-7-2022 23:02 24o 46.83' ( 24.7805) 159o 41.66' (-159.6944) 10.2 332.3 156.5 10.0 26.9 70.5 1018.6 26.6
6-7-2022 22:32 24o 41.62' ( 24.6937) 159o 39.14' (-159.6523) 12.1 333.0 152.5 11.1 26.6 68.8 1019.0 26.7
6-7-2022 22:02 24o 36.03' ( 24.6004) 159o 36.77' (-159.6129) 12.0 335.9 157.0 9.1 26.4 68.0 1019.2 26.5
6-7-2022 21:32 24o 30.60' ( 24.5100) 159o 34.11' (-159.5685) 11.9 334.0 143.8 8.9 26.0 69.7 1019.3 26.3
6-7-2022 21:02 24o 25.40' ( 24.4234) 159o 31.23' (-159.5205) 11.7 333.7 140.4 6.9 25.8 72.7 1019.4 26.3
6-7-2022 20:32 24o 20.13' ( 24.3354) 159o 28.52' (-159.4753) 11.5 332.4 138.3 7.3 26.1 71.4 1019.4 26.1
6-7-2022 20:02 24o 15.53' ( 24.2588) 159o 26.07' (-159.4345) 6.1 312.3 109.2 8.9 25.6 72.7 1019.5 26.2
6-7-2022 19:32 24o 14.77' ( 24.2462) 159o 26.38' (-159.4397) 1.4 0.4 120.4 5.8 26.9 66.0 1019.4 26.0
6-7-2022 19:02 24o 14.06' ( 24.2343) 159o 26.64' (-159.4439) 1.4 1.1 107.7 2.8 26.5 66.0 1019.2 26.0
6-7-2022 18:32 24o 13.34' ( 24.2223) 159o 26.84' (-159.4473) 1.5 359.5 73.1 3.6 23.9 79.0 1019.2 26.0
6-7-2022 18:02 24o 13.29' ( 24.2216) 159o 27.11' (-159.4518) 1.3 106.3 98.7 11.9 23.4 83.6 1019.2 26.0
6-7-2022 17:32 24o 13.31' ( 24.2218) 159o 27.15' (-159.4526) 0.2 103.6 87.7 17.1 23.6 83.1 1018.8 25.9
6-7-2022 17:02 24o 13.29' ( 24.2215) 159o 27.16' (-159.4526) 0.4 47.3 108.3 17.8 24.8 81.0 1018.6 26.1
6-7-2022 16:32 24o 13.26' ( 24.2210) 159o 27.11' (-159.4518) 0.2 297.9 100.5 9.0 26.3 71.0 1018.2 26.1
6-7-2022 16:02 24o 13.26' ( 24.2210) 159o 27.11' (-159.4518) 0.2 297.8 95.8 8.9 26.4 70.3 1018.2 26.1
6-7-2022 15:32 24o 13.26' ( 24.2210) 159o 27.11' (-159.4518) 0.2 296.5 116.6 5.5 25.3 75.7 1017.9 26.2
6-7-2022 15:02 24o 13.26' ( 24.2210) 159o 27.11' (-159.4518) 0.2 297.2 147.4 6.4 26.0 73.4 1017.7 26.2
6-7-2022 14:32 24o 13.27' ( 24.2211) 159o 27.11' (-159.4519) 0.2 313.3 112.6 6.0 25.5 71.3 1017.6 26.2
6-7-2022 14:02 24o 13.28' ( 24.2213) 159o 27.10' (-159.4517) 0.3 24.7 138.9 7.7 25.2 75.6 1017.4 26.2
6-7-2022 13:32 24o 13.29' ( 24.2215) 159o 27.10' (-159.4517) 0.2 45.9 104.6 15.5 24.8 69.7 1017.3 26.0
6-7-2022 13:02 24o 13.32' ( 24.2220) 159o 27.09' (-159.4515) 0.3 354.7 129.7 12.0 25.5 79.9 1017.3 26.3
6-7-2022 12:32 24o 13.33' ( 24.2221) 159o 27.08' (-159.4513) 0.2 335.2 107.0 9.3 25.3 75.3 1017.5 26.3
6-7-2022 12:02 24o 13.33' ( 24.2221) 159o 27.07' (-159.4512) 0.2 329.7 115.8 9.5 25.0 73.7 1017.8 26.4
6-7-2022 11:32 24o 13.33' ( 24.2221) 159o 27.07' (-159.4512) 0.2 327.9 86.6 5.0 25.0 76.7 1017.8 26.4
6-7-2022 11:02 24o 13.33' ( 24.2221) 159o 27.07' (-159.4512) 0.2 326.5 88.4 10.6 25.4 74.3 1018.2 26.4
6-7-2022 10:32 24o 13.34' ( 24.2223) 159o 27.06' (-159.4510) 0.1 325.5 96.2 7.1 25.7 73.6 1018.5 26.5
6-7-2022 10:02 24o 13.34' ( 24.2223) 159o 27.05' (-159.4509) 0.2 320.5 85.2 7.6 25.4 71.6 1018.8 26.5
6-7-2022 9:32 24o 13.34' ( 24.2223) 159o 27.06' (-159.4510) 0.2 315.2 86.1 7.9 25.3 70.0 1018.9 26.5
6-7-2022 9:02 24o 13.42' ( 24.2237) 159o 27.15' (-159.4525) 0.5 111.6 84.6 7.3 25.1 71.7 1018.8 26.4
6-7-2022 8:32 24o 9.80' ( 24.1633) 159o 25.67' (-159.4278) 11.4 336.6 82.2 9.3 25.1 70.8 1019.0 26.3
6-7-2022 8:02 24o 4.45' ( 24.0742) 159o 23.36' (-159.3893) 11.4 337.6 75.0 8.9 25.3 71.6 1019.0 26.7
6-7-2022 7:32 23o 59.05' ( 23.9842) 159o 21.12' (-159.3520) 11.7 339.0 86.1 9.7 25.1 71.1 1018.8 26.4
6-7-2022 7:02 23o 53.55' ( 23.8925) 159o 18.77' (-159.3128) 11.9 339.8 73.4 10.3 25.3 74.1 1018.5 26.2
6-7-2022 6:32 23o 48.00' ( 23.8000) 159o 16.47' (-159.2746) 11.7 339.8 79.0 10.8 25.2 73.3 1018.3 26.4
6-7-2022 6:02 23o 42.46' ( 23.7076) 159o 14.00' (-159.2334) 12.1 338.4 81.9 9.1 25.4 74.5 1018.1 26.0
6-7-2022 5:32 23o 36.86' ( 23.6144) 159o 11.53' (-159.1921) 12.0 338.8 81.4 9.9 25.3 73.0 1018.0 26.3
6-7-2022 5:02 23o 31.20' ( 23.5199) 159o 9.18' (-159.1530) 12.1 340.6 77.1 9.2 25.4 71.5 1017.8 26.4
6-7-2022 4:32 23o 25.61' ( 23.4269) 159o 6.92' (-159.1154) 11.6 338.7 82.6 8.8 25.6 70.0 1017.4 26.4
6-7-2022 4:02 23o 20.19' ( 23.3365) 159o 4.59' (-159.0764) 11.6 338.0 81.8 9.0 25.7 69.9 1017.1 26.4
6-7-2022 3:32 23o 14.75' ( 23.2458) 159o 2.31' (-159.0385) 11.6 338.1 76.5 11.5 25.8 69.1 1016.9 26.1
6-7-2022 3:02 23o 9.33' ( 23.1555) 158o 59.98' (-158.9996) 11.6 339.0 78.7 10.4 25.8 68.8 1016.8 26.1
6-7-2022 2:32 23o 3.90' ( 23.0650) 158o 57.61' (-158.9602) 11.5 339.3 71.3 10.3 25.7 67.8 1016.8 26.0
6-7-2022 2:02 22o 58.48' ( 22.9746) 158o 55.31' (-158.9219) 11.7 342.4 82.4 8.8 25.9 69.0 1016.8 26.0
6-7-2022 1:32 22o 53.00' ( 22.8834) 158o 53.19' (-158.8865) 11.4 342.8 83.5 8.3 25.6 69.7 1016.9 25.8
6-7-2022 1:02 22o 47.59' ( 22.7932) 158o 50.97' (-158.8495) 11.6 341.8 73.6 8.0 25.5 71.0 1017.0 25.9
6-7-2022 0:32 22o 42.17' ( 22.7028) 158o 48.68' (-158.8113) 11.5 342.4 74.0 7.7 25.4 71.4 1017.2 25.8
6-7-2022 0:02 22o 36.71' ( 22.6118) 158o 46.40' (-158.7733) 11.8 340.9 76.5 8.2 25.4 70.1 1017.3 25.7
6-6-2022 23:32 22o 31.23' ( 22.5204) 158o 44.10' (-158.7350) 11.5 340.9 82.8 9.7 25.4 69.8 1017.4 25.7
6-6-2022 23:02 22o 25.83' ( 22.4305) 158o 41.80' (-158.6967) 11.6 340.3 65.7 9.2 25.4 72.9 1017.6 25.7
6-6-2022 22:32 22o 20.43' ( 22.3406) 158o 39.58' (-158.6597) 11.4 340.5 70.0 11.0 25.3 71.2 1017.8 25.5
6-6-2022 22:02 22o 15.06' ( 22.2510) 158o 37.41' (-158.6236) 11.5 340.7 57.6 10.4 25.3 76.0 1018.0 25.5
6-6-2022 21:32 22o 9.69' ( 22.1614) 158o 35.23' (-158.5872) 11.5 340.1 88.1 7.5 25.7 73.2 1018.1 25.4
6-6-2022 21:02 22o 4.27' ( 22.0712) 158o 33.01' (-158.5501) 11.7 339.0 77.4 8.5 25.5 72.8 1018.2 25.4
6-6-2022 20:32 21o 58.82' ( 21.9803) 158o 30.45' (-158.5075) 12.0 336.7 70.3 8.5 25.4 73.9 1018.3 25.3
6-6-2022 20:02 21o 53.41' ( 21.8902) 158o 27.76' (-158.4627) 11.8 338.3 73.0 9.0 25.4 72.9 1018.2 25.3
6-6-2022 19:32 21o 47.76' ( 21.7959) 158o 26.07' (-158.4345) 11.4 345.2 61.1 9.4 25.5 72.9 1018.2 25.5
6-6-2022 19:02 21o 46.34' ( 21.7723) 158o 25.59' (-158.4266) 0.2 74.0 76.4 11.3 25.2 71.0 1018.1 25.5
6-6-2022 18:32 21o 46.33' ( 21.7721) 158o 25.59' (-158.4265) 0.2 67.8 79.2 10.0 25.6 75.2 1018.0 25.5
6-6-2022 18:02 21o 46.34' ( 21.7723) 158o 25.59' (-158.4265) 0.2 71.2 74.1 11.8 25.2 74.7 1017.9 25.5
6-6-2022 17:32 21o 46.34' ( 21.7723) 158o 25.59' (-158.4265) 0.2 71.7 83.8 12.0 25.3 77.2 1017.6 25.5
6-6-2022 17:02 21o 46.35' ( 21.7725) 158o 25.59' (-158.4265) 0.2 80.8 81.9 10.9 24.9 77.8 1017.4 25.5
6-6-2022 16:32 21o 46.35' ( 21.7725) 158o 25.59' (-158.4265) 0.1 80.7 81.8 11.6 24.3 76.7 1017.3 25.5
6-6-2022 16:02 21o 46.35' ( 21.7725) 158o 25.59' (-158.4265) 0.2 74.5 78.4 11.6 24.0 80.0 1016.6 25.5
6-6-2022 15:32 21o 46.34' ( 21.7723) 158o 25.59' (-158.4265) 0.2 74.5 86.5 11.8 24.1 79.8 1016.7 25.5
6-6-2022 15:02 21o 46.31' ( 21.7718) 158o 25.58' (-158.4264) 0.2 74.6 83.6 11.8 24.1 80.0 1016.6 25.5
6-6-2022 14:32 21o 46.31' ( 21.7719) 158o 25.58' (-158.4264) 0.1 71.8 82.9 12.1 24.2 80.0 1016.4 25.5
6-6-2022 14:02 21o 46.31' ( 21.7719) 158o 25.58' (-158.4264) 0.2 73.4 86.3 12.6 24.3 81.3 1016.3 25.5
6-6-2022 13:32 21o 43.88' ( 21.7313) 158o 24.46' (-158.4076) 11.6 337.1 86.5 8.0 24.5 79.6 1016.7 25.9
6-6-2022 13:02 21o 38.24' ( 21.6373) 158o 22.35' (-158.3725) 12.1 339.3 78.6 7.4 24.4 75.0 1016.7 25.8
6-6-2022 12:32 21o 32.50' ( 21.5416) 158o 20.34' (-158.3389) 12.3 339.6 30.4 8.2 24.6 72.8 1016.8 25.9
6-6-2022 12:02 21o 26.73' ( 21.4454) 158o 18.10' (-158.3017) 12.2 341.8 353.0 2.2 24.9 76.4 1016.9 26.3
6-6-2022 11:32 21o 21.01' ( 21.3501) 158o 15.87' (-158.2645) 12.2 330.4 36.1 3.6 24.8 72.9 1017.0 26.6
6-6-2022 11:02 21o 16.61' ( 21.2768) 158o 11.45' (-158.1909) 12.0 310.8 53.8 7.7 24.4 73.6 1017.3 26.1
6-6-2022 10:32 21o 14.87' ( 21.2478) 158o 5.48' (-158.0914) 11.3 280.0 93.9 8.7 24.7 78.0 1017.6 26.1
6-6-2022 10:02 21o 14.82' ( 21.2470) 157o 59.42' (-157.9903) 11.5 269.7 86.7 9.6 24.7 76.3 1017.8 25.8
6-6-2022 9:32 21o 16.86' ( 21.2811) 157o 54.02' (-157.9003) 10.4 249.5 95.2 7.2 24.8 73.0 1017.7 26.1
6-6-2022 9:02 21o 18.69' ( 21.3115) 157o 52.51' (-157.8752) 4.9 125.0 73.0 9.6 24.8 72.8 1017.7 26.3
6-6-2022 8:32 21o 18.91' ( 21.3151) 157o 52.65' (-157.8775) 0.0 208.7 64.9 11.0 25.1 70.0 1017.6 26.3
6-6-2022 8:02 21o 18.91' ( 21.3151) 157o 52.65' (-157.8774) 0.0 208.6 57.2 10.4 25.1 70.0 1017.4 26.3
6-6-2022 7:32 21o 18.91' ( 21.3151) 157o 52.65' (-157.8775) 0.0 208.5 61.0 5.2 25.0 72.2 1017.3 26.3
6-6-2022 7:02 21o 18.91' ( 21.3151) 157o 52.65' (-157.8775) 0.0 208.7 72.4 7.3 24.9 73.3 1017.0 26.3
6-6-2022 6:32 21o 18.91' ( 21.3151) 157o 52.65' (-157.8775) 0.0 208.6 64.3 7.9 25.0 74.1 1016.8 26.4
6-6-2022 6:02 21o 18.91' ( 21.3151) 157o 52.65' (-157.8775) 0.0 208.8 66.0 8.1 25.2 73.8 1016.4 26.4
6-6-2022 5:32 21o 18.91' ( 21.3151) 157o 52.65' (-157.8775) 0.0 208.8 77.7 7.4 25.5 70.7 1016.1 26.4
6-6-2022 5:02 21o 18.91' ( 21.3151) 157o 52.65' (-157.8775) 0.0 208.7 63.8 8.9 25.8 68.8 1015.8 26.4
6-6-2022 4:32 21o 18.91' ( 21.3151) 157o 52.65' (-157.8774) 0.0 208.8 57.6 10.7 26.7 65.2 1015.7 26.5
6-6-2022 4:02 21o 18.91' ( 21.3151) 157o 52.65' (-157.8774) 0.0 208.7 59.3 13.2 27.1 62.5 1015.2 26.5